<?xml version="1.0" encoding="UTF-8" standalone="no" ?>
<gpx xmlns="http://www.topografix.com/GPX/1/1" xmlns:xsi="http://www.w3.org/2001/XMLSchema-instance" xsi:schemaLocation="http://www.topografix.com/GPX/1/1 http://www.topografix.com/GPX/1/1/gpx.xsd" version="1.1" creator="VisuGPX - https://www.visugpx.com">
  <metadata>
    <name>marbriere 2022</name>
    <desc><![CDATA[Pour Gransrandonnée par randoJP]]></desc>
  </metadata>
  <trk>
    <name><![CDATA[marbriere 2022]]></name>
    <trkseg>
      <trkpt lat="43.5222" lon="5.54695">
        <ele>243.35083007812</ele>
        <time>2022-03-16T08:36:25Z</time>
      </trkpt>
      <trkpt lat="43.5222" lon="5.54695">
        <ele>243.35083007812</ele>
        <time>2022-03-16T08:36:26Z</time>
      </trkpt>
      <trkpt lat="43.52219" lon="5.54698">
        <ele>245.75415039062</ele>
        <time>2022-03-16T08:36:47Z</time>
      </trkpt>
      <trkpt lat="43.52219" lon="5.54697">
        <ele>247.19604492188</ele>
        <time>2022-03-16T08:37:05Z</time>
      </trkpt>
      <trkpt lat="43.5222" lon="5.54697">
        <ele>248.15759277344</ele>
        <time>2022-03-16T08:37:18Z</time>
      </trkpt>
      <trkpt lat="43.5222" lon="5.54697">
        <ele>247.6767578125</ele>
        <time>2022-03-16T08:38:09Z</time>
      </trkpt>
      <trkpt lat="43.52219" lon="5.54696">
        <ele>247.6767578125</ele>
        <time>2022-03-16T08:39:43Z</time>
      </trkpt>
      <trkpt lat="43.52218" lon="5.54696">
        <ele>247.6767578125</ele>
        <time>2022-03-16T08:39:57Z</time>
      </trkpt>
      <trkpt lat="43.52209" lon="5.54699">
        <ele>247.6767578125</ele>
        <time>2022-03-16T08:40:12Z</time>
      </trkpt>
      <trkpt lat="43.52208" lon="5.547">
        <ele>247.6767578125</ele>
        <time>2022-03-16T08:40:13Z</time>
      </trkpt>
      <trkpt lat="43.52203" lon="5.54711">
        <ele>249.11877441406</ele>
        <time>2022-03-16T08:40:24Z</time>
      </trkpt>
      <trkpt lat="43.52177" lon="5.54708">
        <ele>249.59948730469</ele>
        <time>2022-03-16T08:40:49Z</time>
      </trkpt>
      <trkpt lat="43.52165" lon="5.54707">
        <ele>248.63818359375</ele>
        <time>2022-03-16T08:41:05Z</time>
      </trkpt>
      <trkpt lat="43.52156" lon="5.54709">
        <ele>246.23486328125</ele>
        <time>2022-03-16T08:41:19Z</time>
      </trkpt>
      <trkpt lat="43.52152" lon="5.54712">
        <ele>245.2734375</ele>
        <time>2022-03-16T08:41:23Z</time>
      </trkpt>
      <trkpt lat="43.5214" lon="5.54703">
        <ele>244.79284667969</ele>
        <time>2022-03-16T08:41:37Z</time>
      </trkpt>
      <trkpt lat="43.52132" lon="5.54699">
        <ele>244.31225585938</ele>
        <time>2022-03-16T08:41:51Z</time>
      </trkpt>
      <trkpt lat="43.52131" lon="5.54698">
        <ele>244.31225585938</ele>
        <time>2022-03-16T08:42:05Z</time>
      </trkpt>
      <trkpt lat="43.5213" lon="5.54696">
        <ele>244.79284667969</ele>
        <time>2022-03-16T08:42:17Z</time>
      </trkpt>
      <trkpt lat="43.5213" lon="5.54696">
        <ele>244.31225585938</ele>
        <time>2022-03-16T08:42:46Z</time>
      </trkpt>
      <trkpt lat="43.52127" lon="5.5472">
        <ele>246.23486328125</ele>
        <time>2022-03-16T08:43:04Z</time>
      </trkpt>
      <trkpt lat="43.52127" lon="5.54721">
        <ele>246.23486328125</ele>
        <time>2022-03-16T08:43:05Z</time>
      </trkpt>
      <trkpt lat="43.52129" lon="5.54742">
        <ele>248.15759277344</ele>
        <time>2022-03-16T08:43:23Z</time>
      </trkpt>
      <trkpt lat="43.52134" lon="5.54762">
        <ele>249.59948730469</ele>
        <time>2022-03-16T08:43:39Z</time>
      </trkpt>
      <trkpt lat="43.52136" lon="5.54768">
        <ele>250.08020019531</ele>
        <time>2022-03-16T08:43:43Z</time>
      </trkpt>
      <trkpt lat="43.52147" lon="5.54787">
        <ele>252.4833984375</ele>
        <time>2022-03-16T08:44:01Z</time>
      </trkpt>
      <trkpt lat="43.52154" lon="5.54801">
        <ele>254.40600585938</ele>
        <time>2022-03-16T08:44:16Z</time>
      </trkpt>
      <trkpt lat="43.52158" lon="5.54805">
        <ele>254.88659667969</ele>
        <time>2022-03-16T08:44:22Z</time>
      </trkpt>
      <trkpt lat="43.5216" lon="5.54807">
        <ele>256.32873535156</ele>
        <time>2022-03-16T08:44:25Z</time>
      </trkpt>
      <trkpt lat="43.52169" lon="5.54812">
        <ele>257.2900390625</ele>
        <time>2022-03-16T08:44:38Z</time>
      </trkpt>
      <trkpt lat="43.52173" lon="5.54811">
        <ele>257.77075195312</ele>
        <time>2022-03-16T08:44:42Z</time>
      </trkpt>
      <trkpt lat="43.52191" lon="5.54823">
        <ele>258.25134277344</ele>
        <time>2022-03-16T08:45:00Z</time>
      </trkpt>
      <trkpt lat="43.52191" lon="5.54825">
        <ele>258.25134277344</ele>
        <time>2022-03-16T08:45:17Z</time>
      </trkpt>
      <trkpt lat="43.5219" lon="5.54825">
        <ele>258.25134277344</ele>
        <time>2022-03-16T08:45:48Z</time>
      </trkpt>
      <trkpt lat="43.52201" lon="5.5483">
        <ele>258.25134277344</ele>
        <time>2022-03-16T08:46:05Z</time>
      </trkpt>
      <trkpt lat="43.52219" lon="5.5483">
        <ele>259.21264648438</ele>
        <time>2022-03-16T08:46:25Z</time>
      </trkpt>
      <trkpt lat="43.52225" lon="5.54828">
        <ele>259.693359375</ele>
        <time>2022-03-16T08:46:30Z</time>
      </trkpt>
      <trkpt lat="43.52238" lon="5.54831">
        <ele>259.693359375</ele>
        <time>2022-03-16T08:46:44Z</time>
      </trkpt>
      <trkpt lat="43.52247" lon="5.54826">
        <ele>260.65454101562</ele>
        <time>2022-03-16T08:46:53Z</time>
      </trkpt>
      <trkpt lat="43.52252" lon="5.54825">
        <ele>262.09655761719</ele>
        <time>2022-03-16T08:46:58Z</time>
      </trkpt>
      <trkpt lat="43.52267" lon="5.54824">
        <ele>263.05786132812</ele>
        <time>2022-03-16T08:47:15Z</time>
      </trkpt>
      <trkpt lat="43.52275" lon="5.54832">
        <ele>264.49987792969</ele>
        <time>2022-03-16T08:47:25Z</time>
      </trkpt>
      <trkpt lat="43.52288" lon="5.54858">
        <ele>267.38391113281</ele>
        <time>2022-03-16T08:47:51Z</time>
      </trkpt>
      <trkpt lat="43.52299" lon="5.54872">
        <ele>270.74841308594</ele>
        <time>2022-03-16T08:48:10Z</time>
      </trkpt>
      <trkpt lat="43.5231" lon="5.5488">
        <ele>272.67114257812</ele>
        <time>2022-03-16T08:48:25Z</time>
      </trkpt>
      <trkpt lat="43.52321" lon="5.54882">
        <ele>273.63244628906</ele>
        <time>2022-03-16T08:48:37Z</time>
      </trkpt>
      <trkpt lat="43.52335" lon="5.5489">
        <ele>276.03564453125</ele>
        <time>2022-03-16T08:48:55Z</time>
      </trkpt>
      <trkpt lat="43.52339" lon="5.54895">
        <ele>276.51635742188</ele>
        <time>2022-03-16T08:49:03Z</time>
      </trkpt>
      <trkpt lat="43.52346" lon="5.54915">
        <ele>278.43896484375</ele>
        <time>2022-03-16T08:49:18Z</time>
      </trkpt>
      <trkpt lat="43.52349" lon="5.54927">
        <ele>278.91967773438</ele>
        <time>2022-03-16T08:49:28Z</time>
      </trkpt>
      <trkpt lat="43.52352" lon="5.54942">
        <ele>280.84240722656</ele>
        <time>2022-03-16T08:49:44Z</time>
      </trkpt>
      <trkpt lat="43.52353" lon="5.54942">
        <ele>281.32299804688</ele>
        <time>2022-03-16T08:49:45Z</time>
      </trkpt>
      <trkpt lat="43.52358" lon="5.54954">
        <ele>283.72619628906</ele>
        <time>2022-03-16T08:49:56Z</time>
      </trkpt>
      <trkpt lat="43.52362" lon="5.54957">
        <ele>283.72619628906</ele>
        <time>2022-03-16T08:50:00Z</time>
      </trkpt>
      <trkpt lat="43.5238" lon="5.54972">
        <ele>285.64880371094</ele>
        <time>2022-03-16T08:50:22Z</time>
      </trkpt>
      <trkpt lat="43.5239" lon="5.54978">
        <ele>287.57141113281</ele>
        <time>2022-03-16T08:50:37Z</time>
      </trkpt>
      <trkpt lat="43.52403" lon="5.5499">
        <ele>289.01354980469</ele>
        <time>2022-03-16T08:50:53Z</time>
      </trkpt>
      <trkpt lat="43.52409" lon="5.55011">
        <ele>290.93615722656</ele>
        <time>2022-03-16T08:51:10Z</time>
      </trkpt>
      <trkpt lat="43.52416" lon="5.55034">
        <ele>293.82006835938</ele>
        <time>2022-03-16T08:51:29Z</time>
      </trkpt>
      <trkpt lat="43.5242" lon="5.55045">
        <ele>294.78137207031</ele>
        <time>2022-03-16T08:51:42Z</time>
      </trkpt>
      <trkpt lat="43.52429" lon="5.55064">
        <ele>296.22351074219</ele>
        <time>2022-03-16T08:51:59Z</time>
      </trkpt>
      <trkpt lat="43.52434" lon="5.55076">
        <ele>298.14611816406</ele>
        <time>2022-03-16T08:52:11Z</time>
      </trkpt>
      <trkpt lat="43.52443" lon="5.55092">
        <ele>300.06872558594</ele>
        <time>2022-03-16T08:52:26Z</time>
      </trkpt>
      <trkpt lat="43.52445" lon="5.55097">
        <ele>300.06872558594</ele>
        <time>2022-03-16T08:52:30Z</time>
      </trkpt>
      <trkpt lat="43.52449" lon="5.55104">
        <ele>301.02990722656</ele>
        <time>2022-03-16T08:52:36Z</time>
      </trkpt>
      <trkpt lat="43.52453" lon="5.55109">
        <ele>301.99133300781</ele>
        <time>2022-03-16T08:52:41Z</time>
      </trkpt>
      <trkpt lat="43.52463" lon="5.55136">
        <ele>304.87524414062</ele>
        <time>2022-03-16T08:53:05Z</time>
      </trkpt>
      <trkpt lat="43.52471" lon="5.55171">
        <ele>307.75927734375</ele>
        <time>2022-03-16T08:53:32Z</time>
      </trkpt>
      <trkpt lat="43.52478" lon="5.55191">
        <ele>310.16247558594</ele>
        <time>2022-03-16T08:53:53Z</time>
      </trkpt>
      <trkpt lat="43.52483" lon="5.55214">
        <ele>312.08520507812</ele>
        <time>2022-03-16T08:54:10Z</time>
      </trkpt>
      <trkpt lat="43.5249" lon="5.55242">
        <ele>313.52722167969</ele>
        <time>2022-03-16T08:54:31Z</time>
      </trkpt>
      <trkpt lat="43.52498" lon="5.55261">
        <ele>316.41101074219</ele>
        <time>2022-03-16T08:54:48Z</time>
      </trkpt>
      <trkpt lat="43.52503" lon="5.55274">
        <ele>316.41101074219</ele>
        <time>2022-03-16T08:54:58Z</time>
      </trkpt>
      <trkpt lat="43.52504" lon="5.5528">
        <ele>316.41101074219</ele>
        <time>2022-03-16T08:55:03Z</time>
      </trkpt>
      <trkpt lat="43.52505" lon="5.55288">
        <ele>316.89172363281</ele>
        <time>2022-03-16T08:55:08Z</time>
      </trkpt>
      <trkpt lat="43.52506" lon="5.55288">
        <ele>316.89172363281</ele>
        <time>2022-03-16T08:55:10Z</time>
      </trkpt>
      <trkpt lat="43.52512" lon="5.55318">
        <ele>317.85302734375</ele>
        <time>2022-03-16T08:55:31Z</time>
      </trkpt>
      <trkpt lat="43.52514" lon="5.55327">
        <ele>317.85302734375</ele>
        <time>2022-03-16T08:55:37Z</time>
      </trkpt>
      <trkpt lat="43.52514" lon="5.55335">
        <ele>318.33361816406</ele>
        <time>2022-03-16T08:55:43Z</time>
      </trkpt>
      <trkpt lat="43.52524" lon="5.55367">
        <ele>319.77563476562</ele>
        <time>2022-03-16T08:56:07Z</time>
      </trkpt>
      <trkpt lat="43.52532" lon="5.55395">
        <ele>320.73706054688</ele>
        <time>2022-03-16T08:56:28Z</time>
      </trkpt>
      <trkpt lat="43.52537" lon="5.55422">
        <ele>321.69836425781</ele>
        <time>2022-03-16T08:56:47Z</time>
      </trkpt>
      <trkpt lat="43.52542" lon="5.55447">
        <ele>321.69836425781</ele>
        <time>2022-03-16T08:57:04Z</time>
      </trkpt>
      <trkpt lat="43.52548" lon="5.55473">
        <ele>323.14038085938</ele>
        <time>2022-03-16T08:57:23Z</time>
      </trkpt>
      <trkpt lat="43.52557" lon="5.55495">
        <ele>325.06298828125</ele>
        <time>2022-03-16T08:57:43Z</time>
      </trkpt>
      <trkpt lat="43.52564" lon="5.55526">
        <ele>325.54357910156</ele>
        <time>2022-03-16T08:58:05Z</time>
      </trkpt>
      <trkpt lat="43.52567" lon="5.55533">
        <ele>326.5048828125</ele>
        <time>2022-03-16T08:58:13Z</time>
      </trkpt>
      <trkpt lat="43.52576" lon="5.55558">
        <ele>326.98559570312</ele>
        <time>2022-03-16T08:58:32Z</time>
      </trkpt>
      <trkpt lat="43.52584" lon="5.5558">
        <ele>328.90832519531</ele>
        <time>2022-03-16T08:58:51Z</time>
      </trkpt>
      <trkpt lat="43.52593" lon="5.55606">
        <ele>330.83093261719</ele>
        <time>2022-03-16T08:59:12Z</time>
      </trkpt>
      <trkpt lat="43.52596" lon="5.55614">
        <ele>332.27282714844</ele>
        <time>2022-03-16T08:59:19Z</time>
      </trkpt>
      <trkpt lat="43.52604" lon="5.55629">
        <ele>333.71472167969</ele>
        <time>2022-03-16T08:59:35Z</time>
      </trkpt>
      <trkpt lat="43.52605" lon="5.55631">
        <ele>334.19543457031</ele>
        <time>2022-03-16T08:59:37Z</time>
      </trkpt>
      <trkpt lat="43.52612" lon="5.5564">
        <ele>335.15673828125</ele>
        <time>2022-03-16T08:59:47Z</time>
      </trkpt>
      <trkpt lat="43.52623" lon="5.55649">
        <ele>337.07946777344</ele>
        <time>2022-03-16T09:00:01Z</time>
      </trkpt>
      <trkpt lat="43.52633" lon="5.55668">
        <ele>338.521484375</ele>
        <time>2022-03-16T09:00:20Z</time>
      </trkpt>
      <trkpt lat="43.52641" lon="5.55685">
        <ele>340.44409179688</ele>
        <time>2022-03-16T09:00:39Z</time>
      </trkpt>
      <trkpt lat="43.52655" lon="5.55679">
        <ele>341.88598632812</ele>
        <time>2022-03-16T09:00:59Z</time>
      </trkpt>
      <trkpt lat="43.52658" lon="5.55668">
        <ele>342.36669921875</ele>
        <time>2022-03-16T09:01:08Z</time>
      </trkpt>
      <trkpt lat="43.52662" lon="5.55641">
        <ele>345.73132324219</ele>
        <time>2022-03-16T09:01:30Z</time>
      </trkpt>
      <trkpt lat="43.52664" lon="5.55626">
        <ele>347.17321777344</ele>
        <time>2022-03-16T09:01:43Z</time>
      </trkpt>
      <trkpt lat="43.52668" lon="5.55617">
        <ele>347.65393066406</ele>
        <time>2022-03-16T09:01:50Z</time>
      </trkpt>
      <trkpt lat="43.52669" lon="5.55587">
        <ele>349.57653808594</ele>
        <time>2022-03-16T09:02:12Z</time>
      </trkpt>
      <trkpt lat="43.5267" lon="5.55574">
        <ele>351.01843261719</ele>
        <time>2022-03-16T09:02:30Z</time>
      </trkpt>
      <trkpt lat="43.52671" lon="5.55566">
        <ele>350.05725097656</ele>
        <time>2022-03-16T09:02:36Z</time>
      </trkpt>
      <trkpt lat="43.52676" lon="5.55551">
        <ele>350.53784179688</ele>
        <time>2022-03-16T09:02:50Z</time>
      </trkpt>
      <trkpt lat="43.52679" lon="5.55546">
        <ele>351.01843261719</ele>
        <time>2022-03-16T09:02:54Z</time>
      </trkpt>
      <trkpt lat="43.52688" lon="5.55534">
        <ele>351.01843261719</ele>
        <time>2022-03-16T09:03:14Z</time>
      </trkpt>
      <trkpt lat="43.52691" lon="5.55534">
        <ele>351.49914550781</ele>
        <time>2022-03-16T09:03:27Z</time>
      </trkpt>
      <trkpt lat="43.52692" lon="5.55535">
        <ele>351.49914550781</ele>
        <time>2022-03-16T09:04:01Z</time>
      </trkpt>
      <trkpt lat="43.5269" lon="5.55535">
        <ele>351.49914550781</ele>
        <time>2022-03-16T09:04:59Z</time>
      </trkpt>
      <trkpt lat="43.52688" lon="5.55538">
        <ele>351.97985839844</ele>
        <time>2022-03-16T09:05:27Z</time>
      </trkpt>
      <trkpt lat="43.52686" lon="5.55538">
        <ele>351.97985839844</ele>
        <time>2022-03-16T09:05:46Z</time>
      </trkpt>
      <trkpt lat="43.52687" lon="5.55539">
        <ele>351.97985839844</ele>
        <time>2022-03-16T09:06:31Z</time>
      </trkpt>
      <trkpt lat="43.52686" lon="5.55539">
        <ele>352.46057128906</ele>
        <time>2022-03-16T09:07:27Z</time>
      </trkpt>
      <trkpt lat="43.52687" lon="5.5554">
        <ele>351.97985839844</ele>
        <time>2022-03-16T09:07:48Z</time>
      </trkpt>
      <trkpt lat="43.52687" lon="5.55541">
        <ele>351.97985839844</ele>
        <time>2022-03-16T09:08:14Z</time>
      </trkpt>
      <trkpt lat="43.52687" lon="5.55539">
        <ele>352.94116210938</ele>
        <time>2022-03-16T09:08:38Z</time>
      </trkpt>
      <trkpt lat="43.52687" lon="5.55538">
        <ele>352.46057128906</ele>
        <time>2022-03-16T09:09:06Z</time>
      </trkpt>
      <trkpt lat="43.52687" lon="5.55537">
        <ele>351.49914550781</ele>
        <time>2022-03-16T09:09:24Z</time>
      </trkpt>
      <trkpt lat="43.52688" lon="5.55538">
        <ele>351.97985839844</ele>
        <time>2022-03-16T09:09:56Z</time>
      </trkpt>
      <trkpt lat="43.52688" lon="5.55538">
        <ele>351.97985839844</ele>
        <time>2022-03-16T09:10:35Z</time>
      </trkpt>
      <trkpt lat="43.52688" lon="5.55538">
        <ele>352.46057128906</ele>
        <time>2022-03-16T09:11:29Z</time>
      </trkpt>
      <trkpt lat="43.52687" lon="5.55538">
        <ele>352.94116210938</ele>
        <time>2022-03-16T09:11:52Z</time>
      </trkpt>
      <trkpt lat="43.52688" lon="5.55538">
        <ele>353.421875</ele>
        <time>2022-03-16T09:12:04Z</time>
      </trkpt>
      <trkpt lat="43.52699" lon="5.55531">
        <ele>352.46057128906</ele>
        <time>2022-03-16T09:12:18Z</time>
      </trkpt>
      <trkpt lat="43.52713" lon="5.55533">
        <ele>352.46057128906</ele>
        <time>2022-03-16T09:12:34Z</time>
      </trkpt>
      <trkpt lat="43.52714" lon="5.55533">
        <ele>352.46057128906</ele>
        <time>2022-03-16T09:12:35Z</time>
      </trkpt>
      <trkpt lat="43.52721" lon="5.55551">
        <ele>352.94116210938</ele>
        <time>2022-03-16T09:12:49Z</time>
      </trkpt>
      <trkpt lat="43.52723" lon="5.55563">
        <ele>352.46057128906</ele>
        <time>2022-03-16T09:12:58Z</time>
      </trkpt>
      <trkpt lat="43.52725" lon="5.55567">
        <ele>352.94116210938</ele>
        <time>2022-03-16T09:13:01Z</time>
      </trkpt>
      <trkpt lat="43.52732" lon="5.55588">
        <ele>352.94116210938</ele>
        <time>2022-03-16T09:13:18Z</time>
      </trkpt>
      <trkpt lat="43.52732" lon="5.55589">
        <ele>352.94116210938</ele>
        <time>2022-03-16T09:13:19Z</time>
      </trkpt>
      <trkpt lat="43.52731" lon="5.55613">
        <ele>351.97985839844</ele>
        <time>2022-03-16T09:13:35Z</time>
      </trkpt>
      <trkpt lat="43.52724" lon="5.5562">
        <ele>351.97985839844</ele>
        <time>2022-03-16T09:13:42Z</time>
      </trkpt>
      <trkpt lat="43.52718" lon="5.55636">
        <ele>351.01843261719</ele>
        <time>2022-03-16T09:13:56Z</time>
      </trkpt>
      <trkpt lat="43.52711" lon="5.55646">
        <ele>350.53784179688</ele>
        <time>2022-03-16T09:14:04Z</time>
      </trkpt>
      <trkpt lat="43.52708" lon="5.55652">
        <ele>350.05725097656</ele>
        <time>2022-03-16T09:14:07Z</time>
      </trkpt>
      <trkpt lat="43.52703" lon="5.55668">
        <ele>348.13464355469</ele>
        <time>2022-03-16T09:14:21Z</time>
      </trkpt>
      <trkpt lat="43.52703" lon="5.5567">
        <ele>348.13464355469</ele>
        <time>2022-03-16T09:14:22Z</time>
      </trkpt>
      <trkpt lat="43.52701" lon="5.55679">
        <ele>347.17321777344</ele>
        <time>2022-03-16T09:14:32Z</time>
      </trkpt>
      <trkpt lat="43.52701" lon="5.55699">
        <ele>344.28942871094</ele>
        <time>2022-03-16T09:14:51Z</time>
      </trkpt>
      <trkpt lat="43.52701" lon="5.55708">
        <ele>344.28942871094</ele>
        <time>2022-03-16T09:15:03Z</time>
      </trkpt>
      <trkpt lat="43.52699" lon="5.55721">
        <ele>341.88598632812</ele>
        <time>2022-03-16T09:15:16Z</time>
      </trkpt>
      <trkpt lat="43.52697" lon="5.55738">
        <ele>340.44409179688</ele>
        <time>2022-03-16T09:15:30Z</time>
      </trkpt>
      <trkpt lat="43.52696" lon="5.55741">
        <ele>340.44409179688</ele>
        <time>2022-03-16T09:15:35Z</time>
      </trkpt>
      <trkpt lat="43.52696" lon="5.55757">
        <ele>338.04077148438</ele>
        <time>2022-03-16T09:15:50Z</time>
      </trkpt>
      <trkpt lat="43.52697" lon="5.55761">
        <ele>337.07946777344</ele>
        <time>2022-03-16T09:16:12Z</time>
      </trkpt>
      <trkpt lat="43.52697" lon="5.55761">
        <ele>337.07946777344</ele>
        <time>2022-03-16T09:16:32Z</time>
      </trkpt>
      <trkpt lat="43.52698" lon="5.55773">
        <ele>335.63732910156</ele>
        <time>2022-03-16T09:16:39Z</time>
      </trkpt>
      <trkpt lat="43.52696" lon="5.55793">
        <ele>332.27282714844</ele>
        <time>2022-03-16T09:16:53Z</time>
      </trkpt>
      <trkpt lat="43.52696" lon="5.55821">
        <ele>330.83093261719</ele>
        <time>2022-03-16T09:17:12Z</time>
      </trkpt>
      <trkpt lat="43.52688" lon="5.5585">
        <ele>329.86950683594</ele>
        <time>2022-03-16T09:17:31Z</time>
      </trkpt>
      <trkpt lat="43.52677" lon="5.55868">
        <ele>326.98559570312</ele>
        <time>2022-03-16T09:17:50Z</time>
      </trkpt>
      <trkpt lat="43.52664" lon="5.55876">
        <ele>324.1015625</ele>
        <time>2022-03-16T09:18:03Z</time>
      </trkpt>
      <trkpt lat="43.52652" lon="5.55886">
        <ele>321.2177734375</ele>
        <time>2022-03-16T09:18:17Z</time>
      </trkpt>
      <trkpt lat="43.52641" lon="5.55899">
        <ele>318.81433105469</ele>
        <time>2022-03-16T09:18:33Z</time>
      </trkpt>
      <trkpt lat="43.52641" lon="5.55921">
        <ele>319.77563476562</ele>
        <time>2022-03-16T09:18:49Z</time>
      </trkpt>
      <trkpt lat="43.52641" lon="5.55922">
        <ele>319.77563476562</ele>
        <time>2022-03-16T09:18:50Z</time>
      </trkpt>
      <trkpt lat="43.52655" lon="5.55956">
        <ele>320.73706054688</ele>
        <time>2022-03-16T09:19:15Z</time>
      </trkpt>
      <trkpt lat="43.52655" lon="5.5597">
        <ele>321.69836425781</ele>
        <time>2022-03-16T09:19:27Z</time>
      </trkpt>
      <trkpt lat="43.52651" lon="5.55977">
        <ele>321.2177734375</ele>
        <time>2022-03-16T09:19:32Z</time>
      </trkpt>
      <trkpt lat="43.52626" lon="5.55991">
        <ele>320.25634765625</ele>
        <time>2022-03-16T09:19:56Z</time>
      </trkpt>
      <trkpt lat="43.52613" lon="5.56021">
        <ele>318.33361816406</ele>
        <time>2022-03-16T09:20:19Z</time>
      </trkpt>
      <trkpt lat="43.52621" lon="5.56049">
        <ele>320.73706054688</ele>
        <time>2022-03-16T09:20:41Z</time>
      </trkpt>
      <trkpt lat="43.52632" lon="5.56072">
        <ele>322.65966796875</ele>
        <time>2022-03-16T09:21:01Z</time>
      </trkpt>
      <trkpt lat="43.52637" lon="5.56104">
        <ele>324.58227539062</ele>
        <time>2022-03-16T09:21:25Z</time>
      </trkpt>
      <trkpt lat="43.52638" lon="5.56134">
        <ele>326.98559570312</ele>
        <time>2022-03-16T09:21:48Z</time>
      </trkpt>
      <trkpt lat="43.52637" lon="5.5616">
        <ele>327.94677734375</ele>
        <time>2022-03-16T09:22:08Z</time>
      </trkpt>
      <trkpt lat="43.52636" lon="5.56192">
        <ele>330.35021972656</ele>
        <time>2022-03-16T09:22:33Z</time>
      </trkpt>
      <trkpt lat="43.52636" lon="5.56219">
        <ele>332.27282714844</ele>
        <time>2022-03-16T09:22:54Z</time>
      </trkpt>
      <trkpt lat="43.52637" lon="5.56257">
        <ele>335.15673828125</ele>
        <time>2022-03-16T09:23:25Z</time>
      </trkpt>
      <trkpt lat="43.52639" lon="5.56288">
        <ele>338.521484375</ele>
        <time>2022-03-16T09:23:52Z</time>
      </trkpt>
      <trkpt lat="43.52641" lon="5.56326">
        <ele>340.44409179688</ele>
        <time>2022-03-16T09:24:22Z</time>
      </trkpt>
      <trkpt lat="43.52645" lon="5.56363">
        <ele>343.80859375</ele>
        <time>2022-03-16T09:24:53Z</time>
      </trkpt>
      <trkpt lat="43.5265" lon="5.5638">
        <ele>345.73132324219</ele>
        <time>2022-03-16T09:25:17Z</time>
      </trkpt>
      <trkpt lat="43.52649" lon="5.56382">
        <ele>345.73132324219</ele>
        <time>2022-03-16T09:25:46Z</time>
      </trkpt>
      <trkpt lat="43.52649" lon="5.56382">
        <ele>346.21203613281</ele>
        <time>2022-03-16T09:26:57Z</time>
      </trkpt>
      <trkpt lat="43.52649" lon="5.56386">
        <ele>345.73132324219</ele>
        <time>2022-03-16T09:27:19Z</time>
      </trkpt>
      <trkpt lat="43.52651" lon="5.56401">
        <ele>347.17321777344</ele>
        <time>2022-03-16T09:27:32Z</time>
      </trkpt>
      <trkpt lat="43.52651" lon="5.5641">
        <ele>348.615234375</ele>
        <time>2022-03-16T09:27:42Z</time>
      </trkpt>
      <trkpt lat="43.52642" lon="5.56432">
        <ele>349.09582519531</ele>
        <time>2022-03-16T09:28:01Z</time>
      </trkpt>
      <trkpt lat="43.5263" lon="5.56427">
        <ele>348.13464355469</ele>
        <time>2022-03-16T09:28:15Z</time>
      </trkpt>
      <trkpt lat="43.52625" lon="5.56426">
        <ele>347.17321777344</ele>
        <time>2022-03-16T09:28:22Z</time>
      </trkpt>
      <trkpt lat="43.52616" lon="5.56425">
        <ele>347.17321777344</ele>
        <time>2022-03-16T09:28:32Z</time>
      </trkpt>
      <trkpt lat="43.52601" lon="5.56441">
        <ele>347.65393066406</ele>
        <time>2022-03-16T09:28:51Z</time>
      </trkpt>
      <trkpt lat="43.52584" lon="5.56456">
        <ele>347.17321777344</ele>
        <time>2022-03-16T09:29:13Z</time>
      </trkpt>
      <trkpt lat="43.52576" lon="5.56479">
        <ele>346.69262695312</ele>
        <time>2022-03-16T09:29:37Z</time>
      </trkpt>
      <trkpt lat="43.52577" lon="5.56488">
        <ele>346.69262695312</ele>
        <time>2022-03-16T09:29:54Z</time>
      </trkpt>
      <trkpt lat="43.52578" lon="5.56489">
        <ele>346.69262695312</ele>
        <time>2022-03-16T09:29:55Z</time>
      </trkpt>
      <trkpt lat="43.52577" lon="5.56499">
        <ele>346.21203613281</ele>
        <time>2022-03-16T09:30:02Z</time>
      </trkpt>
      <trkpt lat="43.52575" lon="5.56509">
        <ele>346.21203613281</ele>
        <time>2022-03-16T09:30:09Z</time>
      </trkpt>
      <trkpt lat="43.52562" lon="5.56535">
        <ele>345.73132324219</ele>
        <time>2022-03-16T09:30:31Z</time>
      </trkpt>
      <trkpt lat="43.52562" lon="5.56564">
        <ele>347.17321777344</ele>
        <time>2022-03-16T09:30:53Z</time>
      </trkpt>
      <trkpt lat="43.5256" lon="5.56594">
        <ele>348.615234375</ele>
        <time>2022-03-16T09:31:15Z</time>
      </trkpt>
      <trkpt lat="43.52561" lon="5.56606">
        <ele>350.05725097656</ele>
        <time>2022-03-16T09:31:25Z</time>
      </trkpt>
      <trkpt lat="43.52566" lon="5.56626">
        <ele>351.49914550781</ele>
        <time>2022-03-16T09:31:42Z</time>
      </trkpt>
      <trkpt lat="43.52574" lon="5.5664">
        <ele>352.46057128906</ele>
        <time>2022-03-16T09:31:57Z</time>
      </trkpt>
      <trkpt lat="43.52588" lon="5.56646">
        <ele>352.46057128906</ele>
        <time>2022-03-16T09:32:11Z</time>
      </trkpt>
      <trkpt lat="43.52592" lon="5.56653">
        <ele>351.97985839844</ele>
        <time>2022-03-16T09:32:19Z</time>
      </trkpt>
      <trkpt lat="43.52595" lon="5.56672">
        <ele>351.49914550781</ele>
        <time>2022-03-16T09:32:33Z</time>
      </trkpt>
      <trkpt lat="43.52594" lon="5.56678">
        <ele>351.49914550781</ele>
        <time>2022-03-16T09:32:37Z</time>
      </trkpt>
      <trkpt lat="43.5259" lon="5.56694">
        <ele>351.97985839844</ele>
        <time>2022-03-16T09:32:50Z</time>
      </trkpt>
      <trkpt lat="43.52582" lon="5.56696">
        <ele>351.01843261719</ele>
        <time>2022-03-16T09:33:00Z</time>
      </trkpt>
      <trkpt lat="43.52579" lon="5.56695">
        <ele>351.01843261719</ele>
        <time>2022-03-16T09:33:03Z</time>
      </trkpt>
      <trkpt lat="43.52571" lon="5.56691">
        <ele>348.615234375</ele>
        <time>2022-03-16T09:33:18Z</time>
      </trkpt>
      <trkpt lat="43.52553" lon="5.56696">
        <ele>346.69262695312</ele>
        <time>2022-03-16T09:33:37Z</time>
      </trkpt>
      <trkpt lat="43.52552" lon="5.56696">
        <ele>346.69262695312</ele>
        <time>2022-03-16T09:33:38Z</time>
      </trkpt>
      <trkpt lat="43.5254" lon="5.56702">
        <ele>343.80859375</ele>
        <time>2022-03-16T09:33:51Z</time>
      </trkpt>
      <trkpt lat="43.52523" lon="5.56713">
        <ele>340.92468261719</ele>
        <time>2022-03-16T09:34:11Z</time>
      </trkpt>
      <trkpt lat="43.52509" lon="5.56719">
        <ele>338.04077148438</ele>
        <time>2022-03-16T09:34:28Z</time>
      </trkpt>
      <trkpt lat="43.52503" lon="5.56727">
        <ele>337.07946777344</ele>
        <time>2022-03-16T09:34:37Z</time>
      </trkpt>
      <trkpt lat="43.52498" lon="5.56747">
        <ele>335.15673828125</ele>
        <time>2022-03-16T09:34:52Z</time>
      </trkpt>
      <trkpt lat="43.52492" lon="5.56771">
        <ele>333.71472167969</ele>
        <time>2022-03-16T09:35:12Z</time>
      </trkpt>
      <trkpt lat="43.5249" lon="5.56772">
        <ele>332.27282714844</ele>
        <time>2022-03-16T09:35:14Z</time>
      </trkpt>
      <trkpt lat="43.52481" lon="5.56781">
        <ele>331.3115234375</ele>
        <time>2022-03-16T09:35:26Z</time>
      </trkpt>
      <trkpt lat="43.52472" lon="5.56783">
        <ele>329.38891601562</ele>
        <time>2022-03-16T09:35:37Z</time>
      </trkpt>
      <trkpt lat="43.52469" lon="5.56785">
        <ele>328.90832519531</ele>
        <time>2022-03-16T09:35:40Z</time>
      </trkpt>
      <trkpt lat="43.52448" lon="5.56788">
        <ele>326.5048828125</ele>
        <time>2022-03-16T09:36:01Z</time>
      </trkpt>
      <trkpt lat="43.52432" lon="5.56783">
        <ele>323.62097167969</ele>
        <time>2022-03-16T09:36:18Z</time>
      </trkpt>
      <trkpt lat="43.52427" lon="5.5678">
        <ele>323.62097167969</ele>
        <time>2022-03-16T09:36:23Z</time>
      </trkpt>
      <trkpt lat="43.5242" lon="5.56772">
        <ele>322.17895507812</ele>
        <time>2022-03-16T09:36:31Z</time>
      </trkpt>
      <trkpt lat="43.52409" lon="5.56749">
        <ele>320.73706054688</ele>
        <time>2022-03-16T09:36:50Z</time>
      </trkpt>
      <trkpt lat="43.52406" lon="5.56745">
        <ele>320.73706054688</ele>
        <time>2022-03-16T09:37:07Z</time>
      </trkpt>
      <trkpt lat="43.52407" lon="5.56745">
        <ele>320.73706054688</ele>
        <time>2022-03-16T09:37:41Z</time>
      </trkpt>
      <trkpt lat="43.52408" lon="5.56745">
        <ele>321.69836425781</ele>
        <time>2022-03-16T09:37:59Z</time>
      </trkpt>
      <trkpt lat="43.52407" lon="5.56746">
        <ele>322.17895507812</ele>
        <time>2022-03-16T09:38:01Z</time>
      </trkpt>
      <trkpt lat="43.52405" lon="5.56751">
        <ele>319.77563476562</ele>
        <time>2022-03-16T09:38:12Z</time>
      </trkpt>
      <trkpt lat="43.52404" lon="5.56754">
        <ele>319.29504394531</ele>
        <time>2022-03-16T09:38:18Z</time>
      </trkpt>
      <trkpt lat="43.52401" lon="5.5676">
        <ele>315.93041992188</ele>
        <time>2022-03-16T09:38:26Z</time>
      </trkpt>
      <trkpt lat="43.52397" lon="5.56764">
        <ele>315.44982910156</ele>
        <time>2022-03-16T09:38:31Z</time>
      </trkpt>
      <trkpt lat="43.52395" lon="5.5678">
        <ele>313.04650878906</ele>
        <time>2022-03-16T09:38:47Z</time>
      </trkpt>
      <trkpt lat="43.52396" lon="5.56786">
        <ele>314.0078125</ele>
        <time>2022-03-16T09:38:59Z</time>
      </trkpt>
      <trkpt lat="43.52401" lon="5.56804">
        <ele>314.0078125</ele>
        <time>2022-03-16T09:39:14Z</time>
      </trkpt>
      <trkpt lat="43.52404" lon="5.56814">
        <ele>315.44982910156</ele>
        <time>2022-03-16T09:39:23Z</time>
      </trkpt>
      <trkpt lat="43.52404" lon="5.56816">
        <ele>315.44982910156</ele>
        <time>2022-03-16T09:39:41Z</time>
      </trkpt>
      <trkpt lat="43.52404" lon="5.56811">
        <ele>316.89172363281</ele>
        <time>2022-03-16T09:39:52Z</time>
      </trkpt>
      <trkpt lat="43.52405" lon="5.56814">
        <ele>315.93041992188</ele>
        <time>2022-03-16T09:40:32Z</time>
      </trkpt>
      <trkpt lat="43.52404" lon="5.56821">
        <ele>313.52722167969</ele>
        <time>2022-03-16T09:40:38Z</time>
      </trkpt>
      <trkpt lat="43.52402" lon="5.56822">
        <ele>312.08520507812</ele>
        <time>2022-03-16T09:40:40Z</time>
      </trkpt>
      <trkpt lat="43.52401" lon="5.56833">
        <ele>309.68188476562</ele>
        <time>2022-03-16T09:40:53Z</time>
      </trkpt>
      <trkpt lat="43.52397" lon="5.56837">
        <ele>308.72045898438</ele>
        <time>2022-03-16T09:41:10Z</time>
      </trkpt>
      <trkpt lat="43.52395" lon="5.56845">
        <ele>306.7978515625</ele>
        <time>2022-03-16T09:41:26Z</time>
      </trkpt>
      <trkpt lat="43.52395" lon="5.56849">
        <ele>306.31726074219</ele>
        <time>2022-03-16T09:41:41Z</time>
      </trkpt>
      <trkpt lat="43.52402" lon="5.56858">
        <ele>305.83666992188</ele>
        <time>2022-03-16T09:42:00Z</time>
      </trkpt>
      <trkpt lat="43.5241" lon="5.56853">
        <ele>306.7978515625</ele>
        <time>2022-03-16T09:42:14Z</time>
      </trkpt>
      <trkpt lat="43.52412" lon="5.56851">
        <ele>306.7978515625</ele>
        <time>2022-03-16T09:43:25Z</time>
      </trkpt>
      <trkpt lat="43.52418" lon="5.5685">
        <ele>308.72045898438</ele>
        <time>2022-03-16T09:44:01Z</time>
      </trkpt>
      <trkpt lat="43.52421" lon="5.5685">
        <ele>309.201171875</ele>
        <time>2022-03-16T09:44:25Z</time>
      </trkpt>
      <trkpt lat="43.52421" lon="5.56852">
        <ele>311.12377929688</ele>
        <time>2022-03-16T09:44:53Z</time>
      </trkpt>
      <trkpt lat="43.52429" lon="5.56851">
        <ele>313.04650878906</ele>
        <time>2022-03-16T09:45:04Z</time>
      </trkpt>
      <trkpt lat="43.52438" lon="5.56854">
        <ele>313.04650878906</ele>
        <time>2022-03-16T09:45:20Z</time>
      </trkpt>
      <trkpt lat="43.52437" lon="5.56854">
        <ele>313.04650878906</ele>
        <time>2022-03-16T09:45:41Z</time>
      </trkpt>
      <trkpt lat="43.52438" lon="5.56857">
        <ele>312.56579589844</ele>
        <time>2022-03-16T09:45:43Z</time>
      </trkpt>
      <trkpt lat="43.52437" lon="5.56864">
        <ele>313.04650878906</ele>
        <time>2022-03-16T09:45:56Z</time>
      </trkpt>
      <trkpt lat="43.52436" lon="5.56868">
        <ele>313.04650878906</ele>
        <time>2022-03-16T09:46:11Z</time>
      </trkpt>
      <trkpt lat="43.52433" lon="5.56878">
        <ele>314.0078125</ele>
        <time>2022-03-16T09:46:19Z</time>
      </trkpt>
      <trkpt lat="43.52434" lon="5.56902">
        <ele>316.41101074219</ele>
        <time>2022-03-16T09:46:37Z</time>
      </trkpt>
      <trkpt lat="43.52436" lon="5.56917">
        <ele>319.29504394531</ele>
        <time>2022-03-16T09:46:52Z</time>
      </trkpt>
      <trkpt lat="43.52436" lon="5.56927">
        <ele>321.2177734375</ele>
        <time>2022-03-16T09:47:10Z</time>
      </trkpt>
      <trkpt lat="43.52435" lon="5.56932">
        <ele>321.69836425781</ele>
        <time>2022-03-16T09:47:23Z</time>
      </trkpt>
      <trkpt lat="43.52434" lon="5.56932">
        <ele>322.17895507812</ele>
        <time>2022-03-16T09:47:45Z</time>
      </trkpt>
      <trkpt lat="43.52434" lon="5.56932">
        <ele>321.69836425781</ele>
        <time>2022-03-16T09:47:54Z</time>
      </trkpt>
      <trkpt lat="43.52432" lon="5.56951">
        <ele>320.25634765625</ele>
        <time>2022-03-16T09:48:08Z</time>
      </trkpt>
      <trkpt lat="43.52432" lon="5.56964">
        <ele>319.29504394531</ele>
        <time>2022-03-16T09:48:20Z</time>
      </trkpt>
      <trkpt lat="43.52433" lon="5.56964">
        <ele>318.33361816406</ele>
        <time>2022-03-16T09:48:21Z</time>
      </trkpt>
      <trkpt lat="43.52437" lon="5.56977">
        <ele>317.37243652344</ele>
        <time>2022-03-16T09:48:34Z</time>
      </trkpt>
      <trkpt lat="43.52436" lon="5.56982">
        <ele>316.89172363281</ele>
        <time>2022-03-16T09:48:38Z</time>
      </trkpt>
      <trkpt lat="43.5243" lon="5.57">
        <ele>315.93041992188</ele>
        <time>2022-03-16T09:48:54Z</time>
      </trkpt>
      <trkpt lat="43.52429" lon="5.57001">
        <ele>316.41101074219</ele>
        <time>2022-03-16T09:48:55Z</time>
      </trkpt>
      <trkpt lat="43.52424" lon="5.57011">
        <ele>316.41101074219</ele>
        <time>2022-03-16T09:49:02Z</time>
      </trkpt>
      <trkpt lat="43.52421" lon="5.57029">
        <ele>315.93041992188</ele>
        <time>2022-03-16T09:49:14Z</time>
      </trkpt>
      <trkpt lat="43.52418" lon="5.57041">
        <ele>315.93041992188</ele>
        <time>2022-03-16T09:49:26Z</time>
      </trkpt>
      <trkpt lat="43.5242" lon="5.57045">
        <ele>316.41101074219</ele>
        <time>2022-03-16T09:49:47Z</time>
      </trkpt>
      <trkpt lat="43.5242" lon="5.57048">
        <ele>316.89172363281</ele>
        <time>2022-03-16T09:50:10Z</time>
      </trkpt>
      <trkpt lat="43.5242" lon="5.57048">
        <ele>317.85302734375</ele>
        <time>2022-03-16T09:50:32Z</time>
      </trkpt>
      <trkpt lat="43.5242" lon="5.57047">
        <ele>316.89172363281</ele>
        <time>2022-03-16T09:51:16Z</time>
      </trkpt>
      <trkpt lat="43.52419" lon="5.57047">
        <ele>317.85302734375</ele>
        <time>2022-03-16T09:51:39Z</time>
      </trkpt>
      <trkpt lat="43.5242" lon="5.57047">
        <ele>318.33361816406</ele>
        <time>2022-03-16T09:52:04Z</time>
      </trkpt>
      <trkpt lat="43.5242" lon="5.57047">
        <ele>317.37243652344</ele>
        <time>2022-03-16T09:52:15Z</time>
      </trkpt>
      <trkpt lat="43.52423" lon="5.57057">
        <ele>317.37243652344</ele>
        <time>2022-03-16T09:52:23Z</time>
      </trkpt>
      <trkpt lat="43.52426" lon="5.57064">
        <ele>317.85302734375</ele>
        <time>2022-03-16T09:52:28Z</time>
      </trkpt>
      <trkpt lat="43.52434" lon="5.57068">
        <ele>318.33361816406</ele>
        <time>2022-03-16T09:52:36Z</time>
      </trkpt>
      <trkpt lat="43.52442" lon="5.5708">
        <ele>319.29504394531</ele>
        <time>2022-03-16T09:52:48Z</time>
      </trkpt>
      <trkpt lat="43.52444" lon="5.57097">
        <ele>321.2177734375</ele>
        <time>2022-03-16T09:53:04Z</time>
      </trkpt>
      <trkpt lat="43.52443" lon="5.57112">
        <ele>320.73706054688</ele>
        <time>2022-03-16T09:53:18Z</time>
      </trkpt>
      <trkpt lat="43.5244" lon="5.57115">
        <ele>320.25634765625</ele>
        <time>2022-03-16T09:53:22Z</time>
      </trkpt>
      <trkpt lat="43.5243" lon="5.57123">
        <ele>318.33361816406</ele>
        <time>2022-03-16T09:53:36Z</time>
      </trkpt>
      <trkpt lat="43.52429" lon="5.57123">
        <ele>318.33361816406</ele>
        <time>2022-03-16T09:53:41Z</time>
      </trkpt>
      <trkpt lat="43.52429" lon="5.57125">
        <ele>316.89172363281</ele>
        <time>2022-03-16T09:53:46Z</time>
      </trkpt>
      <trkpt lat="43.52427" lon="5.5713">
        <ele>316.41101074219</ele>
        <time>2022-03-16T09:53:50Z</time>
      </trkpt>
      <trkpt lat="43.52424" lon="5.57129">
        <ele>314.96911621094</ele>
        <time>2022-03-16T09:54:09Z</time>
      </trkpt>
      <trkpt lat="43.52424" lon="5.57132">
        <ele>314.48840332031</ele>
        <time>2022-03-16T09:54:44Z</time>
      </trkpt>
      <trkpt lat="43.52424" lon="5.57132">
        <ele>314.48840332031</ele>
        <time>2022-03-16T09:55:12Z</time>
      </trkpt>
      <trkpt lat="43.52421" lon="5.5714">
        <ele>312.08520507812</ele>
        <time>2022-03-16T09:55:21Z</time>
      </trkpt>
      <trkpt lat="43.5242" lon="5.57143">
        <ele>312.08520507812</ele>
        <time>2022-03-16T09:55:32Z</time>
      </trkpt>
      <trkpt lat="43.52415" lon="5.57163">
        <ele>314.0078125</ele>
        <time>2022-03-16T09:55:48Z</time>
      </trkpt>
      <trkpt lat="43.52422" lon="5.57182">
        <ele>316.89172363281</ele>
        <time>2022-03-16T09:56:04Z</time>
      </trkpt>
      <trkpt lat="43.52425" lon="5.57196">
        <ele>319.77563476562</ele>
        <time>2022-03-16T09:56:16Z</time>
      </trkpt>
      <trkpt lat="43.52425" lon="5.57197">
        <ele>320.25634765625</ele>
        <time>2022-03-16T09:56:20Z</time>
      </trkpt>
      <trkpt lat="43.52429" lon="5.57205">
        <ele>320.25634765625</ele>
        <time>2022-03-16T09:56:34Z</time>
      </trkpt>
      <trkpt lat="43.52431" lon="5.57214">
        <ele>319.77563476562</ele>
        <time>2022-03-16T09:56:53Z</time>
      </trkpt>
      <trkpt lat="43.52433" lon="5.5722">
        <ele>320.25634765625</ele>
        <time>2022-03-16T09:56:58Z</time>
      </trkpt>
      <trkpt lat="43.52441" lon="5.57238">
        <ele>320.25634765625</ele>
        <time>2022-03-16T09:57:15Z</time>
      </trkpt>
      <trkpt lat="43.52445" lon="5.57248">
        <ele>320.73706054688</ele>
        <time>2022-03-16T09:57:24Z</time>
      </trkpt>
      <trkpt lat="43.52446" lon="5.57267">
        <ele>322.17895507812</ele>
        <time>2022-03-16T09:57:39Z</time>
      </trkpt>
      <trkpt lat="43.52444" lon="5.57284">
        <ele>323.14038085938</ele>
        <time>2022-03-16T09:57:52Z</time>
      </trkpt>
      <trkpt lat="43.52442" lon="5.57292">
        <ele>324.58227539062</ele>
        <time>2022-03-16T09:58:06Z</time>
      </trkpt>
      <trkpt lat="43.52441" lon="5.57301">
        <ele>326.02416992188</ele>
        <time>2022-03-16T09:58:13Z</time>
      </trkpt>
      <trkpt lat="43.52439" lon="5.57305">
        <ele>326.5048828125</ele>
        <time>2022-03-16T09:58:18Z</time>
      </trkpt>
      <trkpt lat="43.52439" lon="5.57326">
        <ele>326.98559570312</ele>
        <time>2022-03-16T09:58:32Z</time>
      </trkpt>
      <trkpt lat="43.5244" lon="5.57338">
        <ele>327.94677734375</ele>
        <time>2022-03-16T09:58:42Z</time>
      </trkpt>
      <trkpt lat="43.52439" lon="5.5736">
        <ele>328.90832519531</ele>
        <time>2022-03-16T09:58:58Z</time>
      </trkpt>
      <trkpt lat="43.52437" lon="5.57368">
        <ele>329.86950683594</ele>
        <time>2022-03-16T09:59:06Z</time>
      </trkpt>
      <trkpt lat="43.52427" lon="5.57392">
        <ele>330.83093261719</ele>
        <time>2022-03-16T09:59:22Z</time>
      </trkpt>
      <trkpt lat="43.52429" lon="5.57393">
        <ele>332.27282714844</ele>
        <time>2022-03-16T09:59:38Z</time>
      </trkpt>
      <trkpt lat="43.5243" lon="5.57393">
        <ele>331.79211425781</ele>
        <time>2022-03-16T09:59:45Z</time>
      </trkpt>
      <trkpt lat="43.52429" lon="5.57411">
        <ele>333.23413085938</ele>
        <time>2022-03-16T10:00:04Z</time>
      </trkpt>
      <trkpt lat="43.52426" lon="5.57421">
        <ele>334.67614746094</ele>
        <time>2022-03-16T10:00:19Z</time>
      </trkpt>
      <trkpt lat="43.52423" lon="5.57432">
        <ele>336.1181640625</ele>
        <time>2022-03-16T10:00:32Z</time>
      </trkpt>
      <trkpt lat="43.5242" lon="5.57445">
        <ele>337.56005859375</ele>
        <time>2022-03-16T10:00:48Z</time>
      </trkpt>
      <trkpt lat="43.52418" lon="5.5745">
        <ele>338.04077148438</ele>
        <time>2022-03-16T10:00:51Z</time>
      </trkpt>
      <trkpt lat="43.52418" lon="5.57453">
        <ele>338.04077148438</ele>
        <time>2022-03-16T10:00:53Z</time>
      </trkpt>
      <trkpt lat="43.52414" lon="5.57471">
        <ele>339.00207519531</ele>
        <time>2022-03-16T10:01:06Z</time>
      </trkpt>
      <trkpt lat="43.52408" lon="5.57485">
        <ele>341.4052734375</ele>
        <time>2022-03-16T10:01:20Z</time>
      </trkpt>
      <trkpt lat="43.524" lon="5.57495">
        <ele>343.32788085938</ele>
        <time>2022-03-16T10:01:34Z</time>
      </trkpt>
      <trkpt lat="43.52393" lon="5.57504">
        <ele>343.80859375</ele>
        <time>2022-03-16T10:01:49Z</time>
      </trkpt>
      <trkpt lat="43.52385" lon="5.57522">
        <ele>345.25061035156</ele>
        <time>2022-03-16T10:02:09Z</time>
      </trkpt>
      <trkpt lat="43.52378" lon="5.57536">
        <ele>345.73132324219</ele>
        <time>2022-03-16T10:02:22Z</time>
      </trkpt>
      <trkpt lat="43.52366" lon="5.5755">
        <ele>348.13464355469</ele>
        <time>2022-03-16T10:02:36Z</time>
      </trkpt>
      <trkpt lat="43.52362" lon="5.57559">
        <ele>350.05725097656</ele>
        <time>2022-03-16T10:02:47Z</time>
      </trkpt>
      <trkpt lat="43.52354" lon="5.57572">
        <ele>351.01843261719</ele>
        <time>2022-03-16T10:02:59Z</time>
      </trkpt>
      <trkpt lat="43.52347" lon="5.57584">
        <ele>352.94116210938</ele>
        <time>2022-03-16T10:03:13Z</time>
      </trkpt>
      <trkpt lat="43.52342" lon="5.57587">
        <ele>354.38317871094</ele>
        <time>2022-03-16T10:03:19Z</time>
      </trkpt>
      <trkpt lat="43.52336" lon="5.57589">
        <ele>355.8251953125</ele>
        <time>2022-03-16T10:03:25Z</time>
      </trkpt>
      <trkpt lat="43.52334" lon="5.57592">
        <ele>356.78637695312</ele>
        <time>2022-03-16T10:03:38Z</time>
      </trkpt>
      <trkpt lat="43.5233" lon="5.57603">
        <ele>359.18969726562</ele>
        <time>2022-03-16T10:03:51Z</time>
      </trkpt>
      <trkpt lat="43.52322" lon="5.57615">
        <ele>362.07373046875</ele>
        <time>2022-03-16T10:04:06Z</time>
      </trkpt>
      <trkpt lat="43.52309" lon="5.57621">
        <ele>363.99633789062</ele>
        <time>2022-03-16T10:04:23Z</time>
      </trkpt>
      <trkpt lat="43.52297" lon="5.57621">
        <ele>366.88024902344</ele>
        <time>2022-03-16T10:04:38Z</time>
      </trkpt>
      <trkpt lat="43.52287" lon="5.57621">
        <ele>369.28369140625</ele>
        <time>2022-03-16T10:04:51Z</time>
      </trkpt>
      <trkpt lat="43.52278" lon="5.57622">
        <ele>371.20629882812</ele>
        <time>2022-03-16T10:05:03Z</time>
      </trkpt>
      <trkpt lat="43.52274" lon="5.5762">
        <ele>373.12890625</ele>
        <time>2022-03-16T10:05:20Z</time>
      </trkpt>
      <trkpt lat="43.52272" lon="5.5762">
        <ele>372.64819335938</ele>
        <time>2022-03-16T10:05:41Z</time>
      </trkpt>
      <trkpt lat="43.5226" lon="5.57625">
        <ele>375.53210449219</ele>
        <time>2022-03-16T10:06:05Z</time>
      </trkpt>
      <trkpt lat="43.52259" lon="5.57625">
        <ele>375.53210449219</ele>
        <time>2022-03-16T10:06:31Z</time>
      </trkpt>
      <trkpt lat="43.52259" lon="5.57625">
        <ele>375.05151367188</ele>
        <time>2022-03-16T10:06:59Z</time>
      </trkpt>
      <trkpt lat="43.52258" lon="5.57625">
        <ele>376.01281738281</ele>
        <time>2022-03-16T10:07:27Z</time>
      </trkpt>
      <trkpt lat="43.52257" lon="5.57624">
        <ele>375.05151367188</ele>
        <time>2022-03-16T10:08:00Z</time>
      </trkpt>
      <trkpt lat="43.52257" lon="5.57624">
        <ele>375.05151367188</ele>
        <time>2022-03-16T10:09:04Z</time>
      </trkpt>
      <trkpt lat="43.52257" lon="5.57626">
        <ele>374.09008789062</ele>
        <time>2022-03-16T10:10:08Z</time>
      </trkpt>
      <trkpt lat="43.52259" lon="5.57624">
        <ele>375.05151367188</ele>
        <time>2022-03-16T10:10:31Z</time>
      </trkpt>
      <trkpt lat="43.52259" lon="5.57622">
        <ele>374.57080078125</ele>
        <time>2022-03-16T10:10:50Z</time>
      </trkpt>
      <trkpt lat="43.52258" lon="5.57621">
        <ele>375.05151367188</ele>
        <time>2022-03-16T10:11:12Z</time>
      </trkpt>
      <trkpt lat="43.52258" lon="5.57621">
        <ele>374.09008789062</ele>
        <time>2022-03-16T10:11:53Z</time>
      </trkpt>
      <trkpt lat="43.52258" lon="5.5762">
        <ele>374.09008789062</ele>
        <time>2022-03-16T10:12:13Z</time>
      </trkpt>
      <trkpt lat="43.52258" lon="5.57621">
        <ele>375.53210449219</ele>
        <time>2022-03-16T10:13:01Z</time>
      </trkpt>
      <trkpt lat="43.52257" lon="5.57622">
        <ele>375.53210449219</ele>
        <time>2022-03-16T10:13:27Z</time>
      </trkpt>
      <trkpt lat="43.52255" lon="5.57624">
        <ele>374.57080078125</ele>
        <time>2022-03-16T10:13:44Z</time>
      </trkpt>
      <trkpt lat="43.52256" lon="5.57623">
        <ele>374.57080078125</ele>
        <time>2022-03-16T10:14:22Z</time>
      </trkpt>
      <trkpt lat="43.52252" lon="5.57627">
        <ele>375.53210449219</ele>
        <time>2022-03-16T10:14:58Z</time>
      </trkpt>
      <trkpt lat="43.52251" lon="5.57629">
        <ele>375.53210449219</ele>
        <time>2022-03-16T10:15:20Z</time>
      </trkpt>
      <trkpt lat="43.52252" lon="5.57629">
        <ele>375.05151367188</ele>
        <time>2022-03-16T10:15:28Z</time>
      </trkpt>
      <trkpt lat="43.52242" lon="5.57641">
        <ele>376.97424316406</ele>
        <time>2022-03-16T10:15:39Z</time>
      </trkpt>
      <trkpt lat="43.52237" lon="5.57643">
        <ele>377.93542480469</ele>
        <time>2022-03-16T10:15:52Z</time>
      </trkpt>
      <trkpt lat="43.52234" lon="5.57645">
        <ele>377.45483398438</ele>
        <time>2022-03-16T10:15:56Z</time>
      </trkpt>
      <trkpt lat="43.52221" lon="5.57657">
        <ele>378.41613769531</ele>
        <time>2022-03-16T10:16:10Z</time>
      </trkpt>
      <trkpt lat="43.52214" lon="5.57655">
        <ele>376.97424316406</ele>
        <time>2022-03-16T10:16:18Z</time>
      </trkpt>
      <trkpt lat="43.52212" lon="5.57654">
        <ele>376.49353027344</ele>
        <time>2022-03-16T10:16:20Z</time>
      </trkpt>
      <trkpt lat="43.5221" lon="5.57654">
        <ele>376.01281738281</ele>
        <time>2022-03-16T10:16:22Z</time>
      </trkpt>
      <trkpt lat="43.52203" lon="5.57659">
        <ele>376.97424316406</ele>
        <time>2022-03-16T10:16:31Z</time>
      </trkpt>
      <trkpt lat="43.52201" lon="5.57674">
        <ele>376.97424316406</ele>
        <time>2022-03-16T10:16:39Z</time>
      </trkpt>
      <trkpt lat="43.52199" lon="5.5768">
        <ele>378.89685058594</ele>
        <time>2022-03-16T10:16:51Z</time>
      </trkpt>
      <trkpt lat="43.52189" lon="5.57689">
        <ele>381.78063964844</ele>
        <time>2022-03-16T10:17:06Z</time>
      </trkpt>
      <trkpt lat="43.5218" lon="5.57696">
        <ele>382.74206542969</ele>
        <time>2022-03-16T10:17:17Z</time>
      </trkpt>
      <trkpt lat="43.52173" lon="5.57707">
        <ele>384.18408203125</ele>
        <time>2022-03-16T10:17:26Z</time>
      </trkpt>
      <trkpt lat="43.52169" lon="5.57724">
        <ele>386.58740234375</ele>
        <time>2022-03-16T10:17:43Z</time>
      </trkpt>
      <trkpt lat="43.52165" lon="5.57733">
        <ele>388.99060058594</ele>
        <time>2022-03-16T10:17:54Z</time>
      </trkpt>
      <trkpt lat="43.52161" lon="5.57746">
        <ele>388.99060058594</ele>
        <time>2022-03-16T10:18:07Z</time>
      </trkpt>
      <trkpt lat="43.52157" lon="5.57756">
        <ele>390.91320800781</ele>
        <time>2022-03-16T10:18:19Z</time>
      </trkpt>
      <trkpt lat="43.52152" lon="5.57769">
        <ele>392.35534667969</ele>
        <time>2022-03-16T10:18:33Z</time>
      </trkpt>
      <trkpt lat="43.5215" lon="5.5778">
        <ele>395.23913574219</ele>
        <time>2022-03-16T10:18:47Z</time>
      </trkpt>
      <trkpt lat="43.52145" lon="5.5779">
        <ele>396.68115234375</ele>
        <time>2022-03-16T10:19:00Z</time>
      </trkpt>
      <trkpt lat="43.5214" lon="5.57796">
        <ele>397.16174316406</ele>
        <time>2022-03-16T10:19:26Z</time>
      </trkpt>
      <trkpt lat="43.52135" lon="5.57801">
        <ele>398.60375976562</ele>
        <time>2022-03-16T10:19:40Z</time>
      </trkpt>
      <trkpt lat="43.52129" lon="5.57814">
        <ele>401.48779296875</ele>
        <time>2022-03-16T10:19:54Z</time>
      </trkpt>
      <trkpt lat="43.52131" lon="5.5783">
        <ele>403.41040039062</ele>
        <time>2022-03-16T10:20:08Z</time>
      </trkpt>
      <trkpt lat="43.52126" lon="5.57844">
        <ele>406.29431152344</ele>
        <time>2022-03-16T10:20:22Z</time>
      </trkpt>
      <trkpt lat="43.5212" lon="5.57863">
        <ele>407.25561523438</ele>
        <time>2022-03-16T10:20:39Z</time>
      </trkpt>
      <trkpt lat="43.52117" lon="5.57874">
        <ele>409.65905761719</ele>
        <time>2022-03-16T10:20:50Z</time>
      </trkpt>
      <trkpt lat="43.52114" lon="5.57891">
        <ele>410.1396484375</ele>
        <time>2022-03-16T10:21:06Z</time>
      </trkpt>
      <trkpt lat="43.52115" lon="5.57893">
        <ele>410.1396484375</ele>
        <time>2022-03-16T10:21:08Z</time>
      </trkpt>
      <trkpt lat="43.52109" lon="5.57913">
        <ele>411.58166503906</ele>
        <time>2022-03-16T10:21:25Z</time>
      </trkpt>
      <trkpt lat="43.52109" lon="5.57923">
        <ele>412.54284667969</ele>
        <time>2022-03-16T10:21:33Z</time>
      </trkpt>
      <trkpt lat="43.52106" lon="5.5793">
        <ele>413.98486328125</ele>
        <time>2022-03-16T10:21:53Z</time>
      </trkpt>
      <trkpt lat="43.52105" lon="5.5793">
        <ele>413.98486328125</ele>
        <time>2022-03-16T10:22:27Z</time>
      </trkpt>
      <trkpt lat="43.52105" lon="5.57929">
        <ele>414.46545410156</ele>
        <time>2022-03-16T10:23:00Z</time>
      </trkpt>
      <trkpt lat="43.52106" lon="5.5793">
        <ele>414.46545410156</ele>
        <time>2022-03-16T10:23:15Z</time>
      </trkpt>
      <trkpt lat="43.52106" lon="5.57929">
        <ele>413.98486328125</ele>
        <time>2022-03-16T10:23:28Z</time>
      </trkpt>
      <trkpt lat="43.52105" lon="5.5793">
        <ele>413.50427246094</ele>
        <time>2022-03-16T10:23:56Z</time>
      </trkpt>
      <trkpt lat="43.52103" lon="5.57935">
        <ele>414.94616699219</ele>
        <time>2022-03-16T10:24:10Z</time>
      </trkpt>
      <trkpt lat="43.521" lon="5.57937">
        <ele>413.98486328125</ele>
        <time>2022-03-16T10:24:13Z</time>
      </trkpt>
      <trkpt lat="43.52088" lon="5.5794">
        <ele>414.46545410156</ele>
        <time>2022-03-16T10:24:29Z</time>
      </trkpt>
      <trkpt lat="43.52088" lon="5.57941">
        <ele>413.98486328125</ele>
        <time>2022-03-16T10:24:51Z</time>
      </trkpt>
      <trkpt lat="43.5208" lon="5.57956">
        <ele>413.02355957031</ele>
        <time>2022-03-16T10:25:08Z</time>
      </trkpt>
      <trkpt lat="43.52074" lon="5.57968">
        <ele>412.54284667969</ele>
        <time>2022-03-16T10:25:22Z</time>
      </trkpt>
      <trkpt lat="43.52065" lon="5.57994">
        <ele>412.54284667969</ele>
        <time>2022-03-16T10:25:40Z</time>
      </trkpt>
      <trkpt lat="43.52064" lon="5.57997">
        <ele>411.58166503906</ele>
        <time>2022-03-16T10:25:42Z</time>
      </trkpt>
      <trkpt lat="43.52063" lon="5.57999">
        <ele>411.58166503906</ele>
        <time>2022-03-16T10:25:44Z</time>
      </trkpt>
      <trkpt lat="43.52052" lon="5.58013">
        <ele>410.62023925781</ele>
        <time>2022-03-16T10:26:00Z</time>
      </trkpt>
      <trkpt lat="43.5205" lon="5.58018">
        <ele>410.62023925781</ele>
        <time>2022-03-16T10:26:04Z</time>
      </trkpt>
      <trkpt lat="43.52048" lon="5.58027">
        <ele>410.62023925781</ele>
        <time>2022-03-16T10:26:11Z</time>
      </trkpt>
      <trkpt lat="43.52043" lon="5.5804">
        <ele>410.62023925781</ele>
        <time>2022-03-16T10:26:24Z</time>
      </trkpt>
      <trkpt lat="43.52041" lon="5.58043">
        <ele>410.62023925781</ele>
        <time>2022-03-16T10:26:27Z</time>
      </trkpt>
      <trkpt lat="43.52035" lon="5.58052">
        <ele>411.10095214844</ele>
        <time>2022-03-16T10:26:35Z</time>
      </trkpt>
      <trkpt lat="43.52035" lon="5.58059">
        <ele>411.10095214844</ele>
        <time>2022-03-16T10:26:55Z</time>
      </trkpt>
      <trkpt lat="43.52031" lon="5.58069">
        <ele>411.58166503906</ele>
        <time>2022-03-16T10:27:10Z</time>
      </trkpt>
      <trkpt lat="43.52026" lon="5.58089">
        <ele>412.06225585938</ele>
        <time>2022-03-16T10:27:24Z</time>
      </trkpt>
      <trkpt lat="43.52018" lon="5.581">
        <ele>411.10095214844</ele>
        <time>2022-03-16T10:27:32Z</time>
      </trkpt>
      <trkpt lat="43.52018" lon="5.5812">
        <ele>410.1396484375</ele>
        <time>2022-03-16T10:27:45Z</time>
      </trkpt>
      <trkpt lat="43.52018" lon="5.58145">
        <ele>411.58166503906</ele>
        <time>2022-03-16T10:28:03Z</time>
      </trkpt>
      <trkpt lat="43.5202" lon="5.58152">
        <ele>412.06225585938</ele>
        <time>2022-03-16T10:28:09Z</time>
      </trkpt>
      <trkpt lat="43.52019" lon="5.58175">
        <ele>412.54284667969</ele>
        <time>2022-03-16T10:28:22Z</time>
      </trkpt>
      <trkpt lat="43.52021" lon="5.58182">
        <ele>413.02355957031</ele>
        <time>2022-03-16T10:28:26Z</time>
      </trkpt>
      <trkpt lat="43.52019" lon="5.58195">
        <ele>412.54284667969</ele>
        <time>2022-03-16T10:28:39Z</time>
      </trkpt>
      <trkpt lat="43.52018" lon="5.58199">
        <ele>413.02355957031</ele>
        <time>2022-03-16T10:28:53Z</time>
      </trkpt>
      <trkpt lat="43.52014" lon="5.58219">
        <ele>414.94616699219</ele>
        <time>2022-03-16T10:29:05Z</time>
      </trkpt>
      <trkpt lat="43.52008" lon="5.58235">
        <ele>414.94616699219</ele>
        <time>2022-03-16T10:29:22Z</time>
      </trkpt>
      <trkpt lat="43.52004" lon="5.58245">
        <ele>415.42687988281</ele>
        <time>2022-03-16T10:29:35Z</time>
      </trkpt>
      <trkpt lat="43.51998" lon="5.58257">
        <ele>416.86889648438</ele>
        <time>2022-03-16T10:29:47Z</time>
      </trkpt>
      <trkpt lat="43.51984" lon="5.58271">
        <ele>418.79150390625</ele>
        <time>2022-03-16T10:30:04Z</time>
      </trkpt>
      <trkpt lat="43.51977" lon="5.58288">
        <ele>419.75280761719</ele>
        <time>2022-03-16T10:30:14Z</time>
      </trkpt>
      <trkpt lat="43.51973" lon="5.58294">
        <ele>420.2333984375</ele>
        <time>2022-03-16T10:30:18Z</time>
      </trkpt>
      <trkpt lat="43.51973" lon="5.58298">
        <ele>420.2333984375</ele>
        <time>2022-03-16T10:30:20Z</time>
      </trkpt>
      <trkpt lat="43.51971" lon="5.583">
        <ele>419.75280761719</ele>
        <time>2022-03-16T10:30:22Z</time>
      </trkpt>
      <trkpt lat="43.51965" lon="5.58315">
        <ele>421.67541503906</ele>
        <time>2022-03-16T10:30:34Z</time>
      </trkpt>
      <trkpt lat="43.51964" lon="5.5832">
        <ele>422.15600585938</ele>
        <time>2022-03-16T10:30:37Z</time>
      </trkpt>
      <trkpt lat="43.51963" lon="5.58325">
        <ele>422.15600585938</ele>
        <time>2022-03-16T10:30:39Z</time>
      </trkpt>
      <trkpt lat="43.51961" lon="5.58337">
        <ele>423.11743164062</ele>
        <time>2022-03-16T10:30:47Z</time>
      </trkpt>
      <trkpt lat="43.5196" lon="5.58358">
        <ele>424.07873535156</ele>
        <time>2022-03-16T10:31:02Z</time>
      </trkpt>
      <trkpt lat="43.51962" lon="5.58371">
        <ele>425.04016113281</ele>
        <time>2022-03-16T10:31:11Z</time>
      </trkpt>
      <trkpt lat="43.51959" lon="5.58375">
        <ele>423.59802246094</ele>
        <time>2022-03-16T10:31:14Z</time>
      </trkpt>
      <trkpt lat="43.51958" lon="5.58376">
        <ele>424.55944824219</ele>
        <time>2022-03-16T10:31:15Z</time>
      </trkpt>
      <trkpt lat="43.51956" lon="5.58378">
        <ele>424.55944824219</ele>
        <time>2022-03-16T10:31:26Z</time>
      </trkpt>
      <trkpt lat="43.51956" lon="5.58378">
        <ele>426.00134277344</ele>
        <time>2022-03-16T10:31:28Z</time>
      </trkpt>
      <trkpt lat="43.51957" lon="5.58377">
        <ele>426.48205566406</ele>
        <time>2022-03-16T10:31:47Z</time>
      </trkpt>
      <trkpt lat="43.51956" lon="5.58379">
        <ele>424.55944824219</ele>
        <time>2022-03-16T10:32:06Z</time>
      </trkpt>
      <trkpt lat="43.51954" lon="5.58388">
        <ele>425.52075195312</ele>
        <time>2022-03-16T10:32:13Z</time>
      </trkpt>
      <trkpt lat="43.51954" lon="5.58405">
        <ele>426.96276855469</ele>
        <time>2022-03-16T10:32:33Z</time>
      </trkpt>
      <trkpt lat="43.51953" lon="5.58409">
        <ele>427.92395019531</ele>
        <time>2022-03-16T10:32:36Z</time>
      </trkpt>
      <trkpt lat="43.51954" lon="5.58414">
        <ele>427.92395019531</ele>
        <time>2022-03-16T10:32:39Z</time>
      </trkpt>
      <trkpt lat="43.51955" lon="5.58429">
        <ele>427.443359375</ele>
        <time>2022-03-16T10:32:49Z</time>
      </trkpt>
      <trkpt lat="43.51955" lon="5.58432">
        <ele>427.443359375</ele>
        <time>2022-03-16T10:32:52Z</time>
      </trkpt>
      <trkpt lat="43.51956" lon="5.58447">
        <ele>427.92395019531</ele>
        <time>2022-03-16T10:33:05Z</time>
      </trkpt>
      <trkpt lat="43.51954" lon="5.58448">
        <ele>427.443359375</ele>
        <time>2022-03-16T10:33:22Z</time>
      </trkpt>
      <trkpt lat="43.51953" lon="5.58457">
        <ele>428.40466308594</ele>
        <time>2022-03-16T10:33:34Z</time>
      </trkpt>
      <trkpt lat="43.51952" lon="5.58492">
        <ele>428.88537597656</ele>
        <time>2022-03-16T10:33:54Z</time>
      </trkpt>
      <trkpt lat="43.51947" lon="5.58516">
        <ele>427.92395019531</ele>
        <time>2022-03-16T10:34:13Z</time>
      </trkpt>
      <trkpt lat="43.51949" lon="5.58527">
        <ele>427.92395019531</ele>
        <time>2022-03-16T10:34:37Z</time>
      </trkpt>
      <trkpt lat="43.51951" lon="5.58534">
        <ele>427.92395019531</ele>
        <time>2022-03-16T10:34:43Z</time>
      </trkpt>
      <trkpt lat="43.51952" lon="5.5854">
        <ele>427.443359375</ele>
        <time>2022-03-16T10:34:48Z</time>
      </trkpt>
      <trkpt lat="43.51954" lon="5.58557">
        <ele>427.443359375</ele>
        <time>2022-03-16T10:35:03Z</time>
      </trkpt>
      <trkpt lat="43.51957" lon="5.58572">
        <ele>427.443359375</ele>
        <time>2022-03-16T10:35:18Z</time>
      </trkpt>
      <trkpt lat="43.51961" lon="5.58591">
        <ele>426.48205566406</ele>
        <time>2022-03-16T10:35:31Z</time>
      </trkpt>
      <trkpt lat="43.51965" lon="5.5861">
        <ele>426.00134277344</ele>
        <time>2022-03-16T10:35:46Z</time>
      </trkpt>
      <trkpt lat="43.51966" lon="5.58613">
        <ele>425.52075195312</ele>
        <time>2022-03-16T10:35:48Z</time>
      </trkpt>
      <trkpt lat="43.51969" lon="5.58636">
        <ele>425.52075195312</ele>
        <time>2022-03-16T10:36:05Z</time>
      </trkpt>
      <trkpt lat="43.5197" lon="5.58643">
        <ele>425.52075195312</ele>
        <time>2022-03-16T10:36:09Z</time>
      </trkpt>
      <trkpt lat="43.51973" lon="5.58674">
        <ele>423.59802246094</ele>
        <time>2022-03-16T10:36:31Z</time>
      </trkpt>
      <trkpt lat="43.51981" lon="5.58711">
        <ele>424.07873535156</ele>
        <time>2022-03-16T10:36:55Z</time>
      </trkpt>
      <trkpt lat="43.51986" lon="5.58731">
        <ele>425.04016113281</ele>
        <time>2022-03-16T10:37:10Z</time>
      </trkpt>
      <trkpt lat="43.51989" lon="5.58743">
        <ele>425.52075195312</ele>
        <time>2022-03-16T10:37:19Z</time>
      </trkpt>
      <trkpt lat="43.5199" lon="5.58748">
        <ele>425.52075195312</ele>
        <time>2022-03-16T10:37:23Z</time>
      </trkpt>
      <trkpt lat="43.51992" lon="5.5876">
        <ele>426.00134277344</ele>
        <time>2022-03-16T10:37:31Z</time>
      </trkpt>
      <trkpt lat="43.52001" lon="5.58778">
        <ele>426.48205566406</ele>
        <time>2022-03-16T10:37:45Z</time>
      </trkpt>
      <trkpt lat="43.52004" lon="5.58783">
        <ele>426.96276855469</ele>
        <time>2022-03-16T10:37:49Z</time>
      </trkpt>
      <trkpt lat="43.5201" lon="5.58799">
        <ele>426.96276855469</ele>
        <time>2022-03-16T10:38:01Z</time>
      </trkpt>
      <trkpt lat="43.52013" lon="5.58808">
        <ele>427.443359375</ele>
        <time>2022-03-16T10:38:10Z</time>
      </trkpt>
      <trkpt lat="43.52024" lon="5.58825">
        <ele>428.40466308594</ele>
        <time>2022-03-16T10:38:24Z</time>
      </trkpt>
      <trkpt lat="43.52036" lon="5.58864">
        <ele>428.88537597656</ele>
        <time>2022-03-16T10:38:49Z</time>
      </trkpt>
      <trkpt lat="43.5204" lon="5.58876">
        <ele>428.88537597656</ele>
        <time>2022-03-16T10:38:58Z</time>
      </trkpt>
      <trkpt lat="43.52056" lon="5.58899">
        <ele>430.32727050781</ele>
        <time>2022-03-16T10:39:17Z</time>
      </trkpt>
      <trkpt lat="43.52059" lon="5.58902">
        <ele>430.32727050781</ele>
        <time>2022-03-16T10:39:21Z</time>
      </trkpt>
      <trkpt lat="43.52062" lon="5.58904">
        <ele>430.32727050781</ele>
        <time>2022-03-16T10:39:33Z</time>
      </trkpt>
      <trkpt lat="43.52063" lon="5.58906">
        <ele>430.80798339844</ele>
        <time>2022-03-16T10:40:01Z</time>
      </trkpt>
      <trkpt lat="43.52065" lon="5.58904">
        <ele>430.80798339844</ele>
        <time>2022-03-16T10:40:16Z</time>
      </trkpt>
      <trkpt lat="43.52065" lon="5.58904">
        <ele>430.32727050781</ele>
        <time>2022-03-16T10:40:17Z</time>
      </trkpt>
      <trkpt lat="43.52069" lon="5.58911">
        <ele>430.80798339844</ele>
        <time>2022-03-16T10:40:22Z</time>
      </trkpt>
      <trkpt lat="43.52068" lon="5.58917">
        <ele>429.36596679688</ele>
        <time>2022-03-16T10:40:30Z</time>
      </trkpt>
      <trkpt lat="43.52068" lon="5.58913">
        <ele>430.80798339844</ele>
        <time>2022-03-16T10:40:44Z</time>
      </trkpt>
      <trkpt lat="43.52069" lon="5.58917">
        <ele>430.80798339844</ele>
        <time>2022-03-16T10:41:01Z</time>
      </trkpt>
      <trkpt lat="43.52069" lon="5.58917">
        <ele>430.80798339844</ele>
        <time>2022-03-16T10:41:04Z</time>
      </trkpt>
      <trkpt lat="43.52069" lon="5.58921">
        <ele>430.80798339844</ele>
        <time>2022-03-16T10:41:08Z</time>
      </trkpt>
      <trkpt lat="43.52069" lon="5.58926">
        <ele>430.32727050781</ele>
        <time>2022-03-16T10:41:22Z</time>
      </trkpt>
      <trkpt lat="43.52067" lon="5.58931">
        <ele>429.36596679688</ele>
        <time>2022-03-16T10:41:27Z</time>
      </trkpt>
      <trkpt lat="43.52057" lon="5.58936">
        <ele>428.40466308594</ele>
        <time>2022-03-16T10:41:39Z</time>
      </trkpt>
      <trkpt lat="43.52047" lon="5.58946">
        <ele>429.84655761719</ele>
        <time>2022-03-16T10:41:49Z</time>
      </trkpt>
      <trkpt lat="43.52039" lon="5.58965">
        <ele>430.32727050781</ele>
        <time>2022-03-16T10:42:03Z</time>
      </trkpt>
      <trkpt lat="43.52037" lon="5.58976">
        <ele>430.80798339844</ele>
        <time>2022-03-16T10:42:10Z</time>
      </trkpt>
      <trkpt lat="43.52036" lon="5.58988">
        <ele>430.80798339844</ele>
        <time>2022-03-16T10:42:18Z</time>
      </trkpt>
      <trkpt lat="43.52034" lon="5.58995">
        <ele>430.80798339844</ele>
        <time>2022-03-16T10:42:23Z</time>
      </trkpt>
      <trkpt lat="43.52031" lon="5.59026">
        <ele>431.76916503906</ele>
        <time>2022-03-16T10:42:43Z</time>
      </trkpt>
      <trkpt lat="43.52028" lon="5.59057">
        <ele>432.25</ele>
        <time>2022-03-16T10:43:03Z</time>
      </trkpt>
      <trkpt lat="43.52021" lon="5.59083">
        <ele>432.73071289062</ele>
        <time>2022-03-16T10:43:21Z</time>
      </trkpt>
      <trkpt lat="43.52014" lon="5.59117">
        <ele>433.21130371094</ele>
        <time>2022-03-16T10:43:45Z</time>
      </trkpt>
      <trkpt lat="43.52006" lon="5.59149">
        <ele>435.61450195312</ele>
        <time>2022-03-16T10:44:10Z</time>
      </trkpt>
      <trkpt lat="43.52007" lon="5.59157">
        <ele>435.61450195312</ele>
        <time>2022-03-16T10:44:17Z</time>
      </trkpt>
      <trkpt lat="43.52006" lon="5.59168">
        <ele>436.09521484375</ele>
        <time>2022-03-16T10:44:24Z</time>
      </trkpt>
      <trkpt lat="43.52008" lon="5.59182">
        <ele>437.05651855469</ele>
        <time>2022-03-16T10:44:37Z</time>
      </trkpt>
      <trkpt lat="43.52011" lon="5.59188">
        <ele>437.537109375</ele>
        <time>2022-03-16T10:44:42Z</time>
      </trkpt>
      <trkpt lat="43.52013" lon="5.59202">
        <ele>437.05651855469</ele>
        <time>2022-03-16T10:44:53Z</time>
      </trkpt>
      <trkpt lat="43.52023" lon="5.59226">
        <ele>438.49853515625</ele>
        <time>2022-03-16T10:45:13Z</time>
      </trkpt>
      <trkpt lat="43.52024" lon="5.59229">
        <ele>438.01782226562</ele>
        <time>2022-03-16T10:45:24Z</time>
      </trkpt>
      <trkpt lat="43.52035" lon="5.59239">
        <ele>438.01782226562</ele>
        <time>2022-03-16T10:45:40Z</time>
      </trkpt>
      <trkpt lat="43.52035" lon="5.59241">
        <ele>438.49853515625</ele>
        <time>2022-03-16T10:46:20Z</time>
      </trkpt>
      <trkpt lat="43.52035" lon="5.59244">
        <ele>438.01782226562</ele>
        <time>2022-03-16T10:46:54Z</time>
      </trkpt>
      <trkpt lat="43.52032" lon="5.59259">
        <ele>438.49853515625</ele>
        <time>2022-03-16T10:47:03Z</time>
      </trkpt>
      <trkpt lat="43.52027" lon="5.59276">
        <ele>438.97912597656</ele>
        <time>2022-03-16T10:47:19Z</time>
      </trkpt>
      <trkpt lat="43.52027" lon="5.59277">
        <ele>438.97912597656</ele>
        <time>2022-03-16T10:47:20Z</time>
      </trkpt>
      <trkpt lat="43.52022" lon="5.59289">
        <ele>439.45971679688</ele>
        <time>2022-03-16T10:47:30Z</time>
      </trkpt>
      <trkpt lat="43.52019" lon="5.59296">
        <ele>439.9404296875</ele>
        <time>2022-03-16T10:47:41Z</time>
      </trkpt>
      <trkpt lat="43.52007" lon="5.59307">
        <ele>440.42126464844</ele>
        <time>2022-03-16T10:47:56Z</time>
      </trkpt>
      <trkpt lat="43.52005" lon="5.59324">
        <ele>441.86315917969</ele>
        <time>2022-03-16T10:48:08Z</time>
      </trkpt>
      <trkpt lat="43.51998" lon="5.59349">
        <ele>443.30505371094</ele>
        <time>2022-03-16T10:48:27Z</time>
      </trkpt>
      <trkpt lat="43.51994" lon="5.59364">
        <ele>444.7470703125</ele>
        <time>2022-03-16T10:48:44Z</time>
      </trkpt>
      <trkpt lat="43.51994" lon="5.59364">
        <ele>444.7470703125</ele>
        <time>2022-03-16T10:48:45Z</time>
      </trkpt>
      <trkpt lat="43.51984" lon="5.59383">
        <ele>442.34387207031</ele>
        <time>2022-03-16T10:48:59Z</time>
      </trkpt>
      <trkpt lat="43.51977" lon="5.59389">
        <ele>444.7470703125</ele>
        <time>2022-03-16T10:49:09Z</time>
      </trkpt>
      <trkpt lat="43.51976" lon="5.59392">
        <ele>444.7470703125</ele>
        <time>2022-03-16T10:49:12Z</time>
      </trkpt>
      <trkpt lat="43.51972" lon="5.59404">
        <ele>445.22766113281</ele>
        <time>2022-03-16T10:49:21Z</time>
      </trkpt>
      <trkpt lat="43.51971" lon="5.59416">
        <ele>446.18908691406</ele>
        <time>2022-03-16T10:49:38Z</time>
      </trkpt>
      <trkpt lat="43.51971" lon="5.59419">
        <ele>446.66967773438</ele>
        <time>2022-03-16T10:49:49Z</time>
      </trkpt>
      <trkpt lat="43.51971" lon="5.59432">
        <ele>447.15026855469</ele>
        <time>2022-03-16T10:50:00Z</time>
      </trkpt>
      <trkpt lat="43.51968" lon="5.59451">
        <ele>448.59240722656</ele>
        <time>2022-03-16T10:50:16Z</time>
      </trkpt>
      <trkpt lat="43.51966" lon="5.59468">
        <ele>449.5537109375</ele>
        <time>2022-03-16T10:50:29Z</time>
      </trkpt>
      <trkpt lat="43.51964" lon="5.59486">
        <ele>452.43762207031</ele>
        <time>2022-03-16T10:50:45Z</time>
      </trkpt>
      <trkpt lat="43.51964" lon="5.59487">
        <ele>452.43762207031</ele>
        <time>2022-03-16T10:50:46Z</time>
      </trkpt>
      <trkpt lat="43.51963" lon="5.595">
        <ele>455.32153320312</ele>
        <time>2022-03-16T10:51:00Z</time>
      </trkpt>
      <trkpt lat="43.51963" lon="5.59505">
        <ele>455.80224609375</ele>
        <time>2022-03-16T10:51:04Z</time>
      </trkpt>
      <trkpt lat="43.51967" lon="5.59508">
        <ele>456.28295898438</ele>
        <time>2022-03-16T10:51:10Z</time>
      </trkpt>
      <trkpt lat="43.51969" lon="5.59509">
        <ele>456.76354980469</ele>
        <time>2022-03-16T10:51:12Z</time>
      </trkpt>
      <trkpt lat="43.51969" lon="5.59512">
        <ele>456.76354980469</ele>
        <time>2022-03-16T10:51:15Z</time>
      </trkpt>
      <trkpt lat="43.5197" lon="5.5952">
        <ele>458.20556640625</ele>
        <time>2022-03-16T10:51:30Z</time>
      </trkpt>
      <trkpt lat="43.51971" lon="5.59521">
        <ele>458.20556640625</ele>
        <time>2022-03-16T10:52:08Z</time>
      </trkpt>
      <trkpt lat="43.5197" lon="5.59523">
        <ele>458.20556640625</ele>
        <time>2022-03-16T10:52:11Z</time>
      </trkpt>
      <trkpt lat="43.51968" lon="5.59529">
        <ele>458.68615722656</ele>
        <time>2022-03-16T10:52:15Z</time>
      </trkpt>
      <trkpt lat="43.51967" lon="5.59532">
        <ele>458.20556640625</ele>
        <time>2022-03-16T10:52:32Z</time>
      </trkpt>
      <trkpt lat="43.51967" lon="5.59538">
        <ele>459.16687011719</ele>
        <time>2022-03-16T10:52:47Z</time>
      </trkpt>
      <trkpt lat="43.51966" lon="5.59538">
        <ele>458.68615722656</ele>
        <time>2022-03-16T10:52:49Z</time>
      </trkpt>
      <trkpt lat="43.51965" lon="5.59546">
        <ele>459.64758300781</ele>
        <time>2022-03-16T10:53:02Z</time>
      </trkpt>
      <trkpt lat="43.51962" lon="5.59568">
        <ele>461.57019042969</ele>
        <time>2022-03-16T10:53:16Z</time>
      </trkpt>
      <trkpt lat="43.5196" lon="5.59578">
        <ele>462.53137207031</ele>
        <time>2022-03-16T10:53:24Z</time>
      </trkpt>
      <trkpt lat="43.51959" lon="5.59581">
        <ele>462.53137207031</ele>
        <time>2022-03-16T10:53:26Z</time>
      </trkpt>
      <trkpt lat="43.51959" lon="5.59587">
        <ele>463.49279785156</ele>
        <time>2022-03-16T10:53:30Z</time>
      </trkpt>
      <trkpt lat="43.51963" lon="5.59604">
        <ele>464.93481445312</ele>
        <time>2022-03-16T10:53:48Z</time>
      </trkpt>
      <trkpt lat="43.51963" lon="5.59603">
        <ele>464.4541015625</ele>
        <time>2022-03-16T10:54:28Z</time>
      </trkpt>
      <trkpt lat="43.51964" lon="5.59601">
        <ele>463.97338867188</ele>
        <time>2022-03-16T10:54:53Z</time>
      </trkpt>
      <trkpt lat="43.51963" lon="5.59601">
        <ele>463.97338867188</ele>
        <time>2022-03-16T10:55:07Z</time>
      </trkpt>
      <trkpt lat="43.51962" lon="5.59604">
        <ele>463.97338867188</ele>
        <time>2022-03-16T10:55:29Z</time>
      </trkpt>
      <trkpt lat="43.5196" lon="5.59623">
        <ele>463.49279785156</ele>
        <time>2022-03-16T10:55:41Z</time>
      </trkpt>
      <trkpt lat="43.51965" lon="5.59624">
        <ele>464.4541015625</ele>
        <time>2022-03-16T10:55:46Z</time>
      </trkpt>
      <trkpt lat="43.51982" lon="5.59623">
        <ele>465.41552734375</ele>
        <time>2022-03-16T10:56:00Z</time>
      </trkpt>
      <trkpt lat="43.51989" lon="5.5962">
        <ele>465.41552734375</ele>
        <time>2022-03-16T10:56:06Z</time>
      </trkpt>
      <trkpt lat="43.52001" lon="5.5962">
        <ele>465.41552734375</ele>
        <time>2022-03-16T10:56:21Z</time>
      </trkpt>
      <trkpt lat="43.52002" lon="5.5962">
        <ele>465.89611816406</ele>
        <time>2022-03-16T10:56:24Z</time>
      </trkpt>
      <trkpt lat="43.52011" lon="5.5962">
        <ele>465.89611816406</ele>
        <time>2022-03-16T10:56:34Z</time>
      </trkpt>
      <trkpt lat="43.52021" lon="5.59624">
        <ele>466.857421875</ele>
        <time>2022-03-16T10:56:43Z</time>
      </trkpt>
      <trkpt lat="43.52034" lon="5.59645">
        <ele>469.2607421875</ele>
        <time>2022-03-16T10:57:03Z</time>
      </trkpt>
      <trkpt lat="43.52046" lon="5.59659">
        <ele>471.66394042969</ele>
        <time>2022-03-16T10:57:22Z</time>
      </trkpt>
      <trkpt lat="43.52052" lon="5.59666">
        <ele>472.14465332031</ele>
        <time>2022-03-16T10:57:30Z</time>
      </trkpt>
      <trkpt lat="43.52057" lon="5.59676">
        <ele>473.10607910156</ele>
        <time>2022-03-16T10:57:40Z</time>
      </trkpt>
      <trkpt lat="43.52065" lon="5.59684">
        <ele>474.06726074219</ele>
        <time>2022-03-16T10:57:50Z</time>
      </trkpt>
      <trkpt lat="43.52071" lon="5.59694">
        <ele>475.02868652344</ele>
        <time>2022-03-16T10:58:01Z</time>
      </trkpt>
      <trkpt lat="43.52088" lon="5.59711">
        <ele>477.43188476562</ele>
        <time>2022-03-16T10:58:22Z</time>
      </trkpt>
      <trkpt lat="43.52093" lon="5.59715">
        <ele>478.39318847656</ele>
        <time>2022-03-16T10:58:35Z</time>
      </trkpt>
      <trkpt lat="43.52105" lon="5.59734">
        <ele>479.83508300781</ele>
        <time>2022-03-16T10:58:53Z</time>
      </trkpt>
      <trkpt lat="43.52115" lon="5.59755">
        <ele>481.7578125</ele>
        <time>2022-03-16T10:59:10Z</time>
      </trkpt>
      <trkpt lat="43.52128" lon="5.59773">
        <ele>483.19982910156</ele>
        <time>2022-03-16T10:59:28Z</time>
      </trkpt>
      <trkpt lat="43.5214" lon="5.59794">
        <ele>484.64184570312</ele>
        <time>2022-03-16T10:59:47Z</time>
      </trkpt>
      <trkpt lat="43.52142" lon="5.59796">
        <ele>485.60302734375</ele>
        <time>2022-03-16T10:59:50Z</time>
      </trkpt>
      <trkpt lat="43.52144" lon="5.598">
        <ele>485.12243652344</ele>
        <time>2022-03-16T10:59:53Z</time>
      </trkpt>
      <trkpt lat="43.5216" lon="5.59817">
        <ele>487.04504394531</ele>
        <time>2022-03-16T11:00:13Z</time>
      </trkpt>
      <trkpt lat="43.52178" lon="5.5984">
        <ele>489.92907714844</ele>
        <time>2022-03-16T11:00:40Z</time>
      </trkpt>
      <trkpt lat="43.52189" lon="5.59857">
        <ele>491.37097167969</ele>
        <time>2022-03-16T11:00:59Z</time>
      </trkpt>
      <trkpt lat="43.52201" lon="5.5987">
        <ele>493.29357910156</ele>
        <time>2022-03-16T11:01:14Z</time>
      </trkpt>
      <trkpt lat="43.52212" lon="5.59888">
        <ele>495.69689941406</ele>
        <time>2022-03-16T11:01:37Z</time>
      </trkpt>
      <trkpt lat="43.52219" lon="5.59903">
        <ele>496.177734375</ele>
        <time>2022-03-16T11:02:04Z</time>
      </trkpt>
      <trkpt lat="43.52232" lon="5.59926">
        <ele>498.58093261719</ele>
        <time>2022-03-16T11:02:26Z</time>
      </trkpt>
      <trkpt lat="43.52243" lon="5.59946">
        <ele>500.98413085938</ele>
        <time>2022-03-16T11:02:46Z</time>
      </trkpt>
      <trkpt lat="43.52245" lon="5.5995">
        <ele>501.46484375</ele>
        <time>2022-03-16T11:02:50Z</time>
      </trkpt>
      <trkpt lat="43.52262" lon="5.59972">
        <ele>504.34887695312</ele>
        <time>2022-03-16T11:03:14Z</time>
      </trkpt>
      <trkpt lat="43.52273" lon="5.59989">
        <ele>507.23278808594</ele>
        <time>2022-03-16T11:03:36Z</time>
      </trkpt>
      <trkpt lat="43.52287" lon="5.60006">
        <ele>510.11669921875</ele>
        <time>2022-03-16T11:03:59Z</time>
      </trkpt>
      <trkpt lat="43.52296" lon="5.60018">
        <ele>513.00073242188</ele>
        <time>2022-03-16T11:04:17Z</time>
      </trkpt>
      <trkpt lat="43.52303" lon="5.60029">
        <ele>514.44262695312</ele>
        <time>2022-03-16T11:04:35Z</time>
      </trkpt>
      <trkpt lat="43.52313" lon="5.60044">
        <ele>517.32666015625</ele>
        <time>2022-03-16T11:04:55Z</time>
      </trkpt>
      <trkpt lat="43.52324" lon="5.60061">
        <ele>520.21057128906</ele>
        <time>2022-03-16T11:05:15Z</time>
      </trkpt>
      <trkpt lat="43.52332" lon="5.6007">
        <ele>522.13317871094</ele>
        <time>2022-03-16T11:05:30Z</time>
      </trkpt>
      <trkpt lat="43.52339" lon="5.60079">
        <ele>524.05578613281</ele>
        <time>2022-03-16T11:05:45Z</time>
      </trkpt>
      <trkpt lat="43.52348" lon="5.60081">
        <ele>525.01721191406</ele>
        <time>2022-03-16T11:06:02Z</time>
      </trkpt>
      <trkpt lat="43.52348" lon="5.60082">
        <ele>524.53649902344</ele>
        <time>2022-03-16T11:06:30Z</time>
      </trkpt>
      <trkpt lat="43.52347" lon="5.60082">
        <ele>524.53649902344</ele>
        <time>2022-03-16T11:06:47Z</time>
      </trkpt>
      <trkpt lat="43.5235" lon="5.60082">
        <ele>525.49780273438</ele>
        <time>2022-03-16T11:07:10Z</time>
      </trkpt>
      <trkpt lat="43.52354" lon="5.60083">
        <ele>525.97839355469</ele>
        <time>2022-03-16T11:07:15Z</time>
      </trkpt>
      <trkpt lat="43.52366" lon="5.60091">
        <ele>527.90100097656</ele>
        <time>2022-03-16T11:07:30Z</time>
      </trkpt>
      <trkpt lat="43.52374" lon="5.60095">
        <ele>529.34313964844</ele>
        <time>2022-03-16T11:07:44Z</time>
      </trkpt>
      <trkpt lat="43.52386" lon="5.60103">
        <ele>530.78515625</ele>
        <time>2022-03-16T11:07:59Z</time>
      </trkpt>
      <trkpt lat="43.52399" lon="5.60113">
        <ele>534.14965820312</ele>
        <time>2022-03-16T11:08:16Z</time>
      </trkpt>
      <trkpt lat="43.52413" lon="5.60122">
        <ele>536.07238769531</ele>
        <time>2022-03-16T11:08:33Z</time>
      </trkpt>
      <trkpt lat="43.52429" lon="5.60134">
        <ele>539.43688964844</ele>
        <time>2022-03-16T11:08:55Z</time>
      </trkpt>
      <trkpt lat="43.52442" lon="5.60147">
        <ele>542.32092285156</ele>
        <time>2022-03-16T11:09:13Z</time>
      </trkpt>
      <trkpt lat="43.52454" lon="5.60154">
        <ele>545.20483398438</ele>
        <time>2022-03-16T11:09:30Z</time>
      </trkpt>
      <trkpt lat="43.52461" lon="5.60158">
        <ele>546.64685058594</ele>
        <time>2022-03-16T11:09:51Z</time>
      </trkpt>
      <trkpt lat="43.52469" lon="5.60163">
        <ele>548.5693359375</ele>
        <time>2022-03-16T11:10:06Z</time>
      </trkpt>
      <trkpt lat="43.52482" lon="5.60172">
        <ele>551.93408203125</ele>
        <time>2022-03-16T11:10:23Z</time>
      </trkpt>
      <trkpt lat="43.52491" lon="5.60167">
        <ele>554.33740234375</ele>
        <time>2022-03-16T11:10:40Z</time>
      </trkpt>
      <trkpt lat="43.52492" lon="5.60166">
        <ele>553.3759765625</ele>
        <time>2022-03-16T11:11:43Z</time>
      </trkpt>
      <trkpt lat="43.5249" lon="5.60167">
        <ele>553.85668945312</ele>
        <time>2022-03-16T11:12:20Z</time>
      </trkpt>
      <trkpt lat="43.52498" lon="5.60167">
        <ele>554.33740234375</ele>
        <time>2022-03-16T11:12:50Z</time>
      </trkpt>
      <trkpt lat="43.5251" lon="5.60162">
        <ele>556.74072265625</ele>
        <time>2022-03-16T11:12:59Z</time>
      </trkpt>
      <trkpt lat="43.52518" lon="5.60156">
        <ele>558.18286132812</ele>
        <time>2022-03-16T11:13:07Z</time>
      </trkpt>
      <trkpt lat="43.52519" lon="5.60144">
        <ele>560.5859375</ele>
        <time>2022-03-16T11:13:13Z</time>
      </trkpt>
      <trkpt lat="43.52521" lon="5.60137">
        <ele>562.02807617188</ele>
        <time>2022-03-16T11:13:17Z</time>
      </trkpt>
      <trkpt lat="43.52522" lon="5.60131">
        <ele>562.9892578125</ele>
        <time>2022-03-16T11:13:20Z</time>
      </trkpt>
      <trkpt lat="43.52522" lon="5.60127">
        <ele>563.95043945312</ele>
        <time>2022-03-16T11:13:22Z</time>
      </trkpt>
      <trkpt lat="43.52522" lon="5.60112">
        <ele>566.35375976562</ele>
        <time>2022-03-16T11:13:30Z</time>
      </trkpt>
      <trkpt lat="43.52522" lon="5.60108">
        <ele>566.83447265625</ele>
        <time>2022-03-16T11:13:32Z</time>
      </trkpt>
      <trkpt lat="43.52523" lon="5.60102">
        <ele>568.75708007812</ele>
        <time>2022-03-16T11:13:37Z</time>
      </trkpt>
      <trkpt lat="43.52525" lon="5.60093">
        <ele>570.19897460938</ele>
        <time>2022-03-16T11:13:44Z</time>
      </trkpt>
      <trkpt lat="43.52526" lon="5.60083">
        <ele>572.12182617188</ele>
        <time>2022-03-16T11:13:50Z</time>
      </trkpt>
      <trkpt lat="43.52522" lon="5.60064">
        <ele>575.486328125</ele>
        <time>2022-03-16T11:14:06Z</time>
      </trkpt>
      <trkpt lat="43.52521" lon="5.60051">
        <ele>577.4091796875</ele>
        <time>2022-03-16T11:14:22Z</time>
      </trkpt>
      <trkpt lat="43.52522" lon="5.60033">
        <ele>580.29296875</ele>
        <time>2022-03-16T11:14:40Z</time>
      </trkpt>
      <trkpt lat="43.5252" lon="5.60008">
        <ele>582.6962890625</ele>
        <time>2022-03-16T11:15:02Z</time>
      </trkpt>
      <trkpt lat="43.5252" lon="5.60007">
        <ele>583.1767578125</ele>
        <time>2022-03-16T11:15:03Z</time>
      </trkpt>
      <trkpt lat="43.52525" lon="5.59977">
        <ele>585.099609375</ele>
        <time>2022-03-16T11:15:26Z</time>
      </trkpt>
      <trkpt lat="43.52526" lon="5.59949">
        <ele>587.9833984375</ele>
        <time>2022-03-16T11:15:48Z</time>
      </trkpt>
      <trkpt lat="43.52524" lon="5.59925">
        <ele>591.34814453125</ele>
        <time>2022-03-16T11:16:08Z</time>
      </trkpt>
      <trkpt lat="43.52523" lon="5.59912">
        <ele>594.23217773438</ele>
        <time>2022-03-16T11:16:22Z</time>
      </trkpt>
      <trkpt lat="43.52518" lon="5.599">
        <ele>597.5966796875</ele>
        <time>2022-03-16T11:16:34Z</time>
      </trkpt>
      <trkpt lat="43.52518" lon="5.59894">
        <ele>599.03857421875</ele>
        <time>2022-03-16T11:16:40Z</time>
      </trkpt>
      <trkpt lat="43.52527" lon="5.59868">
        <ele>600.48071289062</ele>
        <time>2022-03-16T11:17:05Z</time>
      </trkpt>
      <trkpt lat="43.52533" lon="5.59851">
        <ele>602.8837890625</ele>
        <time>2022-03-16T11:17:27Z</time>
      </trkpt>
      <trkpt lat="43.52534" lon="5.59851">
        <ele>602.8837890625</ele>
        <time>2022-03-16T11:17:42Z</time>
      </trkpt>
      <trkpt lat="43.52533" lon="5.59851">
        <ele>602.40307617188</ele>
        <time>2022-03-16T11:18:08Z</time>
      </trkpt>
      <trkpt lat="43.52535" lon="5.5985">
        <ele>602.8837890625</ele>
        <time>2022-03-16T11:18:29Z</time>
      </trkpt>
      <trkpt lat="43.52535" lon="5.5985">
        <ele>602.8837890625</ele>
        <time>2022-03-16T11:18:58Z</time>
      </trkpt>
      <trkpt lat="43.52535" lon="5.59852">
        <ele>602.40307617188</ele>
        <time>2022-03-16T11:19:42Z</time>
      </trkpt>
      <trkpt lat="43.52535" lon="5.59851">
        <ele>602.40307617188</ele>
        <time>2022-03-16T11:20:30Z</time>
      </trkpt>
      <trkpt lat="43.52537" lon="5.59851">
        <ele>602.40307617188</ele>
        <time>2022-03-16T11:21:35Z</time>
      </trkpt>
      <trkpt lat="43.52536" lon="5.59852">
        <ele>601.92260742188</ele>
        <time>2022-03-16T11:21:58Z</time>
      </trkpt>
      <trkpt lat="43.52537" lon="5.59846">
        <ele>602.40307617188</ele>
        <time>2022-03-16T11:22:30Z</time>
      </trkpt>
      <trkpt lat="43.52546" lon="5.59832">
        <ele>605.28735351562</ele>
        <time>2022-03-16T11:22:47Z</time>
      </trkpt>
      <trkpt lat="43.52549" lon="5.5983">
        <ele>605.28735351562</ele>
        <time>2022-03-16T11:22:51Z</time>
      </trkpt>
      <trkpt lat="43.52557" lon="5.59823">
        <ele>608.65185546875</ele>
        <time>2022-03-16T11:23:03Z</time>
      </trkpt>
      <trkpt lat="43.52561" lon="5.59832">
        <ele>611.05517578125</ele>
        <time>2022-03-16T11:23:16Z</time>
      </trkpt>
      <trkpt lat="43.52565" lon="5.5984">
        <ele>614.41967773438</ele>
        <time>2022-03-16T11:23:31Z</time>
      </trkpt>
      <trkpt lat="43.52565" lon="5.59845">
        <ele>615.38110351562</ele>
        <time>2022-03-16T11:23:43Z</time>
      </trkpt>
      <trkpt lat="43.52565" lon="5.59844">
        <ele>614.900390625</ele>
        <time>2022-03-16T11:24:07Z</time>
      </trkpt>
      <trkpt lat="43.52565" lon="5.59852">
        <ele>615.38110351562</ele>
        <time>2022-03-16T11:24:28Z</time>
      </trkpt>
      <trkpt lat="43.52564" lon="5.59864">
        <ele>617.7841796875</ele>
        <time>2022-03-16T11:24:42Z</time>
      </trkpt>
      <trkpt lat="43.52564" lon="5.59867">
        <ele>618.26489257812</ele>
        <time>2022-03-16T11:24:58Z</time>
      </trkpt>
      <trkpt lat="43.52563" lon="5.59871">
        <ele>618.26489257812</ele>
        <time>2022-03-16T11:25:24Z</time>
      </trkpt>
      <trkpt lat="43.52563" lon="5.59872">
        <ele>618.74560546875</ele>
        <time>2022-03-16T11:25:43Z</time>
      </trkpt>
      <trkpt lat="43.52567" lon="5.59885">
        <ele>620.66845703125</ele>
        <time>2022-03-16T11:26:03Z</time>
      </trkpt>
      <trkpt lat="43.52568" lon="5.59886">
        <ele>620.66845703125</ele>
        <time>2022-03-16T11:26:04Z</time>
      </trkpt>
      <trkpt lat="43.52571" lon="5.59895">
        <ele>623.07177734375</ele>
        <time>2022-03-16T11:26:12Z</time>
      </trkpt>
      <trkpt lat="43.52571" lon="5.59895">
        <ele>622.1103515625</ele>
        <time>2022-03-16T11:26:19Z</time>
      </trkpt>
      <trkpt lat="43.52579" lon="5.59908">
        <ele>624.03295898438</ele>
        <time>2022-03-16T11:26:32Z</time>
      </trkpt>
      <trkpt lat="43.52584" lon="5.59926">
        <ele>626.43627929688</ele>
        <time>2022-03-16T11:26:45Z</time>
      </trkpt>
      <trkpt lat="43.52585" lon="5.59929">
        <ele>626.9169921875</ele>
        <time>2022-03-16T11:26:47Z</time>
      </trkpt>
      <trkpt lat="43.52586" lon="5.59936">
        <ele>627.87817382812</ele>
        <time>2022-03-16T11:26:52Z</time>
      </trkpt>
      <trkpt lat="43.52587" lon="5.59949">
        <ele>629.80078125</ele>
        <time>2022-03-16T11:26:59Z</time>
      </trkpt>
      <trkpt lat="43.52591" lon="5.59967">
        <ele>632.2041015625</ele>
        <time>2022-03-16T11:27:11Z</time>
      </trkpt>
      <trkpt lat="43.5259" lon="5.59974">
        <ele>632.68481445312</ele>
        <time>2022-03-16T11:27:16Z</time>
      </trkpt>
      <trkpt lat="43.52588" lon="5.59987">
        <ele>636.04956054688</ele>
        <time>2022-03-16T11:27:31Z</time>
      </trkpt>
      <trkpt lat="43.52594" lon="5.60001">
        <ele>637.0107421875</ele>
        <time>2022-03-16T11:27:48Z</time>
      </trkpt>
      <trkpt lat="43.52596" lon="5.60007">
        <ele>637.49145507812</ele>
        <time>2022-03-16T11:27:54Z</time>
      </trkpt>
      <trkpt lat="43.52604" lon="5.60029">
        <ele>639.89477539062</ele>
        <time>2022-03-16T11:28:15Z</time>
      </trkpt>
      <trkpt lat="43.52613" lon="5.60047">
        <ele>641.33666992188</ele>
        <time>2022-03-16T11:28:33Z</time>
      </trkpt>
      <trkpt lat="43.52621" lon="5.60059">
        <ele>643.73999023438</ele>
        <time>2022-03-16T11:28:47Z</time>
      </trkpt>
      <trkpt lat="43.52619" lon="5.60057">
        <ele>643.73999023438</ele>
        <time>2022-03-16T11:28:54Z</time>
      </trkpt>
      <trkpt lat="43.52623" lon="5.60059">
        <ele>644.701171875</ele>
        <time>2022-03-16T11:29:10Z</time>
      </trkpt>
      <trkpt lat="43.52627" lon="5.60068">
        <ele>645.18188476562</ele>
        <time>2022-03-16T11:29:24Z</time>
      </trkpt>
      <trkpt lat="43.52631" lon="5.60078">
        <ele>644.701171875</ele>
        <time>2022-03-16T11:29:38Z</time>
      </trkpt>
      <trkpt lat="43.52645" lon="5.60092">
        <ele>645.18188476562</ele>
        <time>2022-03-16T11:29:53Z</time>
      </trkpt>
      <trkpt lat="43.52652" lon="5.60095">
        <ele>645.18188476562</ele>
        <time>2022-03-16T11:30:08Z</time>
      </trkpt>
      <trkpt lat="43.52653" lon="5.60097">
        <ele>645.18188476562</ele>
        <time>2022-03-16T11:30:10Z</time>
      </trkpt>
      <trkpt lat="43.52654" lon="5.60104">
        <ele>645.18188476562</ele>
        <time>2022-03-16T11:30:22Z</time>
      </trkpt>
      <trkpt lat="43.52655" lon="5.60106">
        <ele>645.66259765625</ele>
        <time>2022-03-16T11:30:50Z</time>
      </trkpt>
      <trkpt lat="43.52658" lon="5.60105">
        <ele>645.66259765625</ele>
        <time>2022-03-16T11:31:00Z</time>
      </trkpt>
      <trkpt lat="43.52658" lon="5.60107">
        <ele>645.18188476562</ele>
        <time>2022-03-16T11:31:16Z</time>
      </trkpt>
      <trkpt lat="43.5266" lon="5.60107">
        <ele>645.18188476562</ele>
        <time>2022-03-16T11:31:34Z</time>
      </trkpt>
      <trkpt lat="43.52656" lon="5.601">
        <ele>645.66259765625</ele>
        <time>2022-03-16T11:32:03Z</time>
      </trkpt>
      <trkpt lat="43.52655" lon="5.60101">
        <ele>645.18188476562</ele>
        <time>2022-03-16T11:32:31Z</time>
      </trkpt>
      <trkpt lat="43.52655" lon="5.60108">
        <ele>645.66259765625</ele>
        <time>2022-03-16T11:32:45Z</time>
      </trkpt>
      <trkpt lat="43.52656" lon="5.60107">
        <ele>646.14331054688</ele>
        <time>2022-03-16T11:33:40Z</time>
      </trkpt>
      <trkpt lat="43.52657" lon="5.60105">
        <ele>646.14331054688</ele>
        <time>2022-03-16T11:33:45Z</time>
      </trkpt>
      <trkpt lat="43.52653" lon="5.60098">
        <ele>645.18188476562</ele>
        <time>2022-03-16T11:33:56Z</time>
      </trkpt>
      <trkpt lat="43.52652" lon="5.60096">
        <ele>645.18188476562</ele>
        <time>2022-03-16T11:34:17Z</time>
      </trkpt>
      <trkpt lat="43.52653" lon="5.60102">
        <ele>645.66259765625</ele>
        <time>2022-03-16T11:34:36Z</time>
      </trkpt>
      <trkpt lat="43.52653" lon="5.60105">
        <ele>646.14331054688</ele>
        <time>2022-03-16T11:35:06Z</time>
      </trkpt>
      <trkpt lat="43.5265" lon="5.60098">
        <ele>646.6240234375</ele>
        <time>2022-03-16T11:36:02Z</time>
      </trkpt>
      <trkpt lat="43.52649" lon="5.60094">
        <ele>646.14331054688</ele>
        <time>2022-03-16T11:36:15Z</time>
      </trkpt>
      <trkpt lat="43.52649" lon="5.60094">
        <ele>645.66259765625</ele>
        <time>2022-03-16T11:36:55Z</time>
      </trkpt>
      <trkpt lat="43.52648" lon="5.60095">
        <ele>646.14331054688</ele>
        <time>2022-03-16T11:37:37Z</time>
      </trkpt>
      <trkpt lat="43.52651" lon="5.60093">
        <ele>648.06591796875</ele>
        <time>2022-03-16T11:43:58Z</time>
      </trkpt>
      <trkpt lat="43.52652" lon="5.60093">
        <ele>647.58520507812</ele>
        <time>2022-03-16T11:45:57Z</time>
      </trkpt>
      <trkpt lat="43.52652" lon="5.60092">
        <ele>647.58520507812</ele>
        <time>2022-03-16T11:46:22Z</time>
      </trkpt>
      <trkpt lat="43.52652" lon="5.60092">
        <ele>648.06591796875</ele>
        <time>2022-03-16T11:47:07Z</time>
      </trkpt>
      <trkpt lat="43.52653" lon="5.6009">
        <ele>648.06591796875</ele>
        <time>2022-03-16T11:47:28Z</time>
      </trkpt>
      <trkpt lat="43.52657" lon="5.60088">
        <ele>648.54638671875</ele>
        <time>2022-03-16T11:48:52Z</time>
      </trkpt>
      <trkpt lat="43.52656" lon="5.60089">
        <ele>648.54638671875</ele>
        <time>2022-03-16T11:49:32Z</time>
      </trkpt>
      <trkpt lat="43.52656" lon="5.60085">
        <ele>648.54638671875</ele>
        <time>2022-03-16T11:54:35Z</time>
      </trkpt>
      <trkpt lat="43.52659" lon="5.60089">
        <ele>648.06591796875</ele>
        <time>2022-03-16T11:56:19Z</time>
      </trkpt>
      <trkpt lat="43.52657" lon="5.60094">
        <ele>648.06591796875</ele>
        <time>2022-03-16T11:57:08Z</time>
      </trkpt>
      <trkpt lat="43.52657" lon="5.60094">
        <ele>648.06591796875</ele>
        <time>2022-03-16T11:57:47Z</time>
      </trkpt>
      <trkpt lat="43.52658" lon="5.6009">
        <ele>648.54638671875</ele>
        <time>2022-03-16T11:58:57Z</time>
      </trkpt>
      <trkpt lat="43.52651" lon="5.60098">
        <ele>649.02709960938</ele>
        <time>2022-03-16T11:59:10Z</time>
      </trkpt>
      <trkpt lat="43.52652" lon="5.60097">
        <ele>648.54638671875</ele>
        <time>2022-03-16T11:59:13Z</time>
      </trkpt>
      <trkpt lat="43.52654" lon="5.60091">
        <ele>649.02709960938</ele>
        <time>2022-03-16T11:59:25Z</time>
      </trkpt>
      <trkpt lat="43.52654" lon="5.60093">
        <ele>649.02709960938</ele>
        <time>2022-03-16T11:59:51Z</time>
      </trkpt>
      <trkpt lat="43.52654" lon="5.60095">
        <ele>649.5078125</ele>
        <time>2022-03-16T12:00:04Z</time>
      </trkpt>
      <trkpt lat="43.52655" lon="5.60099">
        <ele>649.5078125</ele>
        <time>2022-03-16T12:00:13Z</time>
      </trkpt>
      <trkpt lat="43.52659" lon="5.60107">
        <ele>649.98852539062</ele>
        <time>2022-03-16T12:00:30Z</time>
      </trkpt>
      <trkpt lat="43.52656" lon="5.60108">
        <ele>649.5078125</ele>
        <time>2022-03-16T12:00:55Z</time>
      </trkpt>
      <trkpt lat="43.52652" lon="5.60096">
        <ele>649.5078125</ele>
        <time>2022-03-16T12:01:12Z</time>
      </trkpt>
      <trkpt lat="43.52649" lon="5.60092">
        <ele>649.5078125</ele>
        <time>2022-03-16T12:01:27Z</time>
      </trkpt>
      <trkpt lat="43.52652" lon="5.60095">
        <ele>649.02709960938</ele>
        <time>2022-03-16T12:01:43Z</time>
      </trkpt>
      <trkpt lat="43.52656" lon="5.60096">
        <ele>649.5078125</ele>
        <time>2022-03-16T12:02:12Z</time>
      </trkpt>
      <trkpt lat="43.52656" lon="5.60102">
        <ele>650.46923828125</ele>
        <time>2022-03-16T12:02:27Z</time>
      </trkpt>
      <trkpt lat="43.52655" lon="5.60104">
        <ele>650.46923828125</ele>
        <time>2022-03-16T12:02:40Z</time>
      </trkpt>
      <trkpt lat="43.52655" lon="5.60105">
        <ele>650.46923828125</ele>
        <time>2022-03-16T12:02:52Z</time>
      </trkpt>
      <trkpt lat="43.52658" lon="5.60101">
        <ele>649.98852539062</ele>
        <time>2022-03-16T12:10:11Z</time>
      </trkpt>
      <trkpt lat="43.52657" lon="5.60106">
        <ele>649.98852539062</ele>
        <time>2022-03-16T12:10:32Z</time>
      </trkpt>
      <trkpt lat="43.52663" lon="5.60104">
        <ele>649.5078125</ele>
        <time>2022-03-16T12:11:09Z</time>
      </trkpt>
      <trkpt lat="43.52666" lon="5.60103">
        <ele>649.98852539062</ele>
        <time>2022-03-16T12:11:41Z</time>
      </trkpt>
      <trkpt lat="43.52662" lon="5.60102">
        <ele>649.5078125</ele>
        <time>2022-03-16T12:12:11Z</time>
      </trkpt>
      <trkpt lat="43.52662" lon="5.60095">
        <ele>649.02709960938</ele>
        <time>2022-03-16T12:12:28Z</time>
      </trkpt>
      <trkpt lat="43.52658" lon="5.60094">
        <ele>649.02709960938</ele>
        <time>2022-03-16T12:12:52Z</time>
      </trkpt>
      <trkpt lat="43.52654" lon="5.60094">
        <ele>648.54638671875</ele>
        <time>2022-03-16T12:13:42Z</time>
      </trkpt>
      <trkpt lat="43.52654" lon="5.60092">
        <ele>648.54638671875</ele>
        <time>2022-03-16T12:13:57Z</time>
      </trkpt>
      <trkpt lat="43.52654" lon="5.60093">
        <ele>648.54638671875</ele>
        <time>2022-03-16T12:14:21Z</time>
      </trkpt>
      <trkpt lat="43.52653" lon="5.6009">
        <ele>649.02709960938</ele>
        <time>2022-03-16T12:14:55Z</time>
      </trkpt>
      <trkpt lat="43.52655" lon="5.6009">
        <ele>649.02709960938</ele>
        <time>2022-03-16T12:15:07Z</time>
      </trkpt>
      <trkpt lat="43.52656" lon="5.6009">
        <ele>649.5078125</ele>
        <time>2022-03-16T12:15:58Z</time>
      </trkpt>
      <trkpt lat="43.52654" lon="5.60093">
        <ele>649.02709960938</ele>
        <time>2022-03-16T12:17:41Z</time>
      </trkpt>
      <trkpt lat="43.52652" lon="5.60093">
        <ele>649.5078125</ele>
        <time>2022-03-16T12:18:02Z</time>
      </trkpt>
      <trkpt lat="43.52653" lon="5.60097">
        <ele>649.5078125</ele>
        <time>2022-03-16T12:18:20Z</time>
      </trkpt>
      <trkpt lat="43.52656" lon="5.60104">
        <ele>649.5078125</ele>
        <time>2022-03-16T12:18:35Z</time>
      </trkpt>
      <trkpt lat="43.52655" lon="5.60103">
        <ele>649.5078125</ele>
        <time>2022-03-16T12:18:42Z</time>
      </trkpt>
      <trkpt lat="43.52649" lon="5.60096">
        <ele>649.02709960938</ele>
        <time>2022-03-16T12:19:01Z</time>
      </trkpt>
      <trkpt lat="43.52649" lon="5.60095">
        <ele>649.02709960938</ele>
        <time>2022-03-16T12:19:17Z</time>
      </trkpt>
      <trkpt lat="43.52649" lon="5.60095">
        <ele>649.02709960938</ele>
        <time>2022-03-16T12:19:39Z</time>
      </trkpt>
      <trkpt lat="43.52649" lon="5.60095">
        <ele>649.02709960938</ele>
        <time>2022-03-16T12:19:55Z</time>
      </trkpt>
      <trkpt lat="43.52649" lon="5.60095">
        <ele>649.5078125</ele>
        <time>2022-03-16T12:20:23Z</time>
      </trkpt>
      <trkpt lat="43.5265" lon="5.60095">
        <ele>649.5078125</ele>
        <time>2022-03-16T12:20:52Z</time>
      </trkpt>
      <trkpt lat="43.5265" lon="5.60092">
        <ele>649.5078125</ele>
        <time>2022-03-16T12:21:05Z</time>
      </trkpt>
      <trkpt lat="43.52651" lon="5.60093">
        <ele>649.98852539062</ele>
        <time>2022-03-16T12:21:44Z</time>
      </trkpt>
      <trkpt lat="43.52652" lon="5.60094">
        <ele>649.98852539062</ele>
        <time>2022-03-16T12:22:02Z</time>
      </trkpt>
      <trkpt lat="43.5265" lon="5.60092">
        <ele>649.5078125</ele>
        <time>2022-03-16T12:22:23Z</time>
      </trkpt>
      <trkpt lat="43.52643" lon="5.60084">
        <ele>649.5078125</ele>
        <time>2022-03-16T12:22:37Z</time>
      </trkpt>
      <trkpt lat="43.52634" lon="5.60076">
        <ele>649.5078125</ele>
        <time>2022-03-16T12:22:53Z</time>
      </trkpt>
      <trkpt lat="43.52632" lon="5.60073">
        <ele>649.02709960938</ele>
        <time>2022-03-16T12:23:08Z</time>
      </trkpt>
      <trkpt lat="43.5263" lon="5.60065">
        <ele>649.98852539062</ele>
        <time>2022-03-16T12:23:19Z</time>
      </trkpt>
      <trkpt lat="43.52627" lon="5.60059">
        <ele>649.02709960938</ele>
        <time>2022-03-16T12:23:33Z</time>
      </trkpt>
      <trkpt lat="43.52626" lon="5.60059">
        <ele>649.02709960938</ele>
        <time>2022-03-16T12:23:36Z</time>
      </trkpt>
      <trkpt lat="43.52623" lon="5.60055">
        <ele>648.06591796875</ele>
        <time>2022-03-16T12:23:49Z</time>
      </trkpt>
      <trkpt lat="43.52618" lon="5.6005">
        <ele>647.1044921875</ele>
        <time>2022-03-16T12:24:04Z</time>
      </trkpt>
      <trkpt lat="43.52618" lon="5.60047">
        <ele>646.6240234375</ele>
        <time>2022-03-16T12:24:25Z</time>
      </trkpt>
      <trkpt lat="43.52614" lon="5.6004">
        <ele>646.14331054688</ele>
        <time>2022-03-16T12:24:38Z</time>
      </trkpt>
      <trkpt lat="43.52612" lon="5.60039">
        <ele>646.14331054688</ele>
        <time>2022-03-16T12:24:45Z</time>
      </trkpt>
      <trkpt lat="43.52606" lon="5.60023">
        <ele>643.73999023438</ele>
        <time>2022-03-16T12:24:59Z</time>
      </trkpt>
      <trkpt lat="43.52603" lon="5.60016">
        <ele>642.77880859375</ele>
        <time>2022-03-16T12:25:06Z</time>
      </trkpt>
      <trkpt lat="43.52598" lon="5.60005">
        <ele>641.8173828125</ele>
        <time>2022-03-16T12:25:18Z</time>
      </trkpt>
      <trkpt lat="43.52595" lon="5.59997">
        <ele>640.85595703125</ele>
        <time>2022-03-16T12:25:33Z</time>
      </trkpt>
      <trkpt lat="43.52592" lon="5.59985">
        <ele>639.89477539062</ele>
        <time>2022-03-16T12:25:49Z</time>
      </trkpt>
      <trkpt lat="43.52592" lon="5.59988">
        <ele>640.37548828125</ele>
        <time>2022-03-16T12:26:11Z</time>
      </trkpt>
      <trkpt lat="43.52592" lon="5.59983">
        <ele>639.89477539062</ele>
        <time>2022-03-16T12:26:22Z</time>
      </trkpt>
      <trkpt lat="43.52591" lon="5.59975">
        <ele>639.4140625</ele>
        <time>2022-03-16T12:26:27Z</time>
      </trkpt>
      <trkpt lat="43.52593" lon="5.59967">
        <ele>637.49145507812</ele>
        <time>2022-03-16T12:26:40Z</time>
      </trkpt>
      <trkpt lat="43.52592" lon="5.59964">
        <ele>637.49145507812</ele>
        <time>2022-03-16T12:26:53Z</time>
      </trkpt>
      <trkpt lat="43.52591" lon="5.59962">
        <ele>637.0107421875</ele>
        <time>2022-03-16T12:26:55Z</time>
      </trkpt>
      <trkpt lat="43.52589" lon="5.5995">
        <ele>635.56860351562</ele>
        <time>2022-03-16T12:27:08Z</time>
      </trkpt>
      <trkpt lat="43.52588" lon="5.59949">
        <ele>634.607421875</ele>
        <time>2022-03-16T12:27:22Z</time>
      </trkpt>
      <trkpt lat="43.5259" lon="5.59966">
        <ele>636.5302734375</ele>
        <time>2022-03-16T12:27:31Z</time>
      </trkpt>
      <trkpt lat="43.52589" lon="5.59974">
        <ele>637.97216796875</ele>
        <time>2022-03-16T12:27:35Z</time>
      </trkpt>
      <trkpt lat="43.52589" lon="5.59978">
        <ele>639.4140625</ele>
        <time>2022-03-16T12:27:43Z</time>
      </trkpt>
      <trkpt lat="43.5259" lon="5.59967">
        <ele>637.97216796875</ele>
        <time>2022-03-16T12:27:50Z</time>
      </trkpt>
      <trkpt lat="43.52589" lon="5.59947">
        <ele>636.04956054688</ele>
        <time>2022-03-16T12:28:03Z</time>
      </trkpt>
      <trkpt lat="43.5259" lon="5.59938">
        <ele>634.607421875</ele>
        <time>2022-03-16T12:28:10Z</time>
      </trkpt>
      <trkpt lat="43.52589" lon="5.59935">
        <ele>633.64599609375</ele>
        <time>2022-03-16T12:28:13Z</time>
      </trkpt>
      <trkpt lat="43.52589" lon="5.59926">
        <ele>633.16528320312</ele>
        <time>2022-03-16T12:28:18Z</time>
      </trkpt>
      <trkpt lat="43.52582" lon="5.59904">
        <ele>629.80078125</ele>
        <time>2022-03-16T12:28:35Z</time>
      </trkpt>
      <trkpt lat="43.52574" lon="5.59889">
        <ele>627.39770507812</ele>
        <time>2022-03-16T12:28:43Z</time>
      </trkpt>
      <trkpt lat="43.52568" lon="5.59874">
        <ele>624.513671875</ele>
        <time>2022-03-16T12:28:50Z</time>
      </trkpt>
      <trkpt lat="43.52567" lon="5.59872">
        <ele>624.03295898438</ele>
        <time>2022-03-16T12:28:51Z</time>
      </trkpt>
      <trkpt lat="43.52566" lon="5.59855">
        <ele>621.62963867188</ele>
        <time>2022-03-16T12:29:03Z</time>
      </trkpt>
      <trkpt lat="43.52566" lon="5.59845">
        <ele>619.70703125</ele>
        <time>2022-03-16T12:29:16Z</time>
      </trkpt>
      <trkpt lat="43.52567" lon="5.59829">
        <ele>617.7841796875</ele>
        <time>2022-03-16T12:29:30Z</time>
      </trkpt>
      <trkpt lat="43.52564" lon="5.59827">
        <ele>615.86181640625</ele>
        <time>2022-03-16T12:29:37Z</time>
      </trkpt>
      <trkpt lat="43.52561" lon="5.5983">
        <ele>615.86181640625</ele>
        <time>2022-03-16T12:29:54Z</time>
      </trkpt>
      <trkpt lat="43.5256" lon="5.59823">
        <ele>614.41967773438</ele>
        <time>2022-03-16T12:30:33Z</time>
      </trkpt>
      <trkpt lat="43.52554" lon="5.59826">
        <ele>612.0166015625</ele>
        <time>2022-03-16T12:30:49Z</time>
      </trkpt>
      <trkpt lat="43.52544" lon="5.59836">
        <ele>609.13256835938</ele>
        <time>2022-03-16T12:31:05Z</time>
      </trkpt>
      <trkpt lat="43.52542" lon="5.59837">
        <ele>609.13256835938</ele>
        <time>2022-03-16T12:31:07Z</time>
      </trkpt>
      <trkpt lat="43.5254" lon="5.59839">
        <ele>608.17138671875</ele>
        <time>2022-03-16T12:31:09Z</time>
      </trkpt>
      <trkpt lat="43.52535" lon="5.59852">
        <ele>606.72924804688</ele>
        <time>2022-03-16T12:31:19Z</time>
      </trkpt>
      <trkpt lat="43.52529" lon="5.59875">
        <ele>604.326171875</ele>
        <time>2022-03-16T12:31:36Z</time>
      </trkpt>
      <trkpt lat="43.52526" lon="5.59885">
        <ele>603.84521484375</ele>
        <time>2022-03-16T12:31:44Z</time>
      </trkpt>
      <trkpt lat="43.52523" lon="5.59889">
        <ele>603.36450195312</ele>
        <time>2022-03-16T12:31:48Z</time>
      </trkpt>
      <trkpt lat="43.52527" lon="5.59909">
        <ele>599.51928710938</ele>
        <time>2022-03-16T12:32:07Z</time>
      </trkpt>
      <trkpt lat="43.52527" lon="5.59918">
        <ele>596.15478515625</ele>
        <time>2022-03-16T12:32:16Z</time>
      </trkpt>
      <trkpt lat="43.5253" lon="5.59929">
        <ele>594.23217773438</ele>
        <time>2022-03-16T12:32:32Z</time>
      </trkpt>
      <trkpt lat="43.52532" lon="5.59944">
        <ele>592.3095703125</ele>
        <time>2022-03-16T12:32:47Z</time>
      </trkpt>
      <trkpt lat="43.52533" lon="5.59964">
        <ele>590.86743164062</ele>
        <time>2022-03-16T12:33:03Z</time>
      </trkpt>
      <trkpt lat="43.52529" lon="5.59989">
        <ele>587.9833984375</ele>
        <time>2022-03-16T12:33:23Z</time>
      </trkpt>
      <trkpt lat="43.52529" lon="5.5999">
        <ele>587.9833984375</ele>
        <time>2022-03-16T12:33:24Z</time>
      </trkpt>
      <trkpt lat="43.52526" lon="5.60018">
        <ele>586.06079101562</ele>
        <time>2022-03-16T12:33:45Z</time>
      </trkpt>
      <trkpt lat="43.52528" lon="5.60029">
        <ele>584.61889648438</ele>
        <time>2022-03-16T12:33:55Z</time>
      </trkpt>
      <trkpt lat="43.52531" lon="5.60044">
        <ele>582.6962890625</ele>
        <time>2022-03-16T12:34:09Z</time>
      </trkpt>
      <trkpt lat="43.5253" lon="5.60051">
        <ele>581.25439453125</ele>
        <time>2022-03-16T12:34:16Z</time>
      </trkpt>
      <trkpt lat="43.52531" lon="5.60072">
        <ele>577.8896484375</ele>
        <time>2022-03-16T12:34:34Z</time>
      </trkpt>
      <trkpt lat="43.52532" lon="5.60074">
        <ele>577.4091796875</ele>
        <time>2022-03-16T12:34:37Z</time>
      </trkpt>
      <trkpt lat="43.52533" lon="5.60091">
        <ele>574.52514648438</ele>
        <time>2022-03-16T12:34:54Z</time>
      </trkpt>
      <trkpt lat="43.52528" lon="5.60106">
        <ele>572.12182617188</ele>
        <time>2022-03-16T12:35:12Z</time>
      </trkpt>
      <trkpt lat="43.52528" lon="5.6012">
        <ele>569.23779296875</ele>
        <time>2022-03-16T12:35:25Z</time>
      </trkpt>
      <trkpt lat="43.52527" lon="5.60139">
        <ele>566.83447265625</ele>
        <time>2022-03-16T12:35:44Z</time>
      </trkpt>
      <trkpt lat="43.52527" lon="5.60152">
        <ele>563.95043945312</ele>
        <time>2022-03-16T12:35:57Z</time>
      </trkpt>
      <trkpt lat="43.52519" lon="5.60161">
        <ele>561.06665039062</ele>
        <time>2022-03-16T12:36:13Z</time>
      </trkpt>
      <trkpt lat="43.52512" lon="5.60162">
        <ele>559.62475585938</ele>
        <time>2022-03-16T12:36:21Z</time>
      </trkpt>
      <trkpt lat="43.52496" lon="5.60167">
        <ele>557.22143554688</ele>
        <time>2022-03-16T12:36:43Z</time>
      </trkpt>
      <trkpt lat="43.52487" lon="5.60171">
        <ele>555.29858398438</ele>
        <time>2022-03-16T12:37:03Z</time>
      </trkpt>
      <trkpt lat="43.52487" lon="5.6017">
        <ele>555.779296875</ele>
        <time>2022-03-16T12:37:35Z</time>
      </trkpt>
      <trkpt lat="43.52487" lon="5.60169">
        <ele>555.29858398438</ele>
        <time>2022-03-16T12:38:02Z</time>
      </trkpt>
      <trkpt lat="43.52487" lon="5.60171">
        <ele>555.779296875</ele>
        <time>2022-03-16T12:38:26Z</time>
      </trkpt>
      <trkpt lat="43.52487" lon="5.60169">
        <ele>554.81787109375</ele>
        <time>2022-03-16T12:39:08Z</time>
      </trkpt>
      <trkpt lat="43.52487" lon="5.60172">
        <ele>555.779296875</ele>
        <time>2022-03-16T12:39:28Z</time>
      </trkpt>
      <trkpt lat="43.52488" lon="5.60171">
        <ele>554.81787109375</ele>
        <time>2022-03-16T12:39:59Z</time>
      </trkpt>
      <trkpt lat="43.52487" lon="5.60168">
        <ele>555.29858398438</ele>
        <time>2022-03-16T12:40:22Z</time>
      </trkpt>
      <trkpt lat="43.52485" lon="5.60157">
        <ele>552.89526367188</ele>
        <time>2022-03-16T12:40:35Z</time>
      </trkpt>
      <trkpt lat="43.52488" lon="5.60153">
        <ele>551.45336914062</ele>
        <time>2022-03-16T12:40:54Z</time>
      </trkpt>
      <trkpt lat="43.52483" lon="5.60146">
        <ele>549.05004882812</ele>
        <time>2022-03-16T12:41:07Z</time>
      </trkpt>
      <trkpt lat="43.52481" lon="5.60143">
        <ele>547.12744140625</ele>
        <time>2022-03-16T12:41:24Z</time>
      </trkpt>
      <trkpt lat="43.52481" lon="5.60139">
        <ele>545.20483398438</ele>
        <time>2022-03-16T12:41:41Z</time>
      </trkpt>
      <trkpt lat="43.52482" lon="5.60132">
        <ele>543.76281738281</ele>
        <time>2022-03-16T12:41:52Z</time>
      </trkpt>
      <trkpt lat="43.52483" lon="5.6013">
        <ele>543.28210449219</ele>
        <time>2022-03-16T12:42:13Z</time>
      </trkpt>
      <trkpt lat="43.52485" lon="5.60117">
        <ele>542.32092285156</ele>
        <time>2022-03-16T12:42:22Z</time>
      </trkpt>
      <trkpt lat="43.52485" lon="5.60109">
        <ele>539.91760253906</ele>
        <time>2022-03-16T12:42:37Z</time>
      </trkpt>
      <trkpt lat="43.52482" lon="5.60106">
        <ele>539.43688964844</ele>
        <time>2022-03-16T12:42:56Z</time>
      </trkpt>
      <trkpt lat="43.52478" lon="5.601">
        <ele>537.51428222656</ele>
        <time>2022-03-16T12:43:11Z</time>
      </trkpt>
      <trkpt lat="43.52477" lon="5.60098">
        <ele>537.51428222656</ele>
        <time>2022-03-16T12:43:19Z</time>
      </trkpt>
      <trkpt lat="43.5247" lon="5.60094">
        <ele>535.59155273438</ele>
        <time>2022-03-16T12:43:31Z</time>
      </trkpt>
      <trkpt lat="43.52465" lon="5.60095">
        <ele>535.11096191406</ele>
        <time>2022-03-16T12:43:40Z</time>
      </trkpt>
      <trkpt lat="43.52463" lon="5.60091">
        <ele>534.14965820312</ele>
        <time>2022-03-16T12:43:59Z</time>
      </trkpt>
      <trkpt lat="43.52462" lon="5.60087">
        <ele>533.6689453125</ele>
        <time>2022-03-16T12:44:19Z</time>
      </trkpt>
      <trkpt lat="43.52457" lon="5.60075">
        <ele>532.22705078125</ele>
        <time>2022-03-16T12:44:42Z</time>
      </trkpt>
      <trkpt lat="43.52455" lon="5.60063">
        <ele>530.78515625</ele>
        <time>2022-03-16T12:44:56Z</time>
      </trkpt>
      <trkpt lat="43.52453" lon="5.60057">
        <ele>529.34313964844</ele>
        <time>2022-03-16T12:45:01Z</time>
      </trkpt>
      <trkpt lat="43.5244" lon="5.60048">
        <ele>526.45910644531</ele>
        <time>2022-03-16T12:45:21Z</time>
      </trkpt>
      <trkpt lat="43.52432" lon="5.60048">
        <ele>525.01721191406</ele>
        <time>2022-03-16T12:45:33Z</time>
      </trkpt>
      <trkpt lat="43.52425" lon="5.60041">
        <ele>524.05578613281</ele>
        <time>2022-03-16T12:45:45Z</time>
      </trkpt>
      <trkpt lat="43.52423" lon="5.60029">
        <ele>522.13317871094</ele>
        <time>2022-03-16T12:45:59Z</time>
      </trkpt>
      <trkpt lat="43.52421" lon="5.60024">
        <ele>521.17199707031</ele>
        <time>2022-03-16T12:46:19Z</time>
      </trkpt>
      <trkpt lat="43.52421" lon="5.60024">
        <ele>520.69128417969</ele>
        <time>2022-03-16T12:46:49Z</time>
      </trkpt>
      <trkpt lat="43.52422" lon="5.60024">
        <ele>520.69128417969</ele>
        <time>2022-03-16T12:47:30Z</time>
      </trkpt>
      <trkpt lat="43.5242" lon="5.60013">
        <ele>519.24926757812</ele>
        <time>2022-03-16T12:47:43Z</time>
      </trkpt>
      <trkpt lat="43.52417" lon="5.60001">
        <ele>517.32666015625</ele>
        <time>2022-03-16T12:47:52Z</time>
      </trkpt>
      <trkpt lat="43.52413" lon="5.59996">
        <ele>516.365234375</ele>
        <time>2022-03-16T12:47:57Z</time>
      </trkpt>
      <trkpt lat="43.5241" lon="5.5999">
        <ele>515.88464355469</ele>
        <time>2022-03-16T12:48:01Z</time>
      </trkpt>
      <trkpt lat="43.52414" lon="5.5996">
        <ele>514.92333984375</ele>
        <time>2022-03-16T12:48:22Z</time>
      </trkpt>
      <trkpt lat="43.52417" lon="5.59942">
        <ele>516.365234375</ele>
        <time>2022-03-16T12:48:39Z</time>
      </trkpt>
      <trkpt lat="43.52417" lon="5.59942">
        <ele>515.88464355469</ele>
        <time>2022-03-16T12:48:44Z</time>
      </trkpt>
      <trkpt lat="43.52418" lon="5.5994">
        <ele>516.365234375</ele>
        <time>2022-03-16T12:48:50Z</time>
      </trkpt>
      <trkpt lat="43.52417" lon="5.59921">
        <ele>515.88464355469</ele>
        <time>2022-03-16T12:49:06Z</time>
      </trkpt>
      <trkpt lat="43.52417" lon="5.59915">
        <ele>516.365234375</ele>
        <time>2022-03-16T12:49:11Z</time>
      </trkpt>
      <trkpt lat="43.52415" lon="5.59904">
        <ele>516.84594726562</ele>
        <time>2022-03-16T12:49:22Z</time>
      </trkpt>
      <trkpt lat="43.52415" lon="5.59886">
        <ele>518.28784179688</ele>
        <time>2022-03-16T12:49:38Z</time>
      </trkpt>
      <trkpt lat="43.52415" lon="5.59878">
        <ele>518.28784179688</ele>
        <time>2022-03-16T12:49:44Z</time>
      </trkpt>
      <trkpt lat="43.5242" lon="5.59866">
        <ele>518.28784179688</ele>
        <time>2022-03-16T12:49:55Z</time>
      </trkpt>
      <trkpt lat="43.52421" lon="5.59862">
        <ele>518.28784179688</ele>
        <time>2022-03-16T12:49:58Z</time>
      </trkpt>
      <trkpt lat="43.52421" lon="5.59852">
        <ele>518.7685546875</ele>
        <time>2022-03-16T12:50:05Z</time>
      </trkpt>
      <trkpt lat="43.52421" lon="5.5985">
        <ele>518.7685546875</ele>
        <time>2022-03-16T12:50:07Z</time>
      </trkpt>
      <trkpt lat="43.52421" lon="5.59842">
        <ele>518.28784179688</ele>
        <time>2022-03-16T12:50:12Z</time>
      </trkpt>
      <trkpt lat="43.52422" lon="5.59838">
        <ele>518.7685546875</ele>
        <time>2022-03-16T12:50:15Z</time>
      </trkpt>
      <trkpt lat="43.52424" lon="5.59829">
        <ele>518.7685546875</ele>
        <time>2022-03-16T12:50:33Z</time>
      </trkpt>
      <trkpt lat="43.52427" lon="5.59829">
        <ele>519.24926757812</ele>
        <time>2022-03-16T12:50:51Z</time>
      </trkpt>
      <trkpt lat="43.52427" lon="5.59821">
        <ele>518.7685546875</ele>
        <time>2022-03-16T12:51:31Z</time>
      </trkpt>
      <trkpt lat="43.52427" lon="5.59811">
        <ele>519.24926757812</ele>
        <time>2022-03-16T12:51:38Z</time>
      </trkpt>
      <trkpt lat="43.52427" lon="5.59805">
        <ele>519.24926757812</ele>
        <time>2022-03-16T12:51:42Z</time>
      </trkpt>
      <trkpt lat="43.52427" lon="5.59802">
        <ele>519.72985839844</ele>
        <time>2022-03-16T12:51:44Z</time>
      </trkpt>
      <trkpt lat="43.52428" lon="5.59797">
        <ele>519.72985839844</ele>
        <time>2022-03-16T12:51:47Z</time>
      </trkpt>
      <trkpt lat="43.52428" lon="5.59794">
        <ele>520.21057128906</ele>
        <time>2022-03-16T12:51:50Z</time>
      </trkpt>
      <trkpt lat="43.52425" lon="5.59778">
        <ele>521.65258789062</ele>
        <time>2022-03-16T12:52:02Z</time>
      </trkpt>
      <trkpt lat="43.52427" lon="5.5977">
        <ele>523.5751953125</ele>
        <time>2022-03-16T12:52:15Z</time>
      </trkpt>
      <trkpt lat="43.52427" lon="5.59767">
        <ele>523.5751953125</ele>
        <time>2022-03-16T12:52:17Z</time>
      </trkpt>
      <trkpt lat="43.52428" lon="5.59761">
        <ele>524.53649902344</ele>
        <time>2022-03-16T12:52:22Z</time>
      </trkpt>
      <trkpt lat="43.52427" lon="5.59758">
        <ele>525.01721191406</ele>
        <time>2022-03-16T12:52:25Z</time>
      </trkpt>
      <trkpt lat="43.52425" lon="5.59753">
        <ele>525.49780273438</ele>
        <time>2022-03-16T12:52:28Z</time>
      </trkpt>
      <trkpt lat="43.52425" lon="5.59736">
        <ele>525.97839355469</ele>
        <time>2022-03-16T12:52:48Z</time>
      </trkpt>
      <trkpt lat="43.52426" lon="5.59736">
        <ele>525.49780273438</ele>
        <time>2022-03-16T12:53:11Z</time>
      </trkpt>
      <trkpt lat="43.52428" lon="5.59738">
        <ele>525.49780273438</ele>
        <time>2022-03-16T12:53:50Z</time>
      </trkpt>
      <trkpt lat="43.52428" lon="5.59739">
        <ele>525.97839355469</ele>
        <time>2022-03-16T12:54:05Z</time>
      </trkpt>
      <trkpt lat="43.52429" lon="5.59737">
        <ele>525.49780273438</ele>
        <time>2022-03-16T12:54:15Z</time>
      </trkpt>
      <trkpt lat="43.52428" lon="5.59739">
        <ele>525.97839355469</ele>
        <time>2022-03-16T12:54:25Z</time>
      </trkpt>
      <trkpt lat="43.52428" lon="5.59739">
        <ele>525.49780273438</ele>
        <time>2022-03-16T12:54:41Z</time>
      </trkpt>
      <trkpt lat="43.52429" lon="5.59734">
        <ele>525.49780273438</ele>
        <time>2022-03-16T12:54:47Z</time>
      </trkpt>
      <trkpt lat="43.52428" lon="5.59721">
        <ele>523.5751953125</ele>
        <time>2022-03-16T12:54:59Z</time>
      </trkpt>
      <trkpt lat="43.5243" lon="5.59715">
        <ele>523.09460449219</ele>
        <time>2022-03-16T12:55:14Z</time>
      </trkpt>
      <trkpt lat="43.52431" lon="5.5971">
        <ele>522.13317871094</ele>
        <time>2022-03-16T12:55:19Z</time>
      </trkpt>
      <trkpt lat="43.52438" lon="5.59694">
        <ele>519.24926757812</ele>
        <time>2022-03-16T12:55:35Z</time>
      </trkpt>
      <trkpt lat="43.52441" lon="5.59689">
        <ele>517.32666015625</ele>
        <time>2022-03-16T12:55:58Z</time>
      </trkpt>
      <trkpt lat="43.52447" lon="5.59679">
        <ele>514.92333984375</ele>
        <time>2022-03-16T12:56:10Z</time>
      </trkpt>
      <trkpt lat="43.52452" lon="5.59673">
        <ele>513.4814453125</ele>
        <time>2022-03-16T12:56:32Z</time>
      </trkpt>
      <trkpt lat="43.52457" lon="5.59659">
        <ele>509.63610839844</ele>
        <time>2022-03-16T12:56:50Z</time>
      </trkpt>
      <trkpt lat="43.52458" lon="5.59655">
        <ele>508.67468261719</ele>
        <time>2022-03-16T12:57:12Z</time>
      </trkpt>
      <trkpt lat="43.52458" lon="5.5965">
        <ele>507.71350097656</ele>
        <time>2022-03-16T12:57:27Z</time>
      </trkpt>
      <trkpt lat="43.52454" lon="5.59646">
        <ele>506.75207519531</ele>
        <time>2022-03-16T12:57:46Z</time>
      </trkpt>
      <trkpt lat="43.52443" lon="5.59641">
        <ele>503.8681640625</ele>
        <time>2022-03-16T12:58:04Z</time>
      </trkpt>
      <trkpt lat="43.52438" lon="5.59627">
        <ele>501.46484375</ele>
        <time>2022-03-16T12:58:23Z</time>
      </trkpt>
      <trkpt lat="43.52437" lon="5.5962">
        <ele>500.98413085938</ele>
        <time>2022-03-16T12:58:44Z</time>
      </trkpt>
      <trkpt lat="43.52437" lon="5.59608">
        <ele>498.10034179688</ele>
        <time>2022-03-16T12:58:57Z</time>
      </trkpt>
      <trkpt lat="43.5244" lon="5.59601">
        <ele>496.65832519531</ele>
        <time>2022-03-16T12:59:14Z</time>
      </trkpt>
      <trkpt lat="43.52442" lon="5.5959">
        <ele>496.177734375</ele>
        <time>2022-03-16T12:59:31Z</time>
      </trkpt>
      <trkpt lat="43.52447" lon="5.59589">
        <ele>495.21618652344</ele>
        <time>2022-03-16T12:59:47Z</time>
      </trkpt>
      <trkpt lat="43.52457" lon="5.59583">
        <ele>495.69689941406</ele>
        <time>2022-03-16T13:00:35Z</time>
      </trkpt>
      <trkpt lat="43.52465" lon="5.59579">
        <ele>495.69689941406</ele>
        <time>2022-03-16T13:00:45Z</time>
      </trkpt>
      <trkpt lat="43.52467" lon="5.59567">
        <ele>494.25500488281</ele>
        <time>2022-03-16T13:00:57Z</time>
      </trkpt>
      <trkpt lat="43.52464" lon="5.59554">
        <ele>494.25500488281</ele>
        <time>2022-03-16T13:01:05Z</time>
      </trkpt>
      <trkpt lat="43.52458" lon="5.59529">
        <ele>494.73559570312</ele>
        <time>2022-03-16T13:01:22Z</time>
      </trkpt>
      <trkpt lat="43.52453" lon="5.59499">
        <ele>497.61962890625</ele>
        <time>2022-03-16T13:01:42Z</time>
      </trkpt>
      <trkpt lat="43.5245" lon="5.59478">
        <ele>500.50354003906</ele>
        <time>2022-03-16T13:01:59Z</time>
      </trkpt>
      <trkpt lat="43.52448" lon="5.59467">
        <ele>500.98413085938</ele>
        <time>2022-03-16T13:02:06Z</time>
      </trkpt>
      <trkpt lat="43.52451" lon="5.59443">
        <ele>500.98413085938</ele>
        <time>2022-03-16T13:02:23Z</time>
      </trkpt>
      <trkpt lat="43.52452" lon="5.5943">
        <ele>500.50354003906</ele>
        <time>2022-03-16T13:02:38Z</time>
      </trkpt>
      <trkpt lat="43.52456" lon="5.59412">
        <ele>500.02294921875</ele>
        <time>2022-03-16T13:02:54Z</time>
      </trkpt>
      <trkpt lat="43.52461" lon="5.59391">
        <ele>497.61962890625</ele>
        <time>2022-03-16T13:03:14Z</time>
      </trkpt>
      <trkpt lat="43.52461" lon="5.5939">
        <ele>497.61962890625</ele>
        <time>2022-03-16T13:03:15Z</time>
      </trkpt>
      <trkpt lat="43.52463" lon="5.5938">
        <ele>495.69689941406</ele>
        <time>2022-03-16T13:03:28Z</time>
      </trkpt>
      <trkpt lat="43.52469" lon="5.59367">
        <ele>493.77429199219</ele>
        <time>2022-03-16T13:03:42Z</time>
      </trkpt>
      <trkpt lat="43.52469" lon="5.59366">
        <ele>493.77429199219</ele>
        <time>2022-03-16T13:03:48Z</time>
      </trkpt>
      <trkpt lat="43.52479" lon="5.59341">
        <ele>490.89038085938</ele>
        <time>2022-03-16T13:04:07Z</time>
      </trkpt>
      <trkpt lat="43.52469" lon="5.59317">
        <ele>490.89038085938</ele>
        <time>2022-03-16T13:04:30Z</time>
      </trkpt>
      <trkpt lat="43.52463" lon="5.59298">
        <ele>492.33239746094</ele>
        <time>2022-03-16T13:04:44Z</time>
      </trkpt>
      <trkpt lat="43.52463" lon="5.59293">
        <ele>492.81298828125</ele>
        <time>2022-03-16T13:04:47Z</time>
      </trkpt>
      <trkpt lat="43.52468" lon="5.5929">
        <ele>493.77429199219</ele>
        <time>2022-03-16T13:05:06Z</time>
      </trkpt>
      <trkpt lat="43.52478" lon="5.59278">
        <ele>497.13891601562</ele>
        <time>2022-03-16T13:05:30Z</time>
      </trkpt>
      <trkpt lat="43.52486" lon="5.59277">
        <ele>499.54223632812</ele>
        <time>2022-03-16T13:05:48Z</time>
      </trkpt>
      <trkpt lat="43.52493" lon="5.59272">
        <ele>502.42614746094</ele>
        <time>2022-03-16T13:06:07Z</time>
      </trkpt>
      <trkpt lat="43.52501" lon="5.59265">
        <ele>505.79089355469</ele>
        <time>2022-03-16T13:06:26Z</time>
      </trkpt>
      <trkpt lat="43.52504" lon="5.59252">
        <ele>509.15539550781</ele>
        <time>2022-03-16T13:06:47Z</time>
      </trkpt>
      <trkpt lat="43.52509" lon="5.59231">
        <ele>512.52001953125</ele>
        <time>2022-03-16T13:07:15Z</time>
      </trkpt>
      <trkpt lat="43.52514" lon="5.59216">
        <ele>515.40405273438</ele>
        <time>2022-03-16T13:07:38Z</time>
      </trkpt>
      <trkpt lat="43.52517" lon="5.59206">
        <ele>516.365234375</ele>
        <time>2022-03-16T13:07:54Z</time>
      </trkpt>
      <trkpt lat="43.52522" lon="5.59191">
        <ele>517.32666015625</ele>
        <time>2022-03-16T13:08:11Z</time>
      </trkpt>
      <trkpt lat="43.52523" lon="5.59178">
        <ele>518.28784179688</ele>
        <time>2022-03-16T13:08:23Z</time>
      </trkpt>
      <trkpt lat="43.52523" lon="5.59166">
        <ele>519.24926757812</ele>
        <time>2022-03-16T13:08:39Z</time>
      </trkpt>
      <trkpt lat="43.52524" lon="5.59148">
        <ele>521.17199707031</ele>
        <time>2022-03-16T13:08:59Z</time>
      </trkpt>
      <trkpt lat="43.52526" lon="5.59138">
        <ele>522.13317871094</ele>
        <time>2022-03-16T13:09:14Z</time>
      </trkpt>
      <trkpt lat="43.52526" lon="5.59128">
        <ele>523.09460449219</ele>
        <time>2022-03-16T13:09:27Z</time>
      </trkpt>
      <trkpt lat="43.52522" lon="5.59115">
        <ele>524.53649902344</ele>
        <time>2022-03-16T13:09:43Z</time>
      </trkpt>
      <trkpt lat="43.52519" lon="5.59113">
        <ele>524.53649902344</ele>
        <time>2022-03-16T13:09:46Z</time>
      </trkpt>
      <trkpt lat="43.52517" lon="5.59112">
        <ele>524.53649902344</ele>
        <time>2022-03-16T13:09:48Z</time>
      </trkpt>
      <trkpt lat="43.52517" lon="5.5911">
        <ele>524.05578613281</ele>
        <time>2022-03-16T13:10:02Z</time>
      </trkpt>
      <trkpt lat="43.52518" lon="5.59114">
        <ele>524.05578613281</ele>
        <time>2022-03-16T13:10:16Z</time>
      </trkpt>
      <trkpt lat="43.52518" lon="5.59114">
        <ele>523.5751953125</ele>
        <time>2022-03-16T13:10:59Z</time>
      </trkpt>
      <trkpt lat="43.52517" lon="5.59115">
        <ele>524.05578613281</ele>
        <time>2022-03-16T13:11:21Z</time>
      </trkpt>
      <trkpt lat="43.52517" lon="5.59115">
        <ele>524.05578613281</ele>
        <time>2022-03-16T13:11:47Z</time>
      </trkpt>
      <trkpt lat="43.52517" lon="5.59115">
        <ele>524.05578613281</ele>
        <time>2022-03-16T13:12:11Z</time>
      </trkpt>
      <trkpt lat="43.52517" lon="5.59115">
        <ele>523.5751953125</ele>
        <time>2022-03-16T13:12:40Z</time>
      </trkpt>
      <trkpt lat="43.52517" lon="5.59114">
        <ele>524.05578613281</ele>
        <time>2022-03-16T13:13:10Z</time>
      </trkpt>
      <trkpt lat="43.52518" lon="5.59112">
        <ele>523.5751953125</ele>
        <time>2022-03-16T13:13:24Z</time>
      </trkpt>
      <trkpt lat="43.52518" lon="5.59113">
        <ele>523.5751953125</ele>
        <time>2022-03-16T13:13:46Z</time>
      </trkpt>
      <trkpt lat="43.52516" lon="5.59112">
        <ele>524.05578613281</ele>
        <time>2022-03-16T13:14:07Z</time>
      </trkpt>
      <trkpt lat="43.52517" lon="5.59113">
        <ele>524.05578613281</ele>
        <time>2022-03-16T13:14:37Z</time>
      </trkpt>
      <trkpt lat="43.52518" lon="5.5911">
        <ele>524.05578613281</ele>
        <time>2022-03-16T13:15:51Z</time>
      </trkpt>
      <trkpt lat="43.5252" lon="5.59097">
        <ele>522.61389160156</ele>
        <time>2022-03-16T13:16:04Z</time>
      </trkpt>
      <trkpt lat="43.52524" lon="5.59088">
        <ele>521.65258789062</ele>
        <time>2022-03-16T13:16:11Z</time>
      </trkpt>
      <trkpt lat="43.52529" lon="5.59081">
        <ele>520.69128417969</ele>
        <time>2022-03-16T13:16:19Z</time>
      </trkpt>
      <trkpt lat="43.52535" lon="5.59051">
        <ele>521.65258789062</ele>
        <time>2022-03-16T13:16:42Z</time>
      </trkpt>
      <trkpt lat="43.5254" lon="5.59025">
        <ele>524.05578613281</ele>
        <time>2022-03-16T13:17:04Z</time>
      </trkpt>
      <trkpt lat="43.52542" lon="5.59013">
        <ele>526.93981933594</ele>
        <time>2022-03-16T13:17:18Z</time>
      </trkpt>
      <trkpt lat="43.52548" lon="5.58999">
        <ele>528.3818359375</ele>
        <time>2022-03-16T13:17:29Z</time>
      </trkpt>
      <trkpt lat="43.52555" lon="5.58984">
        <ele>528.86254882812</ele>
        <time>2022-03-16T13:17:45Z</time>
      </trkpt>
      <trkpt lat="43.52561" lon="5.58971">
        <ele>526.45910644531</ele>
        <time>2022-03-16T13:18:00Z</time>
      </trkpt>
      <trkpt lat="43.52567" lon="5.58953">
        <ele>525.01721191406</ele>
        <time>2022-03-16T13:18:19Z</time>
      </trkpt>
      <trkpt lat="43.5257" lon="5.58937">
        <ele>524.05578613281</ele>
        <time>2022-03-16T13:18:34Z</time>
      </trkpt>
      <trkpt lat="43.52571" lon="5.58932">
        <ele>523.09460449219</ele>
        <time>2022-03-16T13:18:48Z</time>
      </trkpt>
      <trkpt lat="43.52569" lon="5.58933">
        <ele>522.61389160156</ele>
        <time>2022-03-16T13:19:12Z</time>
      </trkpt>
      <trkpt lat="43.52569" lon="5.58929">
        <ele>522.61389160156</ele>
        <time>2022-03-16T13:19:41Z</time>
      </trkpt>
      <trkpt lat="43.52569" lon="5.58923">
        <ele>522.13317871094</ele>
        <time>2022-03-16T13:19:47Z</time>
      </trkpt>
      <trkpt lat="43.52573" lon="5.58907">
        <ele>520.69128417969</ele>
        <time>2022-03-16T13:20:01Z</time>
      </trkpt>
      <trkpt lat="43.52576" lon="5.58891">
        <ele>520.21057128906</ele>
        <time>2022-03-16T13:20:16Z</time>
      </trkpt>
      <trkpt lat="43.52578" lon="5.58884">
        <ele>519.72985839844</ele>
        <time>2022-03-16T13:20:29Z</time>
      </trkpt>
      <trkpt lat="43.52579" lon="5.58877">
        <ele>519.24926757812</ele>
        <time>2022-03-16T13:20:40Z</time>
      </trkpt>
      <trkpt lat="43.52581" lon="5.58864">
        <ele>518.28784179688</ele>
        <time>2022-03-16T13:20:51Z</time>
      </trkpt>
      <trkpt lat="43.5258" lon="5.58843">
        <ele>517.32666015625</ele>
        <time>2022-03-16T13:21:05Z</time>
      </trkpt>
      <trkpt lat="43.52577" lon="5.58819">
        <ele>516.84594726562</ele>
        <time>2022-03-16T13:21:23Z</time>
      </trkpt>
      <trkpt lat="43.52574" lon="5.5881">
        <ele>516.365234375</ele>
        <time>2022-03-16T13:21:31Z</time>
      </trkpt>
      <trkpt lat="43.52576" lon="5.58799">
        <ele>518.28784179688</ele>
        <time>2022-03-16T13:21:44Z</time>
      </trkpt>
      <trkpt lat="43.52576" lon="5.58785">
        <ele>520.69128417969</ele>
        <time>2022-03-16T13:21:56Z</time>
      </trkpt>
      <trkpt lat="43.52581" lon="5.58772">
        <ele>523.09460449219</ele>
        <time>2022-03-16T13:22:10Z</time>
      </trkpt>
      <trkpt lat="43.52584" lon="5.58758">
        <ele>525.01721191406</ele>
        <time>2022-03-16T13:22:24Z</time>
      </trkpt>
      <trkpt lat="43.52586" lon="5.58754">
        <ele>525.97839355469</ele>
        <time>2022-03-16T13:22:29Z</time>
      </trkpt>
      <trkpt lat="43.52591" lon="5.58751">
        <ele>526.45910644531</ele>
        <time>2022-03-16T13:22:44Z</time>
      </trkpt>
      <trkpt lat="43.5259" lon="5.58751">
        <ele>525.97839355469</ele>
        <time>2022-03-16T13:23:16Z</time>
      </trkpt>
      <trkpt lat="43.52599" lon="5.58745">
        <ele>526.93981933594</ele>
        <time>2022-03-16T13:24:58Z</time>
      </trkpt>
      <trkpt lat="43.52607" lon="5.58732">
        <ele>528.86254882812</ele>
        <time>2022-03-16T13:25:15Z</time>
      </trkpt>
      <trkpt lat="43.52612" lon="5.58724">
        <ele>530.30444335938</ele>
        <time>2022-03-16T13:25:30Z</time>
      </trkpt>
      <trkpt lat="43.52616" lon="5.58721">
        <ele>531.26574707031</ele>
        <time>2022-03-16T13:25:43Z</time>
      </trkpt>
      <trkpt lat="43.5262" lon="5.58721">
        <ele>532.22705078125</ele>
        <time>2022-03-16T13:26:01Z</time>
      </trkpt>
      <trkpt lat="43.52631" lon="5.58723">
        <ele>535.59155273438</ele>
        <time>2022-03-16T13:26:18Z</time>
      </trkpt>
      <trkpt lat="43.5263" lon="5.5872">
        <ele>536.07238769531</ele>
        <time>2022-03-16T13:26:23Z</time>
      </trkpt>
      <trkpt lat="43.52632" lon="5.58711">
        <ele>537.99499511719</ele>
        <time>2022-03-16T13:26:37Z</time>
      </trkpt>
      <trkpt lat="43.52631" lon="5.58711">
        <ele>539.43688964844</ele>
        <time>2022-03-16T13:26:40Z</time>
      </trkpt>
      <trkpt lat="43.52633" lon="5.58708">
        <ele>539.43688964844</ele>
        <time>2022-03-16T13:27:21Z</time>
      </trkpt>
      <trkpt lat="43.52631" lon="5.58703">
        <ele>540.39831542969</ele>
        <time>2022-03-16T13:28:27Z</time>
      </trkpt>
      <trkpt lat="43.5263" lon="5.587">
        <ele>540.87890625</ele>
        <time>2022-03-16T13:28:41Z</time>
      </trkpt>
      <trkpt lat="43.5263" lon="5.58702">
        <ele>540.87890625</ele>
        <time>2022-03-16T13:29:09Z</time>
      </trkpt>
      <trkpt lat="43.52629" lon="5.58697">
        <ele>541.35949707031</ele>
        <time>2022-03-16T13:29:35Z</time>
      </trkpt>
      <trkpt lat="43.52628" lon="5.58684">
        <ele>543.76281738281</ele>
        <time>2022-03-16T13:29:50Z</time>
      </trkpt>
      <trkpt lat="43.52626" lon="5.58674">
        <ele>545.685546875</ele>
        <time>2022-03-16T13:30:05Z</time>
      </trkpt>
      <trkpt lat="43.52626" lon="5.58666">
        <ele>548.5693359375</ele>
        <time>2022-03-16T13:30:17Z</time>
      </trkpt>
      <trkpt lat="43.52629" lon="5.58653">
        <ele>550.97265625</ele>
        <time>2022-03-16T13:30:36Z</time>
      </trkpt>
      <trkpt lat="43.52629" lon="5.58646">
        <ele>552.41455078125</ele>
        <time>2022-03-16T13:30:44Z</time>
      </trkpt>
      <trkpt lat="43.52627" lon="5.58638">
        <ele>553.85668945312</ele>
        <time>2022-03-16T13:31:03Z</time>
      </trkpt>
      <trkpt lat="43.52624" lon="5.58623">
        <ele>557.22143554688</ele>
        <time>2022-03-16T13:31:27Z</time>
      </trkpt>
      <trkpt lat="43.52616" lon="5.58618">
        <ele>559.14404296875</ele>
        <time>2022-03-16T13:31:51Z</time>
      </trkpt>
      <trkpt lat="43.52613" lon="5.58612">
        <ele>560.10522460938</ele>
        <time>2022-03-16T13:32:07Z</time>
      </trkpt>
      <trkpt lat="43.5261" lon="5.58604">
        <ele>562.02807617188</ele>
        <time>2022-03-16T13:32:20Z</time>
      </trkpt>
      <trkpt lat="43.52607" lon="5.58592">
        <ele>564.43115234375</ele>
        <time>2022-03-16T13:32:35Z</time>
      </trkpt>
      <trkpt lat="43.52604" lon="5.58583">
        <ele>565.87329101562</ele>
        <time>2022-03-16T13:32:46Z</time>
      </trkpt>
      <trkpt lat="43.52601" lon="5.58577">
        <ele>567.79565429688</ele>
        <time>2022-03-16T13:33:01Z</time>
      </trkpt>
      <trkpt lat="43.52599" lon="5.58569">
        <ele>569.23779296875</ele>
        <time>2022-03-16T13:33:19Z</time>
      </trkpt>
      <trkpt lat="43.52599" lon="5.58568">
        <ele>569.71850585938</ele>
        <time>2022-03-16T13:33:38Z</time>
      </trkpt>
      <trkpt lat="43.52598" lon="5.58552">
        <ele>570.6796875</ele>
        <time>2022-03-16T13:33:57Z</time>
      </trkpt>
      <trkpt lat="43.52595" lon="5.58535">
        <ele>574.04443359375</ele>
        <time>2022-03-16T13:34:16Z</time>
      </trkpt>
      <trkpt lat="43.52598" lon="5.58519">
        <ele>575.96704101562</ele>
        <time>2022-03-16T13:34:35Z</time>
      </trkpt>
      <trkpt lat="43.52594" lon="5.585">
        <ele>578.37036132812</ele>
        <time>2022-03-16T13:34:59Z</time>
      </trkpt>
      <trkpt lat="43.52594" lon="5.58492">
        <ele>580.29296875</ele>
        <time>2022-03-16T13:35:20Z</time>
      </trkpt>
      <trkpt lat="43.52593" lon="5.5849">
        <ele>580.29296875</ele>
        <time>2022-03-16T13:35:49Z</time>
      </trkpt>
      <trkpt lat="43.52592" lon="5.58489">
        <ele>580.29296875</ele>
        <time>2022-03-16T13:35:59Z</time>
      </trkpt>
      <trkpt lat="43.52565" lon="5.585">
        <ele>578.37036132812</ele>
        <time>2022-03-16T13:36:13Z</time>
      </trkpt>
      <trkpt lat="43.52557" lon="5.5851">
        <ele>579.81225585938</ele>
        <time>2022-03-16T13:36:18Z</time>
      </trkpt>
      <trkpt lat="43.52545" lon="5.58504">
        <ele>582.6962890625</ele>
        <time>2022-03-16T13:36:29Z</time>
      </trkpt>
      <trkpt lat="43.52547" lon="5.58503">
        <ele>583.1767578125</ele>
        <time>2022-03-16T13:36:49Z</time>
      </trkpt>
      <trkpt lat="43.52546" lon="5.58504">
        <ele>582.21557617188</ele>
        <time>2022-03-16T13:37:31Z</time>
      </trkpt>
      <trkpt lat="43.52551" lon="5.58505">
        <ele>581.73486328125</ele>
        <time>2022-03-16T13:37:49Z</time>
      </trkpt>
      <trkpt lat="43.52549" lon="5.58505">
        <ele>581.25439453125</ele>
        <time>2022-03-16T13:38:05Z</time>
      </trkpt>
      <trkpt lat="43.52549" lon="5.58506">
        <ele>581.25439453125</ele>
        <time>2022-03-16T13:38:43Z</time>
      </trkpt>
      <trkpt lat="43.52547" lon="5.58506">
        <ele>581.25439453125</ele>
        <time>2022-03-16T13:38:59Z</time>
      </trkpt>
      <trkpt lat="43.52548" lon="5.58506">
        <ele>581.73486328125</ele>
        <time>2022-03-16T13:39:45Z</time>
      </trkpt>
      <trkpt lat="43.52554" lon="5.58498">
        <ele>580.77368164062</ele>
        <time>2022-03-16T13:40:00Z</time>
      </trkpt>
      <trkpt lat="43.52556" lon="5.58495">
        <ele>580.77368164062</ele>
        <time>2022-03-16T13:40:13Z</time>
      </trkpt>
      <trkpt lat="43.52556" lon="5.58493">
        <ele>580.77368164062</ele>
        <time>2022-03-16T13:40:15Z</time>
      </trkpt>
      <trkpt lat="43.52562" lon="5.58474">
        <ele>581.25439453125</ele>
        <time>2022-03-16T13:40:30Z</time>
      </trkpt>
      <trkpt lat="43.52575" lon="5.58467">
        <ele>581.73486328125</ele>
        <time>2022-03-16T13:40:45Z</time>
      </trkpt>
      <trkpt lat="43.52577" lon="5.58468">
        <ele>581.73486328125</ele>
        <time>2022-03-16T13:40:48Z</time>
      </trkpt>
      <trkpt lat="43.52593" lon="5.58468">
        <ele>581.73486328125</ele>
        <time>2022-03-16T13:41:05Z</time>
      </trkpt>
      <trkpt lat="43.52597" lon="5.58471">
        <ele>581.73486328125</ele>
        <time>2022-03-16T13:41:21Z</time>
      </trkpt>
      <trkpt lat="43.52597" lon="5.58468">
        <ele>581.73486328125</ele>
        <time>2022-03-16T13:41:51Z</time>
      </trkpt>
      <trkpt lat="43.52597" lon="5.58468">
        <ele>581.73486328125</ele>
        <time>2022-03-16T13:42:25Z</time>
      </trkpt>
      <trkpt lat="43.52598" lon="5.58467">
        <ele>581.25439453125</ele>
        <time>2022-03-16T13:43:10Z</time>
      </trkpt>
      <trkpt lat="43.52598" lon="5.58464">
        <ele>581.25439453125</ele>
        <time>2022-03-16T13:43:12Z</time>
      </trkpt>
      <trkpt lat="43.526" lon="5.58453">
        <ele>581.25439453125</ele>
        <time>2022-03-16T13:43:24Z</time>
      </trkpt>
      <trkpt lat="43.52605" lon="5.58441">
        <ele>580.29296875</ele>
        <time>2022-03-16T13:43:34Z</time>
      </trkpt>
      <trkpt lat="43.52607" lon="5.58438">
        <ele>580.29296875</ele>
        <time>2022-03-16T13:43:38Z</time>
      </trkpt>
      <trkpt lat="43.52611" lon="5.58429">
        <ele>578.37036132812</ele>
        <time>2022-03-16T13:43:51Z</time>
      </trkpt>
      <trkpt lat="43.5261" lon="5.58428">
        <ele>578.37036132812</ele>
        <time>2022-03-16T13:43:52Z</time>
      </trkpt>
      <trkpt lat="43.52608" lon="5.58419">
        <ele>576.44775390625</ele>
        <time>2022-03-16T13:44:02Z</time>
      </trkpt>
      <trkpt lat="43.52608" lon="5.58418">
        <ele>575.96704101562</ele>
        <time>2022-03-16T13:44:03Z</time>
      </trkpt>
      <trkpt lat="43.52607" lon="5.58414">
        <ele>575.486328125</ele>
        <time>2022-03-16T13:44:06Z</time>
      </trkpt>
      <trkpt lat="43.52605" lon="5.58411">
        <ele>574.52514648438</ele>
        <time>2022-03-16T13:44:09Z</time>
      </trkpt>
      <trkpt lat="43.52602" lon="5.58401">
        <ele>571.64086914062</ele>
        <time>2022-03-16T13:44:22Z</time>
      </trkpt>
      <trkpt lat="43.52597" lon="5.58387">
        <ele>569.23779296875</ele>
        <time>2022-03-16T13:44:37Z</time>
      </trkpt>
      <trkpt lat="43.52596" lon="5.58374">
        <ele>566.35375976562</ele>
        <time>2022-03-16T13:44:49Z</time>
      </trkpt>
      <trkpt lat="43.52592" lon="5.58357">
        <ele>564.91186523438</ele>
        <time>2022-03-16T13:45:05Z</time>
      </trkpt>
      <trkpt lat="43.52592" lon="5.58351">
        <ele>563.95043945312</ele>
        <time>2022-03-16T13:45:10Z</time>
      </trkpt>
      <trkpt lat="43.52593" lon="5.58346">
        <ele>562.9892578125</ele>
        <time>2022-03-16T13:45:17Z</time>
      </trkpt>
      <trkpt lat="43.52594" lon="5.58337">
        <ele>562.02807617188</ele>
        <time>2022-03-16T13:45:23Z</time>
      </trkpt>
      <trkpt lat="43.52592" lon="5.58327">
        <ele>560.10522460938</ele>
        <time>2022-03-16T13:45:30Z</time>
      </trkpt>
      <trkpt lat="43.52592" lon="5.58321">
        <ele>559.62475585938</ele>
        <time>2022-03-16T13:45:35Z</time>
      </trkpt>
      <trkpt lat="43.52593" lon="5.58321">
        <ele>559.14404296875</ele>
        <time>2022-03-16T13:45:49Z</time>
      </trkpt>
      <trkpt lat="43.52592" lon="5.5832">
        <ele>559.14404296875</ele>
        <time>2022-03-16T13:46:10Z</time>
      </trkpt>
      <trkpt lat="43.52592" lon="5.5832">
        <ele>559.14404296875</ele>
        <time>2022-03-16T13:46:24Z</time>
      </trkpt>
      <trkpt lat="43.52592" lon="5.58322">
        <ele>559.14404296875</ele>
        <time>2022-03-16T13:46:41Z</time>
      </trkpt>
      <trkpt lat="43.52592" lon="5.58309">
        <ele>557.7021484375</ele>
        <time>2022-03-16T13:47:54Z</time>
      </trkpt>
      <trkpt lat="43.52591" lon="5.58306">
        <ele>557.7021484375</ele>
        <time>2022-03-16T13:47:56Z</time>
      </trkpt>
      <trkpt lat="43.52595" lon="5.58289">
        <ele>554.81787109375</ele>
        <time>2022-03-16T13:48:11Z</time>
      </trkpt>
      <trkpt lat="43.52595" lon="5.58282">
        <ele>553.85668945312</ele>
        <time>2022-03-16T13:48:15Z</time>
      </trkpt>
      <trkpt lat="43.52594" lon="5.58275">
        <ele>553.3759765625</ele>
        <time>2022-03-16T13:48:19Z</time>
      </trkpt>
      <trkpt lat="43.52597" lon="5.58259">
        <ele>551.45336914062</ele>
        <time>2022-03-16T13:48:32Z</time>
      </trkpt>
      <trkpt lat="43.52598" lon="5.58258">
        <ele>551.45336914062</ele>
        <time>2022-03-16T13:48:33Z</time>
      </trkpt>
      <trkpt lat="43.526" lon="5.58249">
        <ele>550.4921875</ele>
        <time>2022-03-16T13:48:54Z</time>
      </trkpt>
      <trkpt lat="43.526" lon="5.58245">
        <ele>550.4921875</ele>
        <time>2022-03-16T13:49:15Z</time>
      </trkpt>
      <trkpt lat="43.52602" lon="5.58234">
        <ele>550.01147460938</ele>
        <time>2022-03-16T13:49:33Z</time>
      </trkpt>
      <trkpt lat="43.52602" lon="5.58234">
        <ele>550.4921875</ele>
        <time>2022-03-16T13:49:50Z</time>
      </trkpt>
      <trkpt lat="43.52602" lon="5.5823">
        <ele>549.53076171875</ele>
        <time>2022-03-16T13:49:53Z</time>
      </trkpt>
      <trkpt lat="43.52606" lon="5.58211">
        <ele>547.12744140625</ele>
        <time>2022-03-16T13:50:06Z</time>
      </trkpt>
      <trkpt lat="43.52611" lon="5.58189">
        <ele>543.28210449219</ele>
        <time>2022-03-16T13:50:21Z</time>
      </trkpt>
      <trkpt lat="43.5261" lon="5.58182">
        <ele>542.32092285156</ele>
        <time>2022-03-16T13:50:25Z</time>
      </trkpt>
      <trkpt lat="43.52613" lon="5.58142">
        <ele>539.91760253906</ele>
        <time>2022-03-16T13:50:49Z</time>
      </trkpt>
      <trkpt lat="43.52615" lon="5.58138">
        <ele>539.91760253906</ele>
        <time>2022-03-16T13:50:52Z</time>
      </trkpt>
      <trkpt lat="43.52613" lon="5.58106">
        <ele>537.99499511719</ele>
        <time>2022-03-16T13:51:12Z</time>
      </trkpt>
      <trkpt lat="43.52613" lon="5.58088">
        <ele>537.03369140625</ele>
        <time>2022-03-16T13:51:23Z</time>
      </trkpt>
      <trkpt lat="43.52614" lon="5.58082">
        <ele>536.55310058594</ele>
        <time>2022-03-16T13:51:27Z</time>
      </trkpt>
      <trkpt lat="43.52617" lon="5.58076">
        <ele>536.55310058594</ele>
        <time>2022-03-16T13:51:44Z</time>
      </trkpt>
      <trkpt lat="43.52615" lon="5.58077">
        <ele>536.07238769531</ele>
        <time>2022-03-16T13:52:03Z</time>
      </trkpt>
      <trkpt lat="43.52614" lon="5.58077">
        <ele>536.07238769531</ele>
        <time>2022-03-16T13:52:30Z</time>
      </trkpt>
      <trkpt lat="43.52616" lon="5.58077">
        <ele>536.07238769531</ele>
        <time>2022-03-16T13:52:44Z</time>
      </trkpt>
      <trkpt lat="43.52617" lon="5.58076">
        <ele>535.11096191406</ele>
        <time>2022-03-16T13:52:59Z</time>
      </trkpt>
      <trkpt lat="43.52639" lon="5.5808">
        <ele>533.18835449219</ele>
        <time>2022-03-16T13:53:20Z</time>
      </trkpt>
      <trkpt lat="43.52653" lon="5.58072">
        <ele>532.22705078125</ele>
        <time>2022-03-16T13:53:34Z</time>
      </trkpt>
      <trkpt lat="43.52658" lon="5.58067">
        <ele>531.26574707031</ele>
        <time>2022-03-16T13:53:39Z</time>
      </trkpt>
      <trkpt lat="43.52663" lon="5.58064">
        <ele>530.78515625</ele>
        <time>2022-03-16T13:53:44Z</time>
      </trkpt>
      <trkpt lat="43.5267" lon="5.58063">
        <ele>530.30444335938</ele>
        <time>2022-03-16T13:53:50Z</time>
      </trkpt>
      <trkpt lat="43.52672" lon="5.58061">
        <ele>529.82373046875</ele>
        <time>2022-03-16T13:53:52Z</time>
      </trkpt>
      <trkpt lat="43.52678" lon="5.58055">
        <ele>528.86254882812</ele>
        <time>2022-03-16T13:53:59Z</time>
      </trkpt>
      <trkpt lat="43.5268" lon="5.58052">
        <ele>527.90100097656</ele>
        <time>2022-03-16T13:54:02Z</time>
      </trkpt>
      <trkpt lat="43.52681" lon="5.58047">
        <ele>527.90100097656</ele>
        <time>2022-03-16T13:54:06Z</time>
      </trkpt>
      <trkpt lat="43.52684" lon="5.58039">
        <ele>526.45910644531</ele>
        <time>2022-03-16T13:54:12Z</time>
      </trkpt>
      <trkpt lat="43.52685" lon="5.58036">
        <ele>525.97839355469</ele>
        <time>2022-03-16T13:54:15Z</time>
      </trkpt>
      <trkpt lat="43.52694" lon="5.5802">
        <ele>523.5751953125</ele>
        <time>2022-03-16T13:54:31Z</time>
      </trkpt>
      <trkpt lat="43.52701" lon="5.57999">
        <ele>521.65258789062</ele>
        <time>2022-03-16T13:54:49Z</time>
      </trkpt>
      <trkpt lat="43.52704" lon="5.57989">
        <ele>520.69128417969</ele>
        <time>2022-03-16T13:54:56Z</time>
      </trkpt>
      <trkpt lat="43.52703" lon="5.57965">
        <ele>517.32666015625</ele>
        <time>2022-03-16T13:55:16Z</time>
      </trkpt>
      <trkpt lat="43.527" lon="5.57948">
        <ele>514.92333984375</ele>
        <time>2022-03-16T13:55:31Z</time>
      </trkpt>
      <trkpt lat="43.527" lon="5.57945">
        <ele>514.92333984375</ele>
        <time>2022-03-16T13:55:33Z</time>
      </trkpt>
      <trkpt lat="43.52695" lon="5.57925">
        <ele>512.03942871094</ele>
        <time>2022-03-16T13:55:51Z</time>
      </trkpt>
      <trkpt lat="43.52692" lon="5.57911">
        <ele>510.59729003906</ele>
        <time>2022-03-16T13:56:06Z</time>
      </trkpt>
      <trkpt lat="43.52691" lon="5.57894">
        <ele>508.19409179688</ele>
        <time>2022-03-16T13:56:20Z</time>
      </trkpt>
      <trkpt lat="43.52686" lon="5.57878">
        <ele>507.23278808594</ele>
        <time>2022-03-16T13:56:35Z</time>
      </trkpt>
      <trkpt lat="43.52689" lon="5.57867">
        <ele>505.79089355469</ele>
        <time>2022-03-16T13:56:51Z</time>
      </trkpt>
      <trkpt lat="43.5269" lon="5.57864">
        <ele>505.79089355469</ele>
        <time>2022-03-16T13:56:54Z</time>
      </trkpt>
      <trkpt lat="43.52692" lon="5.5786">
        <ele>504.82946777344</ele>
        <time>2022-03-16T13:56:57Z</time>
      </trkpt>
      <trkpt lat="43.52699" lon="5.57853">
        <ele>503.38745117188</ele>
        <time>2022-03-16T13:57:06Z</time>
      </trkpt>
      <trkpt lat="43.52703" lon="5.57842">
        <ele>502.42614746094</ele>
        <time>2022-03-16T13:57:16Z</time>
      </trkpt>
      <trkpt lat="43.52709" lon="5.57832">
        <ele>501.46484375</ele>
        <time>2022-03-16T13:57:26Z</time>
      </trkpt>
      <trkpt lat="43.5271" lon="5.57829">
        <ele>500.50354003906</ele>
        <time>2022-03-16T13:57:28Z</time>
      </trkpt>
      <trkpt lat="43.52715" lon="5.57813">
        <ele>499.0615234375</ele>
        <time>2022-03-16T13:57:45Z</time>
      </trkpt>
      <trkpt lat="43.52718" lon="5.57806">
        <ele>497.61962890625</ele>
        <time>2022-03-16T13:57:52Z</time>
      </trkpt>
      <trkpt lat="43.52718" lon="5.57801">
        <ele>496.65832519531</ele>
        <time>2022-03-16T13:57:56Z</time>
      </trkpt>
      <trkpt lat="43.52723" lon="5.57781">
        <ele>495.21618652344</ele>
        <time>2022-03-16T13:58:11Z</time>
      </trkpt>
      <trkpt lat="43.52728" lon="5.57761">
        <ele>494.25500488281</ele>
        <time>2022-03-16T13:58:25Z</time>
      </trkpt>
      <trkpt lat="43.52739" lon="5.5775">
        <ele>492.33239746094</ele>
        <time>2022-03-16T13:58:39Z</time>
      </trkpt>
      <trkpt lat="43.52743" lon="5.57738">
        <ele>489.92907714844</ele>
        <time>2022-03-16T13:58:53Z</time>
      </trkpt>
      <trkpt lat="43.52747" lon="5.57724">
        <ele>487.52563476562</ele>
        <time>2022-03-16T13:59:10Z</time>
      </trkpt>
      <trkpt lat="43.52754" lon="5.57712">
        <ele>485.12243652344</ele>
        <time>2022-03-16T13:59:27Z</time>
      </trkpt>
      <trkpt lat="43.52757" lon="5.57704">
        <ele>483.68041992188</ele>
        <time>2022-03-16T13:59:42Z</time>
      </trkpt>
      <trkpt lat="43.52765" lon="5.57693">
        <ele>481.27722167969</ele>
        <time>2022-03-16T14:00:00Z</time>
      </trkpt>
      <trkpt lat="43.52774" lon="5.57675">
        <ele>478.39318847656</ele>
        <time>2022-03-16T14:00:17Z</time>
      </trkpt>
      <trkpt lat="43.52782" lon="5.5766">
        <ele>476.47058105469</ele>
        <time>2022-03-16T14:00:31Z</time>
      </trkpt>
      <trkpt lat="43.52788" lon="5.57652">
        <ele>474.54797363281</ele>
        <time>2022-03-16T14:00:48Z</time>
      </trkpt>
      <trkpt lat="43.5279" lon="5.5765">
        <ele>474.06726074219</ele>
        <time>2022-03-16T14:00:51Z</time>
      </trkpt>
      <trkpt lat="43.52791" lon="5.57639">
        <ele>472.62536621094</ele>
        <time>2022-03-16T14:00:58Z</time>
      </trkpt>
      <trkpt lat="43.5279" lon="5.57629">
        <ele>471.66394042969</ele>
        <time>2022-03-16T14:01:06Z</time>
      </trkpt>
      <trkpt lat="43.52793" lon="5.5762">
        <ele>469.74133300781</ele>
        <time>2022-03-16T14:01:11Z</time>
      </trkpt>
      <trkpt lat="43.52804" lon="5.57605">
        <ele>467.81872558594</ele>
        <time>2022-03-16T14:01:27Z</time>
      </trkpt>
      <trkpt lat="43.52806" lon="5.57599">
        <ele>467.33813476562</ele>
        <time>2022-03-16T14:01:31Z</time>
      </trkpt>
      <trkpt lat="43.5281" lon="5.57577">
        <ele>465.89611816406</ele>
        <time>2022-03-16T14:01:51Z</time>
      </trkpt>
      <trkpt lat="43.52811" lon="5.57575">
        <ele>465.89611816406</ele>
        <time>2022-03-16T14:02:04Z</time>
      </trkpt>
      <trkpt lat="43.5281" lon="5.57575">
        <ele>465.89611816406</ele>
        <time>2022-03-16T14:02:20Z</time>
      </trkpt>
      <trkpt lat="43.52811" lon="5.57577">
        <ele>465.89611816406</ele>
        <time>2022-03-16T14:02:40Z</time>
      </trkpt>
      <trkpt lat="43.52812" lon="5.57565">
        <ele>464.4541015625</ele>
        <time>2022-03-16T14:03:46Z</time>
      </trkpt>
      <trkpt lat="43.52812" lon="5.57548">
        <ele>463.01208496094</ele>
        <time>2022-03-16T14:04:02Z</time>
      </trkpt>
      <trkpt lat="43.52811" lon="5.57534">
        <ele>461.08947753906</ele>
        <time>2022-03-16T14:04:18Z</time>
      </trkpt>
      <trkpt lat="43.52811" lon="5.57503">
        <ele>458.68615722656</ele>
        <time>2022-03-16T14:04:43Z</time>
      </trkpt>
      <trkpt lat="43.5281" lon="5.57481">
        <ele>457.72497558594</ele>
        <time>2022-03-16T14:05:03Z</time>
      </trkpt>
      <trkpt lat="43.52808" lon="5.57451">
        <ele>455.80224609375</ele>
        <time>2022-03-16T14:05:27Z</time>
      </trkpt>
      <trkpt lat="43.52806" lon="5.57435">
        <ele>454.36022949219</ele>
        <time>2022-03-16T14:05:44Z</time>
      </trkpt>
      <trkpt lat="43.52804" lon="5.57412">
        <ele>452.43762207031</ele>
        <time>2022-03-16T14:06:02Z</time>
      </trkpt>
      <trkpt lat="43.52804" lon="5.57405">
        <ele>451.47631835938</ele>
        <time>2022-03-16T14:06:09Z</time>
      </trkpt>
      <trkpt lat="43.52801" lon="5.5739">
        <ele>450.03442382812</ele>
        <time>2022-03-16T14:06:21Z</time>
      </trkpt>
      <trkpt lat="43.52792" lon="5.57368">
        <ele>447.63098144531</ele>
        <time>2022-03-16T14:06:41Z</time>
      </trkpt>
      <trkpt lat="43.52792" lon="5.57348">
        <ele>444.26647949219</ele>
        <time>2022-03-16T14:06:59Z</time>
      </trkpt>
      <trkpt lat="43.52791" lon="5.57341">
        <ele>443.78576660156</ele>
        <time>2022-03-16T14:07:13Z</time>
      </trkpt>
      <trkpt lat="43.52789" lon="5.5733">
        <ele>442.34387207031</ele>
        <time>2022-03-16T14:07:32Z</time>
      </trkpt>
      <trkpt lat="43.52782" lon="5.57315">
        <ele>441.86315917969</ele>
        <time>2022-03-16T14:07:45Z</time>
      </trkpt>
      <trkpt lat="43.52779" lon="5.57305">
        <ele>440.42126464844</ele>
        <time>2022-03-16T14:07:56Z</time>
      </trkpt>
      <trkpt lat="43.52778" lon="5.57298">
        <ele>440.90185546875</ele>
        <time>2022-03-16T14:08:12Z</time>
      </trkpt>
      <trkpt lat="43.52778" lon="5.57301">
        <ele>441.38244628906</ele>
        <time>2022-03-16T14:08:26Z</time>
      </trkpt>
      <trkpt lat="43.52779" lon="5.57289">
        <ele>441.86315917969</ele>
        <time>2022-03-16T14:08:43Z</time>
      </trkpt>
      <trkpt lat="43.52781" lon="5.57288">
        <ele>441.86315917969</ele>
        <time>2022-03-16T14:09:02Z</time>
      </trkpt>
      <trkpt lat="43.52784" lon="5.57276">
        <ele>442.82446289062</ele>
        <time>2022-03-16T14:09:17Z</time>
      </trkpt>
      <trkpt lat="43.52789" lon="5.57252">
        <ele>444.7470703125</ele>
        <time>2022-03-16T14:09:39Z</time>
      </trkpt>
      <trkpt lat="43.52795" lon="5.57235">
        <ele>447.63098144531</ele>
        <time>2022-03-16T14:10:01Z</time>
      </trkpt>
      <trkpt lat="43.528" lon="5.57221">
        <ele>448.59240722656</ele>
        <time>2022-03-16T14:10:29Z</time>
      </trkpt>
      <trkpt lat="43.52814" lon="5.57199">
        <ele>450.03442382812</ele>
        <time>2022-03-16T14:10:50Z</time>
      </trkpt>
      <trkpt lat="43.5283" lon="5.57182">
        <ele>450.03442382812</ele>
        <time>2022-03-16T14:11:12Z</time>
      </trkpt>
      <trkpt lat="43.52843" lon="5.57161">
        <ele>450.99560546875</ele>
        <time>2022-03-16T14:11:31Z</time>
      </trkpt>
      <trkpt lat="43.52845" lon="5.57157">
        <ele>451.47631835938</ele>
        <time>2022-03-16T14:11:35Z</time>
      </trkpt>
      <trkpt lat="43.52856" lon="5.57133">
        <ele>452.91821289062</ele>
        <time>2022-03-16T14:11:53Z</time>
      </trkpt>
      <trkpt lat="43.52862" lon="5.57113">
        <ele>455.32153320312</ele>
        <time>2022-03-16T14:12:11Z</time>
      </trkpt>
      <trkpt lat="43.5287" lon="5.57095">
        <ele>456.28295898438</ele>
        <time>2022-03-16T14:12:29Z</time>
      </trkpt>
      <trkpt lat="43.52872" lon="5.57092">
        <ele>456.28295898438</ele>
        <time>2022-03-16T14:12:47Z</time>
      </trkpt>
      <trkpt lat="43.52874" lon="5.57094">
        <ele>456.76354980469</ele>
        <time>2022-03-16T14:13:08Z</time>
      </trkpt>
      <trkpt lat="43.52875" lon="5.57096">
        <ele>456.28295898438</ele>
        <time>2022-03-16T14:13:22Z</time>
      </trkpt>
      <trkpt lat="43.52878" lon="5.57097">
        <ele>456.28295898438</ele>
        <time>2022-03-16T14:13:44Z</time>
      </trkpt>
      <trkpt lat="43.52874" lon="5.57095">
        <ele>456.28295898438</ele>
        <time>2022-03-16T14:14:04Z</time>
      </trkpt>
      <trkpt lat="43.52874" lon="5.57095">
        <ele>456.28295898438</ele>
        <time>2022-03-16T14:14:36Z</time>
      </trkpt>
      <trkpt lat="43.52874" lon="5.57094">
        <ele>455.80224609375</ele>
        <time>2022-03-16T14:15:31Z</time>
      </trkpt>
      <trkpt lat="43.52875" lon="5.57094">
        <ele>455.80224609375</ele>
        <time>2022-03-16T14:16:43Z</time>
      </trkpt>
      <trkpt lat="43.52875" lon="5.57095">
        <ele>455.80224609375</ele>
        <time>2022-03-16T14:17:44Z</time>
      </trkpt>
      <trkpt lat="43.52876" lon="5.57089">
        <ele>455.80224609375</ele>
        <time>2022-03-16T14:17:57Z</time>
      </trkpt>
      <trkpt lat="43.52882" lon="5.57086">
        <ele>455.32153320312</ele>
        <time>2022-03-16T14:18:14Z</time>
      </trkpt>
      <trkpt lat="43.52886" lon="5.57081">
        <ele>454.8408203125</ele>
        <time>2022-03-16T14:18:33Z</time>
      </trkpt>
      <trkpt lat="43.52885" lon="5.57069">
        <ele>454.36022949219</ele>
        <time>2022-03-16T14:18:47Z</time>
      </trkpt>
      <trkpt lat="43.52881" lon="5.57049">
        <ele>453.87963867188</ele>
        <time>2022-03-16T14:19:04Z</time>
      </trkpt>
      <trkpt lat="43.52885" lon="5.57045">
        <ele>453.87963867188</ele>
        <time>2022-03-16T14:19:15Z</time>
      </trkpt>
      <trkpt lat="43.52888" lon="5.57042">
        <ele>453.87963867188</ele>
        <time>2022-03-16T14:19:19Z</time>
      </trkpt>
      <trkpt lat="43.5289" lon="5.5704">
        <ele>453.87963867188</ele>
        <time>2022-03-16T14:19:22Z</time>
      </trkpt>
      <trkpt lat="43.52892" lon="5.57038">
        <ele>453.87963867188</ele>
        <time>2022-03-16T14:19:27Z</time>
      </trkpt>
      <trkpt lat="43.52894" lon="5.57031">
        <ele>453.39892578125</ele>
        <time>2022-03-16T14:19:33Z</time>
      </trkpt>
      <trkpt lat="43.52889" lon="5.57014">
        <ele>450.99560546875</ele>
        <time>2022-03-16T14:19:49Z</time>
      </trkpt>
      <trkpt lat="43.52883" lon="5.56999">
        <ele>449.07299804688</ele>
        <time>2022-03-16T14:20:04Z</time>
      </trkpt>
      <trkpt lat="43.52878" lon="5.56988">
        <ele>448.11181640625</ele>
        <time>2022-03-16T14:20:17Z</time>
      </trkpt>
      <trkpt lat="43.52876" lon="5.56986">
        <ele>447.15026855469</ele>
        <time>2022-03-16T14:20:20Z</time>
      </trkpt>
      <trkpt lat="43.52874" lon="5.56984">
        <ele>447.15026855469</ele>
        <time>2022-03-16T14:20:42Z</time>
      </trkpt>
      <trkpt lat="43.52873" lon="5.56979">
        <ele>445.70837402344</ele>
        <time>2022-03-16T14:20:56Z</time>
      </trkpt>
      <trkpt lat="43.52874" lon="5.56977">
        <ele>445.22766113281</ele>
        <time>2022-03-16T14:20:59Z</time>
      </trkpt>
      <trkpt lat="43.52871" lon="5.5697">
        <ele>444.26647949219</ele>
        <time>2022-03-16T14:21:03Z</time>
      </trkpt>
      <trkpt lat="43.52869" lon="5.56959">
        <ele>442.82446289062</ele>
        <time>2022-03-16T14:21:19Z</time>
      </trkpt>
      <trkpt lat="43.52871" lon="5.56961">
        <ele>441.86315917969</ele>
        <time>2022-03-16T14:22:00Z</time>
      </trkpt>
      <trkpt lat="43.52879" lon="5.56964">
        <ele>441.38244628906</ele>
        <time>2022-03-16T14:24:43Z</time>
      </trkpt>
      <trkpt lat="43.52875" lon="5.56963">
        <ele>441.38244628906</ele>
        <time>2022-03-16T14:25:29Z</time>
      </trkpt>
      <trkpt lat="43.52876" lon="5.56962">
        <ele>441.38244628906</ele>
        <time>2022-03-16T14:26:00Z</time>
      </trkpt>
      <trkpt lat="43.52875" lon="5.5696">
        <ele>440.90185546875</ele>
        <time>2022-03-16T14:28:38Z</time>
      </trkpt>
      <trkpt lat="43.52878" lon="5.56962">
        <ele>440.90185546875</ele>
        <time>2022-03-16T14:29:10Z</time>
      </trkpt>
      <trkpt lat="43.52878" lon="5.56962">
        <ele>441.86315917969</ele>
        <time>2022-03-16T14:30:25Z</time>
      </trkpt>
      <trkpt lat="43.52872" lon="5.56961">
        <ele>441.86315917969</ele>
        <time>2022-03-16T14:30:51Z</time>
      </trkpt>
      <trkpt lat="43.52871" lon="5.56959">
        <ele>441.86315917969</ele>
        <time>2022-03-16T14:32:03Z</time>
      </trkpt>
      <trkpt lat="43.52873" lon="5.5696">
        <ele>441.86315917969</ele>
        <time>2022-03-16T14:32:28Z</time>
      </trkpt>
      <trkpt lat="43.52874" lon="5.56964">
        <ele>441.86315917969</ele>
        <time>2022-03-16T14:33:16Z</time>
      </trkpt>
      <trkpt lat="43.52875" lon="5.56965">
        <ele>441.86315917969</ele>
        <time>2022-03-16T14:33:27Z</time>
      </trkpt>
      <trkpt lat="43.52886" lon="5.56944">
        <ele>441.38244628906</ele>
        <time>2022-03-16T14:33:49Z</time>
      </trkpt>
      <trkpt lat="43.52894" lon="5.56941">
        <ele>440.90185546875</ele>
        <time>2022-03-16T14:34:04Z</time>
      </trkpt>
      <trkpt lat="43.52896" lon="5.56941">
        <ele>440.42126464844</ele>
        <time>2022-03-16T14:34:06Z</time>
      </trkpt>
      <trkpt lat="43.52899" lon="5.56938">
        <ele>440.90185546875</ele>
        <time>2022-03-16T14:34:10Z</time>
      </trkpt>
      <trkpt lat="43.52914" lon="5.5693">
        <ele>439.45971679688</ele>
        <time>2022-03-16T14:34:27Z</time>
      </trkpt>
      <trkpt lat="43.52919" lon="5.5693">
        <ele>438.97912597656</ele>
        <time>2022-03-16T14:34:42Z</time>
      </trkpt>
      <trkpt lat="43.52919" lon="5.5693">
        <ele>439.45971679688</ele>
        <time>2022-03-16T14:34:54Z</time>
      </trkpt>
      <trkpt lat="43.52922" lon="5.56928">
        <ele>438.97912597656</ele>
        <time>2022-03-16T14:35:07Z</time>
      </trkpt>
      <trkpt lat="43.52926" lon="5.56919">
        <ele>438.49853515625</ele>
        <time>2022-03-16T14:35:22Z</time>
      </trkpt>
      <trkpt lat="43.52919" lon="5.56914">
        <ele>437.05651855469</ele>
        <time>2022-03-16T14:35:30Z</time>
      </trkpt>
      <trkpt lat="43.52902" lon="5.56914">
        <ele>435.13391113281</ele>
        <time>2022-03-16T14:35:49Z</time>
      </trkpt>
      <trkpt lat="43.52886" lon="5.56905">
        <ele>432.73071289062</ele>
        <time>2022-03-16T14:36:06Z</time>
      </trkpt>
      <trkpt lat="43.52883" lon="5.56904">
        <ele>432.73071289062</ele>
        <time>2022-03-16T14:36:08Z</time>
      </trkpt>
      <trkpt lat="43.52882" lon="5.56901">
        <ele>432.25</ele>
        <time>2022-03-16T14:36:10Z</time>
      </trkpt>
      <trkpt lat="43.52878" lon="5.56879">
        <ele>430.32727050781</ele>
        <time>2022-03-16T14:36:24Z</time>
      </trkpt>
      <trkpt lat="43.52875" lon="5.56848">
        <ele>430.80798339844</ele>
        <time>2022-03-16T14:36:43Z</time>
      </trkpt>
      <trkpt lat="43.52875" lon="5.56833">
        <ele>430.32727050781</ele>
        <time>2022-03-16T14:36:53Z</time>
      </trkpt>
      <trkpt lat="43.52885" lon="5.56795">
        <ele>428.88537597656</ele>
        <time>2022-03-16T14:37:19Z</time>
      </trkpt>
      <trkpt lat="43.52886" lon="5.56793">
        <ele>428.40466308594</ele>
        <time>2022-03-16T14:37:21Z</time>
      </trkpt>
      <trkpt lat="43.52888" lon="5.56769">
        <ele>427.443359375</ele>
        <time>2022-03-16T14:37:35Z</time>
      </trkpt>
      <trkpt lat="43.52886" lon="5.56732">
        <ele>426.48205566406</ele>
        <time>2022-03-16T14:37:57Z</time>
      </trkpt>
      <trkpt lat="43.52883" lon="5.56698">
        <ele>426.96276855469</ele>
        <time>2022-03-16T14:38:19Z</time>
      </trkpt>
      <trkpt lat="43.52882" lon="5.56691">
        <ele>427.443359375</ele>
        <time>2022-03-16T14:38:23Z</time>
      </trkpt>
      <trkpt lat="43.52885" lon="5.56667">
        <ele>424.55944824219</ele>
        <time>2022-03-16T14:38:40Z</time>
      </trkpt>
      <trkpt lat="43.52891" lon="5.56642">
        <ele>421.67541503906</ele>
        <time>2022-03-16T14:38:56Z</time>
      </trkpt>
      <trkpt lat="43.52899" lon="5.56606">
        <ele>419.75280761719</ele>
        <time>2022-03-16T14:39:21Z</time>
      </trkpt>
      <trkpt lat="43.52906" lon="5.56571">
        <ele>418.79150390625</ele>
        <time>2022-03-16T14:39:45Z</time>
      </trkpt>
      <trkpt lat="43.52911" lon="5.56556">
        <ele>417.83020019531</ele>
        <time>2022-03-16T14:39:57Z</time>
      </trkpt>
      <trkpt lat="43.52911" lon="5.56528">
        <ele>414.94616699219</ele>
        <time>2022-03-16T14:40:17Z</time>
      </trkpt>
      <trkpt lat="43.52899" lon="5.56498">
        <ele>413.02355957031</ele>
        <time>2022-03-16T14:40:39Z</time>
      </trkpt>
      <trkpt lat="43.52889" lon="5.56474">
        <ele>413.02355957031</ele>
        <time>2022-03-16T14:40:58Z</time>
      </trkpt>
      <trkpt lat="43.52887" lon="5.56467">
        <ele>412.06225585938</ele>
        <time>2022-03-16T14:41:03Z</time>
      </trkpt>
      <trkpt lat="43.52883" lon="5.56438">
        <ele>413.02355957031</ele>
        <time>2022-03-16T14:41:24Z</time>
      </trkpt>
      <trkpt lat="43.52869" lon="5.564">
        <ele>413.02355957031</ele>
        <time>2022-03-16T14:41:52Z</time>
      </trkpt>
      <trkpt lat="43.52865" lon="5.56357">
        <ele>412.06225585938</ele>
        <time>2022-03-16T14:42:21Z</time>
      </trkpt>
      <trkpt lat="43.52859" lon="5.56323">
        <ele>411.10095214844</ele>
        <time>2022-03-16T14:42:46Z</time>
      </trkpt>
      <trkpt lat="43.52855" lon="5.56287">
        <ele>409.65905761719</ele>
        <time>2022-03-16T14:43:12Z</time>
      </trkpt>
      <trkpt lat="43.52858" lon="5.56251">
        <ele>408.21704101562</ele>
        <time>2022-03-16T14:43:38Z</time>
      </trkpt>
      <trkpt lat="43.52854" lon="5.56213">
        <ele>407.25561523438</ele>
        <time>2022-03-16T14:44:04Z</time>
      </trkpt>
      <trkpt lat="43.52846" lon="5.56191">
        <ele>403.89111328125</ele>
        <time>2022-03-16T14:44:24Z</time>
      </trkpt>
      <trkpt lat="43.52839" lon="5.56175">
        <ele>400.52648925781</ele>
        <time>2022-03-16T14:44:41Z</time>
      </trkpt>
      <trkpt lat="43.52831" lon="5.56154">
        <ele>398.12316894531</ele>
        <time>2022-03-16T14:44:59Z</time>
      </trkpt>
      <trkpt lat="43.52826" lon="5.5613">
        <ele>394.75854492188</ele>
        <time>2022-03-16T14:45:18Z</time>
      </trkpt>
      <trkpt lat="43.52825" lon="5.56129">
        <ele>394.75854492188</ele>
        <time>2022-03-16T14:45:19Z</time>
      </trkpt>
      <trkpt lat="43.52818" lon="5.56105">
        <ele>391.87451171875</ele>
        <time>2022-03-16T14:45:39Z</time>
      </trkpt>
      <trkpt lat="43.52813" lon="5.56068">
        <ele>388.99060058594</ele>
        <time>2022-03-16T14:46:05Z</time>
      </trkpt>
      <trkpt lat="43.52811" lon="5.56042">
        <ele>385.6259765625</ele>
        <time>2022-03-16T14:46:22Z</time>
      </trkpt>
      <trkpt lat="43.52808" lon="5.56014">
        <ele>382.74206542969</ele>
        <time>2022-03-16T14:46:43Z</time>
      </trkpt>
      <trkpt lat="43.52804" lon="5.55978">
        <ele>379.85803222656</ele>
        <time>2022-03-16T14:47:08Z</time>
      </trkpt>
      <trkpt lat="43.52804" lon="5.55953">
        <ele>377.93542480469</ele>
        <time>2022-03-16T14:47:24Z</time>
      </trkpt>
      <trkpt lat="43.52799" lon="5.55926">
        <ele>376.01281738281</ele>
        <time>2022-03-16T14:47:42Z</time>
      </trkpt>
      <trkpt lat="43.52798" lon="5.55903">
        <ele>373.12890625</ele>
        <time>2022-03-16T14:47:58Z</time>
      </trkpt>
      <trkpt lat="43.52794" lon="5.55862">
        <ele>371.20629882812</ele>
        <time>2022-03-16T14:48:23Z</time>
      </trkpt>
      <trkpt lat="43.52791" lon="5.55828">
        <ele>369.76428222656</ele>
        <time>2022-03-16T14:48:45Z</time>
      </trkpt>
      <trkpt lat="43.52785" lon="5.55783">
        <ele>366.88024902344</ele>
        <time>2022-03-16T14:49:15Z</time>
      </trkpt>
      <trkpt lat="43.52782" lon="5.55741">
        <ele>365.9189453125</ele>
        <time>2022-03-16T14:49:43Z</time>
      </trkpt>
      <trkpt lat="43.52782" lon="5.55743">
        <ele>365.9189453125</ele>
        <time>2022-03-16T14:50:02Z</time>
      </trkpt>
      <trkpt lat="43.52783" lon="5.55747">
        <ele>366.39953613281</ele>
        <time>2022-03-16T14:50:42Z</time>
      </trkpt>
      <trkpt lat="43.52783" lon="5.55746">
        <ele>366.39953613281</ele>
        <time>2022-03-16T14:51:07Z</time>
      </trkpt>
      <trkpt lat="43.52784" lon="5.55743">
        <ele>366.39953613281</ele>
        <time>2022-03-16T14:51:22Z</time>
      </trkpt>
      <trkpt lat="43.52788" lon="5.55729">
        <ele>364.47692871094</ele>
        <time>2022-03-16T14:51:33Z</time>
      </trkpt>
      <trkpt lat="43.52795" lon="5.55737">
        <ele>363.03503417969</ele>
        <time>2022-03-16T14:51:45Z</time>
      </trkpt>
      <trkpt lat="43.52798" lon="5.55744">
        <ele>363.03503417969</ele>
        <time>2022-03-16T14:51:58Z</time>
      </trkpt>
      <trkpt lat="43.52803" lon="5.55765">
        <ele>362.07373046875</ele>
        <time>2022-03-16T14:52:16Z</time>
      </trkpt>
      <trkpt lat="43.52808" lon="5.55787">
        <ele>362.07373046875</ele>
        <time>2022-03-16T14:52:36Z</time>
      </trkpt>
      <trkpt lat="43.52812" lon="5.55811">
        <ele>361.59313964844</ele>
        <time>2022-03-16T14:52:55Z</time>
      </trkpt>
      <trkpt lat="43.52818" lon="5.55838">
        <ele>360.63171386719</ele>
        <time>2022-03-16T14:53:17Z</time>
      </trkpt>
      <trkpt lat="43.52824" lon="5.5586">
        <ele>360.63171386719</ele>
        <time>2022-03-16T14:53:35Z</time>
      </trkpt>
      <trkpt lat="43.5283" lon="5.55875">
        <ele>359.18969726562</ele>
        <time>2022-03-16T14:53:48Z</time>
      </trkpt>
      <trkpt lat="43.52836" lon="5.5589">
        <ele>358.22839355469</ele>
        <time>2022-03-16T14:54:02Z</time>
      </trkpt>
      <trkpt lat="43.52845" lon="5.55909">
        <ele>357.74780273438</ele>
        <time>2022-03-16T14:54:20Z</time>
      </trkpt>
      <trkpt lat="43.5285" lon="5.55914">
        <ele>357.26708984375</ele>
        <time>2022-03-16T14:54:26Z</time>
      </trkpt>
      <trkpt lat="43.52857" lon="5.55927">
        <ele>356.78637695312</ele>
        <time>2022-03-16T14:54:39Z</time>
      </trkpt>
      <trkpt lat="43.52862" lon="5.55948">
        <ele>356.78637695312</ele>
        <time>2022-03-16T14:54:55Z</time>
      </trkpt>
      <trkpt lat="43.52871" lon="5.55964">
        <ele>357.26708984375</ele>
        <time>2022-03-16T14:55:12Z</time>
      </trkpt>
      <trkpt lat="43.52873" lon="5.55971">
        <ele>357.26708984375</ele>
        <time>2022-03-16T14:55:17Z</time>
      </trkpt>
      <trkpt lat="43.52876" lon="5.55977">
        <ele>357.26708984375</ele>
        <time>2022-03-16T14:55:21Z</time>
      </trkpt>
      <trkpt lat="43.52887" lon="5.56008">
        <ele>355.34448242188</ele>
        <time>2022-03-16T14:55:43Z</time>
      </trkpt>
      <trkpt lat="43.52899" lon="5.56016">
        <ele>354.38317871094</ele>
        <time>2022-03-16T14:55:56Z</time>
      </trkpt>
      <trkpt lat="43.52901" lon="5.56013">
        <ele>352.46057128906</ele>
        <time>2022-03-16T14:56:02Z</time>
      </trkpt>
      <trkpt lat="43.52905" lon="5.56004">
        <ele>349.57653808594</ele>
        <time>2022-03-16T14:56:16Z</time>
      </trkpt>
      <trkpt lat="43.52912" lon="5.55984">
        <ele>346.69262695312</ele>
        <time>2022-03-16T14:56:31Z</time>
      </trkpt>
      <trkpt lat="43.52912" lon="5.55982">
        <ele>346.69262695312</ele>
        <time>2022-03-16T14:56:32Z</time>
      </trkpt>
      <trkpt lat="43.52916" lon="5.55977">
        <ele>345.25061035156</ele>
        <time>2022-03-16T14:56:36Z</time>
      </trkpt>
      <trkpt lat="43.52921" lon="5.55972">
        <ele>345.25061035156</ele>
        <time>2022-03-16T14:56:41Z</time>
      </trkpt>
      <trkpt lat="43.52923" lon="5.55966">
        <ele>345.25061035156</ele>
        <time>2022-03-16T14:56:57Z</time>
      </trkpt>
      <trkpt lat="43.52923" lon="5.55964">
        <ele>345.25061035156</ele>
        <time>2022-03-16T14:56:58Z</time>
      </trkpt>
      <trkpt lat="43.5292" lon="5.55953">
        <ele>344.77001953125</ele>
        <time>2022-03-16T14:57:06Z</time>
      </trkpt>
      <trkpt lat="43.52913" lon="5.55943">
        <ele>343.32788085938</ele>
        <time>2022-03-16T14:57:15Z</time>
      </trkpt>
      <trkpt lat="43.52909" lon="5.55932">
        <ele>342.36669921875</ele>
        <time>2022-03-16T14:57:26Z</time>
      </trkpt>
      <trkpt lat="43.52907" lon="5.55928">
        <ele>341.88598632812</ele>
        <time>2022-03-16T14:57:30Z</time>
      </trkpt>
      <trkpt lat="43.52904" lon="5.55923">
        <ele>340.92468261719</ele>
        <time>2022-03-16T14:57:37Z</time>
      </trkpt>
      <trkpt lat="43.52902" lon="5.55906">
        <ele>339.00207519531</ele>
        <time>2022-03-16T14:57:51Z</time>
      </trkpt>
      <trkpt lat="43.52902" lon="5.55885">
        <ele>337.56005859375</ele>
        <time>2022-03-16T14:58:06Z</time>
      </trkpt>
      <trkpt lat="43.52906" lon="5.55881">
        <ele>337.07946777344</ele>
        <time>2022-03-16T14:58:22Z</time>
      </trkpt>
      <trkpt lat="43.52904" lon="5.55868">
        <ele>336.59887695312</ele>
        <time>2022-03-16T14:58:37Z</time>
      </trkpt>
      <trkpt lat="43.52903" lon="5.55867">
        <ele>336.59887695312</ele>
        <time>2022-03-16T14:58:38Z</time>
      </trkpt>
      <trkpt lat="43.52904" lon="5.55862">
        <ele>336.1181640625</ele>
        <time>2022-03-16T14:58:41Z</time>
      </trkpt>
      <trkpt lat="43.52899" lon="5.55846">
        <ele>334.67614746094</ele>
        <time>2022-03-16T14:58:54Z</time>
      </trkpt>
      <trkpt lat="43.529" lon="5.55829">
        <ele>334.19543457031</ele>
        <time>2022-03-16T14:59:08Z</time>
      </trkpt>
      <trkpt lat="43.52898" lon="5.55824">
        <ele>333.71472167969</ele>
        <time>2022-03-16T14:59:14Z</time>
      </trkpt>
      <trkpt lat="43.52897" lon="5.55818">
        <ele>333.23413085938</ele>
        <time>2022-03-16T14:59:18Z</time>
      </trkpt>
      <trkpt lat="43.52896" lon="5.55813">
        <ele>333.23413085938</ele>
        <time>2022-03-16T14:59:22Z</time>
      </trkpt>
      <trkpt lat="43.52896" lon="5.55807">
        <ele>332.75354003906</ele>
        <time>2022-03-16T14:59:26Z</time>
      </trkpt>
      <trkpt lat="43.52896" lon="5.55803">
        <ele>332.75354003906</ele>
        <time>2022-03-16T14:59:29Z</time>
      </trkpt>
      <trkpt lat="43.52896" lon="5.55796">
        <ele>332.27282714844</ele>
        <time>2022-03-16T14:59:35Z</time>
      </trkpt>
      <trkpt lat="43.52891" lon="5.55771">
        <ele>331.3115234375</ele>
        <time>2022-03-16T14:59:51Z</time>
      </trkpt>
      <trkpt lat="43.52888" lon="5.55754">
        <ele>329.38891601562</ele>
        <time>2022-03-16T15:00:04Z</time>
      </trkpt>
      <trkpt lat="43.52884" lon="5.5574">
        <ele>329.38891601562</ele>
        <time>2022-03-16T15:00:13Z</time>
      </trkpt>
      <trkpt lat="43.52884" lon="5.55724">
        <ele>327.94677734375</ele>
        <time>2022-03-16T15:00:28Z</time>
      </trkpt>
      <trkpt lat="43.52885" lon="5.55721">
        <ele>327.94677734375</ele>
        <time>2022-03-16T15:00:30Z</time>
      </trkpt>
      <trkpt lat="43.52882" lon="5.55703">
        <ele>326.98559570312</ele>
        <time>2022-03-16T15:00:43Z</time>
      </trkpt>
      <trkpt lat="43.52881" lon="5.55701">
        <ele>326.98559570312</ele>
        <time>2022-03-16T15:00:45Z</time>
      </trkpt>
      <trkpt lat="43.5288" lon="5.55689">
        <ele>326.02416992188</ele>
        <time>2022-03-16T15:00:52Z</time>
      </trkpt>
      <trkpt lat="43.52879" lon="5.55678">
        <ele>325.06298828125</ele>
        <time>2022-03-16T15:01:01Z</time>
      </trkpt>
      <trkpt lat="43.5288" lon="5.55664">
        <ele>324.58227539062</ele>
        <time>2022-03-16T15:01:12Z</time>
      </trkpt>
      <trkpt lat="43.5288" lon="5.55654">
        <ele>324.1015625</ele>
        <time>2022-03-16T15:01:19Z</time>
      </trkpt>
      <trkpt lat="43.52879" lon="5.55638">
        <ele>323.14038085938</ele>
        <time>2022-03-16T15:01:32Z</time>
      </trkpt>
      <trkpt lat="43.52878" lon="5.55635">
        <ele>322.65966796875</ele>
        <time>2022-03-16T15:01:34Z</time>
      </trkpt>
      <trkpt lat="43.52878" lon="5.55629">
        <ele>322.65966796875</ele>
        <time>2022-03-16T15:01:38Z</time>
      </trkpt>
      <trkpt lat="43.52875" lon="5.55624">
        <ele>322.17895507812</ele>
        <time>2022-03-16T15:01:42Z</time>
      </trkpt>
      <trkpt lat="43.52872" lon="5.55619">
        <ele>321.69836425781</ele>
        <time>2022-03-16T15:01:46Z</time>
      </trkpt>
      <trkpt lat="43.52861" lon="5.55596">
        <ele>320.73706054688</ele>
        <time>2022-03-16T15:02:06Z</time>
      </trkpt>
      <trkpt lat="43.52863" lon="5.55584">
        <ele>319.77563476562</ele>
        <time>2022-03-16T15:02:21Z</time>
      </trkpt>
      <trkpt lat="43.52864" lon="5.55565">
        <ele>318.33361816406</ele>
        <time>2022-03-16T15:02:37Z</time>
      </trkpt>
      <trkpt lat="43.52867" lon="5.5554">
        <ele>317.85302734375</ele>
        <time>2022-03-16T15:02:53Z</time>
      </trkpt>
      <trkpt lat="43.52869" lon="5.55529">
        <ele>317.37243652344</ele>
        <time>2022-03-16T15:03:04Z</time>
      </trkpt>
      <trkpt lat="43.52868" lon="5.55523">
        <ele>317.37243652344</ele>
        <time>2022-03-16T15:03:08Z</time>
      </trkpt>
      <trkpt lat="43.52872" lon="5.55507">
        <ele>317.37243652344</ele>
        <time>2022-03-16T15:03:21Z</time>
      </trkpt>
      <trkpt lat="43.52871" lon="5.55506">
        <ele>317.37243652344</ele>
        <time>2022-03-16T15:03:22Z</time>
      </trkpt>
      <trkpt lat="43.5287" lon="5.55502">
        <ele>317.37243652344</ele>
        <time>2022-03-16T15:03:24Z</time>
      </trkpt>
      <trkpt lat="43.5287" lon="5.55489">
        <ele>317.37243652344</ele>
        <time>2022-03-16T15:03:32Z</time>
      </trkpt>
      <trkpt lat="43.52869" lon="5.55482">
        <ele>317.37243652344</ele>
        <time>2022-03-16T15:03:36Z</time>
      </trkpt>
      <trkpt lat="43.52868" lon="5.55471">
        <ele>316.41101074219</ele>
        <time>2022-03-16T15:03:44Z</time>
      </trkpt>
      <trkpt lat="43.52867" lon="5.55445">
        <ele>315.44982910156</ele>
        <time>2022-03-16T15:04:02Z</time>
      </trkpt>
      <trkpt lat="43.52856" lon="5.55404">
        <ele>312.56579589844</ele>
        <time>2022-03-16T15:04:28Z</time>
      </trkpt>
      <trkpt lat="43.52855" lon="5.55399">
        <ele>312.08520507812</ele>
        <time>2022-03-16T15:04:33Z</time>
      </trkpt>
      <trkpt lat="43.52856" lon="5.55395">
        <ele>311.6044921875</ele>
        <time>2022-03-16T15:04:37Z</time>
      </trkpt>
      <trkpt lat="43.5285" lon="5.55376">
        <ele>309.68188476562</ele>
        <time>2022-03-16T15:04:53Z</time>
      </trkpt>
      <trkpt lat="43.52843" lon="5.55354">
        <ele>307.75927734375</ele>
        <time>2022-03-16T15:05:07Z</time>
      </trkpt>
      <trkpt lat="43.52833" lon="5.55329">
        <ele>305.83666992188</ele>
        <time>2022-03-16T15:05:24Z</time>
      </trkpt>
      <trkpt lat="43.52821" lon="5.55309">
        <ele>303.43322753906</ele>
        <time>2022-03-16T15:05:40Z</time>
      </trkpt>
      <trkpt lat="43.52813" lon="5.55293">
        <ele>301.02990722656</ele>
        <time>2022-03-16T15:05:55Z</time>
      </trkpt>
      <trkpt lat="43.52805" lon="5.55272">
        <ele>299.10729980469</ele>
        <time>2022-03-16T15:06:10Z</time>
      </trkpt>
      <trkpt lat="43.52803" lon="5.55266">
        <ele>298.62670898438</ele>
        <time>2022-03-16T15:06:16Z</time>
      </trkpt>
      <trkpt lat="43.52802" lon="5.5523">
        <ele>296.22351074219</ele>
        <time>2022-03-16T15:06:39Z</time>
      </trkpt>
      <trkpt lat="43.52799" lon="5.552">
        <ele>294.30078125</ele>
        <time>2022-03-16T15:07:00Z</time>
      </trkpt>
      <trkpt lat="43.52795" lon="5.55177">
        <ele>292.37817382812</ele>
        <time>2022-03-16T15:07:17Z</time>
      </trkpt>
      <trkpt lat="43.52787" lon="5.55152">
        <ele>289.97485351562</ele>
        <time>2022-03-16T15:07:35Z</time>
      </trkpt>
      <trkpt lat="43.52781" lon="5.55126">
        <ele>287.57141113281</ele>
        <time>2022-03-16T15:07:53Z</time>
      </trkpt>
      <trkpt lat="43.52779" lon="5.55116">
        <ele>287.0908203125</ele>
        <time>2022-03-16T15:07:59Z</time>
      </trkpt>
      <trkpt lat="43.52779" lon="5.55112">
        <ele>286.61022949219</ele>
        <time>2022-03-16T15:08:02Z</time>
      </trkpt>
      <trkpt lat="43.52771" lon="5.55078">
        <ele>284.20690917969</ele>
        <time>2022-03-16T15:08:24Z</time>
      </trkpt>
      <trkpt lat="43.52764" lon="5.55046">
        <ele>281.80358886719</ele>
        <time>2022-03-16T15:08:45Z</time>
      </trkpt>
      <trkpt lat="43.52763" lon="5.55043">
        <ele>281.32299804688</ele>
        <time>2022-03-16T15:08:47Z</time>
      </trkpt>
      <trkpt lat="43.52762" lon="5.55037">
        <ele>281.32299804688</ele>
        <time>2022-03-16T15:08:51Z</time>
      </trkpt>
      <trkpt lat="43.52754" lon="5.55015">
        <ele>278.43896484375</ele>
        <time>2022-03-16T15:09:09Z</time>
      </trkpt>
      <trkpt lat="43.52744" lon="5.5499">
        <ele>275.55505371094</ele>
        <time>2022-03-16T15:09:28Z</time>
      </trkpt>
      <trkpt lat="43.52738" lon="5.54971">
        <ele>273.63244628906</ele>
        <time>2022-03-16T15:09:40Z</time>
      </trkpt>
      <trkpt lat="43.52738" lon="5.54968">
        <ele>273.63244628906</ele>
        <time>2022-03-16T15:09:42Z</time>
      </trkpt>
      <trkpt lat="43.52728" lon="5.54942">
        <ele>269.787109375</ele>
        <time>2022-03-16T15:10:00Z</time>
      </trkpt>
      <trkpt lat="43.52726" lon="5.54937">
        <ele>269.30651855469</ele>
        <time>2022-03-16T15:10:17Z</time>
      </trkpt>
      <trkpt lat="43.52728" lon="5.5494">
        <ele>269.30651855469</ele>
        <time>2022-03-16T15:10:31Z</time>
      </trkpt>
      <trkpt lat="43.52727" lon="5.54926">
        <ele>268.34509277344</ele>
        <time>2022-03-16T15:10:44Z</time>
      </trkpt>
      <trkpt lat="43.52725" lon="5.54912">
        <ele>267.38391113281</ele>
        <time>2022-03-16T15:10:57Z</time>
      </trkpt>
      <trkpt lat="43.52724" lon="5.54906">
        <ele>266.90319824219</ele>
        <time>2022-03-16T15:11:04Z</time>
      </trkpt>
      <trkpt lat="43.52726" lon="5.54888">
        <ele>264.98059082031</ele>
        <time>2022-03-16T15:11:19Z</time>
      </trkpt>
      <trkpt lat="43.52729" lon="5.54867">
        <ele>264.01928710938</ele>
        <time>2022-03-16T15:11:37Z</time>
      </trkpt>
      <trkpt lat="43.52731" lon="5.54843">
        <ele>262.5771484375</ele>
        <time>2022-03-16T15:11:54Z</time>
      </trkpt>
      <trkpt lat="43.52727" lon="5.54834">
        <ele>262.09655761719</ele>
        <time>2022-03-16T15:12:06Z</time>
      </trkpt>
      <trkpt lat="43.52727" lon="5.54828">
        <ele>261.61596679688</ele>
        <time>2022-03-16T15:12:31Z</time>
      </trkpt>
      <trkpt lat="43.52727" lon="5.54825">
        <ele>261.61596679688</ele>
        <time>2022-03-16T15:12:55Z</time>
      </trkpt>
      <trkpt lat="43.52726" lon="5.54822">
        <ele>261.13525390625</ele>
        <time>2022-03-16T15:13:28Z</time>
      </trkpt>
      <trkpt lat="43.52726" lon="5.54821">
        <ele>260.17395019531</ele>
        <time>2022-03-16T15:14:59Z</time>
      </trkpt>
      <trkpt lat="43.52728" lon="5.54823">
        <ele>260.17395019531</ele>
        <time>2022-03-16T15:15:08Z</time>
      </trkpt>
      <trkpt lat="43.52728" lon="5.5482">
        <ele>260.17395019531</ele>
        <time>2022-03-16T15:15:54Z</time>
      </trkpt>
      <trkpt lat="43.52729" lon="5.54812">
        <ele>260.17395019531</ele>
        <time>2022-03-16T15:16:23Z</time>
      </trkpt>
      <trkpt lat="43.52731" lon="5.54808">
        <ele>259.693359375</ele>
        <time>2022-03-16T15:16:40Z</time>
      </trkpt>
      <trkpt lat="43.52735" lon="5.54795">
        <ele>259.21264648438</ele>
        <time>2022-03-16T15:16:54Z</time>
      </trkpt>
      <trkpt lat="43.52733" lon="5.54788">
        <ele>259.693359375</ele>
        <time>2022-03-16T15:17:10Z</time>
      </trkpt>
      <trkpt lat="43.52733" lon="5.5479">
        <ele>259.693359375</ele>
        <time>2022-03-16T15:17:50Z</time>
      </trkpt>
      <trkpt lat="43.52731" lon="5.54791">
        <ele>259.21264648438</ele>
        <time>2022-03-16T15:17:52Z</time>
      </trkpt>
      <trkpt lat="43.52727" lon="5.54789">
        <ele>259.693359375</ele>
        <time>2022-03-16T15:17:55Z</time>
      </trkpt>
      <trkpt lat="43.52715" lon="5.54789">
        <ele>259.693359375</ele>
        <time>2022-03-16T15:18:11Z</time>
      </trkpt>
      <trkpt lat="43.5269" lon="5.54772">
        <ele>258.73193359375</ele>
        <time>2022-03-16T15:18:33Z</time>
      </trkpt>
      <trkpt lat="43.52665" lon="5.54757">
        <ele>257.77075195312</ele>
        <time>2022-03-16T15:18:56Z</time>
      </trkpt>
      <trkpt lat="43.52643" lon="5.54744">
        <ele>257.2900390625</ele>
        <time>2022-03-16T15:19:18Z</time>
      </trkpt>
      <trkpt lat="43.52617" lon="5.54726">
        <ele>256.32873535156</ele>
        <time>2022-03-16T15:19:43Z</time>
      </trkpt>
      <trkpt lat="43.52606" lon="5.5472">
        <ele>256.32873535156</ele>
        <time>2022-03-16T15:19:58Z</time>
      </trkpt>
      <trkpt lat="43.52593" lon="5.54712">
        <ele>255.84802246094</ele>
        <time>2022-03-16T15:20:11Z</time>
      </trkpt>
      <trkpt lat="43.52586" lon="5.54709">
        <ele>255.84802246094</ele>
        <time>2022-03-16T15:20:24Z</time>
      </trkpt>
      <trkpt lat="43.52579" lon="5.54707">
        <ele>254.88659667969</ele>
        <time>2022-03-16T15:20:32Z</time>
      </trkpt>
      <trkpt lat="43.52574" lon="5.54706">
        <ele>254.88659667969</ele>
        <time>2022-03-16T15:20:37Z</time>
      </trkpt>
      <trkpt lat="43.52573" lon="5.54705">
        <ele>255.36730957031</ele>
        <time>2022-03-16T15:20:39Z</time>
      </trkpt>
      <trkpt lat="43.52553" lon="5.54692">
        <ele>253.92541503906</ele>
        <time>2022-03-16T15:21:00Z</time>
      </trkpt>
      <trkpt lat="43.52551" lon="5.54691">
        <ele>253.92541503906</ele>
        <time>2022-03-16T15:21:02Z</time>
      </trkpt>
      <trkpt lat="43.52547" lon="5.54693">
        <ele>253.92541503906</ele>
        <time>2022-03-16T15:21:15Z</time>
      </trkpt>
      <trkpt lat="43.52544" lon="5.54688">
        <ele>254.40600585938</ele>
        <time>2022-03-16T15:21:24Z</time>
      </trkpt>
      <trkpt lat="43.52537" lon="5.54682">
        <ele>253.92541503906</ele>
        <time>2022-03-16T15:21:32Z</time>
      </trkpt>
      <trkpt lat="43.52517" lon="5.54678">
        <ele>252.96398925781</ele>
        <time>2022-03-16T15:21:50Z</time>
      </trkpt>
      <trkpt lat="43.52501" lon="5.5468">
        <ele>252.4833984375</ele>
        <time>2022-03-16T15:22:06Z</time>
      </trkpt>
      <trkpt lat="43.52494" lon="5.54683">
        <ele>252.00280761719</ele>
        <time>2022-03-16T15:22:13Z</time>
      </trkpt>
      <trkpt lat="43.52486" lon="5.54689">
        <ele>251.52209472656</ele>
        <time>2022-03-16T15:22:22Z</time>
      </trkpt>
      <trkpt lat="43.52476" lon="5.5469">
        <ele>251.04138183594</ele>
        <time>2022-03-16T15:22:32Z</time>
      </trkpt>
      <trkpt lat="43.52472" lon="5.54697">
        <ele>251.04138183594</ele>
        <time>2022-03-16T15:22:38Z</time>
      </trkpt>
      <trkpt lat="43.52471" lon="5.54706">
        <ele>251.04138183594</ele>
        <time>2022-03-16T15:22:52Z</time>
      </trkpt>
      <trkpt lat="43.52472" lon="5.54703">
        <ele>250.56079101562</ele>
        <time>2022-03-16T15:23:12Z</time>
      </trkpt>
      <trkpt lat="43.5247" lon="5.54702">
        <ele>251.04138183594</ele>
        <time>2022-03-16T15:24:02Z</time>
      </trkpt>
      <trkpt lat="43.52468" lon="5.54703">
        <ele>250.56079101562</ele>
        <time>2022-03-16T15:25:02Z</time>
      </trkpt>
      <trkpt lat="43.52463" lon="5.54704">
        <ele>251.04138183594</ele>
        <time>2022-03-16T15:25:28Z</time>
      </trkpt>
      <trkpt lat="43.52453" lon="5.54709">
        <ele>251.52209472656</ele>
        <time>2022-03-16T15:25:39Z</time>
      </trkpt>
      <trkpt lat="43.52444" lon="5.54721">
        <ele>251.52209472656</ele>
        <time>2022-03-16T15:25:52Z</time>
      </trkpt>
      <trkpt lat="43.52433" lon="5.54729">
        <ele>251.04138183594</ele>
        <time>2022-03-16T15:26:04Z</time>
      </trkpt>
      <trkpt lat="43.5243" lon="5.54733">
        <ele>251.04138183594</ele>
        <time>2022-03-16T15:26:07Z</time>
      </trkpt>
      <trkpt lat="43.52417" lon="5.54741">
        <ele>252.00280761719</ele>
        <time>2022-03-16T15:26:21Z</time>
      </trkpt>
      <trkpt lat="43.52407" lon="5.54748">
        <ele>252.00280761719</ele>
        <time>2022-03-16T15:26:32Z</time>
      </trkpt>
      <trkpt lat="43.52387" lon="5.54759">
        <ele>252.00280761719</ele>
        <time>2022-03-16T15:26:49Z</time>
      </trkpt>
      <trkpt lat="43.52367" lon="5.54769">
        <ele>252.96398925781</ele>
        <time>2022-03-16T15:27:04Z</time>
      </trkpt>
      <trkpt lat="43.52348" lon="5.54782">
        <ele>252.96398925781</ele>
        <time>2022-03-16T15:27:18Z</time>
      </trkpt>
      <trkpt lat="43.52332" lon="5.54796">
        <ele>253.44470214844</ele>
        <time>2022-03-16T15:27:36Z</time>
      </trkpt>
      <trkpt lat="43.52327" lon="5.548">
        <ele>253.92541503906</ele>
        <time>2022-03-16T15:27:41Z</time>
      </trkpt>
      <trkpt lat="43.52311" lon="5.54802">
        <ele>253.92541503906</ele>
        <time>2022-03-16T15:27:56Z</time>
      </trkpt>
      <trkpt lat="43.52302" lon="5.54792">
        <ele>253.92541503906</ele>
        <time>2022-03-16T15:28:14Z</time>
      </trkpt>
      <trkpt lat="43.52292" lon="5.54767">
        <ele>253.44470214844</ele>
        <time>2022-03-16T15:28:33Z</time>
      </trkpt>
      <trkpt lat="43.5229" lon="5.54761">
        <ele>253.44470214844</ele>
        <time>2022-03-16T15:28:37Z</time>
      </trkpt>
      <trkpt lat="43.52278" lon="5.54734">
        <ele>253.44470214844</ele>
        <time>2022-03-16T15:28:56Z</time>
      </trkpt>
      <trkpt lat="43.52268" lon="5.54718">
        <ele>253.44470214844</ele>
        <time>2022-03-16T15:29:11Z</time>
      </trkpt>
      <trkpt lat="43.52251" lon="5.54719">
        <ele>254.88659667969</ele>
        <time>2022-03-16T15:29:31Z</time>
      </trkpt>
      <trkpt lat="43.52247" lon="5.54716">
        <ele>254.40600585938</ele>
        <time>2022-03-16T15:29:35Z</time>
      </trkpt>
      <trkpt lat="43.52247" lon="5.54715">
        <ele>254.40600585938</ele>
        <time>2022-03-16T15:29:36Z</time>
      </trkpt>
    </trkseg>
  </trk>
</gpx>